Provisional Data: Little Pine Creek near Waterville, PA


Please select a monitoring station.
Please select start date.
Please select start date.

Toggle Unit: C/F Toggle Unit: C/F
Sample Time Temperature (C) Temperature (F) Specific Conductivity (mS/cm) pH   Turbidity (NTU+) DO (mg/L)
4/13/2022 12:00:00 AM 9.33 48.794 0.086 7.09 2.25 11.37
4/13/2022 12:15:00 AM 9.32 48.776 0.086 7.09 2.23 11.38
4/13/2022 12:30:00 AM 9.3 48.74 0.086 7.09 2.3 11.38
4/13/2022 12:45:00 AM 9.29 48.722 0.086 7.09 2.28 11.37
4/13/2022 1:00:00 AM 9.3 48.74 0.086 7.09 2.21 11.37
4/13/2022 1:15:00 AM 9.3 48.74 0.086 7.09 2.3 11.37
4/13/2022 1:30:00 AM 9.31 48.758 0.086 7.09 2.22 11.36
4/13/2022 1:45:00 AM 9.32 48.776 0.086 7.09 2.25 11.35
4/13/2022 2:00:00 AM 9.33 48.794 0.086 7.09 2.27 11.34
4/13/2022 2:15:00 AM 9.34 48.812 0.086 7.09 2.28 11.34
4/13/2022 2:30:00 AM 9.34 48.812 0.085 7.09 2.34 11.34
4/13/2022 2:45:00 AM 9.33 48.794 0.085 7.09 2.26 11.34
4/13/2022 3:00:00 AM 9.31 48.758 0.085 7.09 2.43 11.34
4/13/2022 3:15:00 AM 9.28 48.704 0.085 7.09 2.29 11.35
4/13/2022 3:30:00 AM 9.27 48.686 0.085 7.09 2.29 11.35
4/13/2022 3:45:00 AM 9.27 48.686 0.085 7.09 2.4 11.35
4/13/2022 4:00:00 AM 9.29 48.722 0.085 7.09 2.42 11.34
4/13/2022 4:15:00 AM 9.3 48.74 0.085 7.09 2.71 11.34
4/13/2022 4:30:00 AM 9.32 48.776 0.085 7.09 2.5 11.34
4/13/2022 4:45:00 AM 9.33 48.794 0.086 7.09 2.49 11.33
4/13/2022 5:00:00 AM 9.34 48.812 0.086 7.09 2.37 11.33
4/13/2022 5:15:00 AM 9.35 48.83 0.086 7.09 2.33 11.33
4/13/2022 5:30:00 AM 9.37 48.866 0.086 7.09 2.45 11.32
4/13/2022 5:45:00 AM 9.39 48.902 0.086 7.08 2.41 11.32
4/13/2022 6:00:00 AM 9.41 48.938 0.086 7.09 2.47 11.31
4/13/2022 6:15:00 AM 9.43 48.974 0.086 7.09 2.4 11.31
4/13/2022 6:30:00 AM 9.43 48.974 0.086 7.08 2.67 11.31
4/13/2022 6:45:00 AM 9.42 48.956 0.086 7.09 2.31 11.31
4/13/2022 7:00:00 AM 9.42 48.956 0.086 7.09 2.33 11.33
4/13/2022 7:15:00 AM 9.43 48.974 0.086 7.1 2.26 11.37
4/13/2022 7:30:00 AM 9.43 48.974 0.086 7.11 2.34 11.41
4/13/2022 7:45:00 AM 9.42 48.956 0.087 7.12 2.61 11.45
4/13/2022 8:00:00 AM 9.4 48.92 0.087 7.13 2.3 11.49
4/13/2022 8:15:00 AM 9.39 48.902 0.086 7.14 2.21 11.52
4/13/2022 8:30:00 AM 9.41 48.938 0.086 7.15 2.48 11.57
4/13/2022 8:45:00 AM 9.44 48.992 0.086 7.16 2.18 11.62
4/13/2022 9:00:00 AM 9.48 49.064 0.086 7.18 2.18 11.66
4/13/2022 9:15:00 AM 9.52 49.136 0.086 7.19 2.2 11.69
4/13/2022 9:30:00 AM 9.58 49.244 0.086 7.2 2.17 11.73
4/13/2022 9:45:00 AM 9.64 49.352 0.086 7.22 2.17 11.76
4/13/2022 10:00:00 AM 9.71 49.478 0.086 7.23 2.13 11.81
4/13/2022 10:15:00 AM 9.76 49.568 0.086 7.24 2.1 11.83
4/13/2022 10:30:00 AM 9.81 49.658 0.086 7.26 2.16 11.86
4/13/2022 10:45:00 AM 9.87 49.766 0.086 7.26 2.13 11.85
4/13/2022 11:00:00 AM 9.94 49.892 0.086 7.28 2.13 11.87
4/13/2022 11:15:00 AM 10.01 50.018 0.086 7.29 2.16 11.89
4/13/2022 11:30:00 AM 10.19 50.342 0.086 7.3 2.07 11.9
4/13/2022 11:45:00 AM 10.37 50.666 0.086 7.32 2.12 11.91
4/13/2022 12:00:00 PM 10.51 50.918 0.086 7.32 2.1 11.9
4/13/2022 12:15:00 PM 10.62 51.116 0.086 7.34 2.16 11.9
4/13/2022 12:30:00 PM 10.76 51.368 0.086 7.35 2.18 11.89
4/13/2022 12:45:00 PM 10.91 51.638 0.086 7.36 2.17 11.88
4/13/2022 1:00:00 PM 11.04 51.872 0.086 7.37 2.18 11.88
4/13/2022 1:15:00 PM 11.13 52.034 0.085 7.37 2.21 11.87
4/13/2022 1:30:00 PM 11.18 52.124 0.085 7.38 2.11 11.83
4/13/2022 1:45:00 PM 11.02 51.836 0.085 7.36 2.31 11.77
4/13/2022 2:00:00 PM 10.96 51.728 0.085 7.36 2.29 11.78
4/13/2022 2:15:00 PM 10.89 51.602 0.085 7.36 2.19 11.79
4/13/2022 2:30:00 PM 10.8 51.44 0.085 7.36 2.21 11.81
4/13/2022 2:45:00 PM 10.72 51.296 0.085 7.36 2.26 11.81
4/13/2022 3:00:00 PM 10.67 51.206 0.085 7.36 2.42 11.83
4/13/2022 3:15:00 PM 10.61 51.098 0.085 7.36 2.29 11.84
4/13/2022 3:30:00 PM 10.58 51.044 0.085 7.36 2.24 11.87
4/13/2022 3:45:00 PM 10.53 50.954 0.085 7.36 2.43 11.88
4/13/2022 4:00:00 PM 10.42 50.756 0.085 7.36 2.19 11.89
4/13/2022 4:15:00 PM 10.32 50.576 0.085 7.36 2.38 11.91
4/13/2022 4:30:00 PM 10.24 50.432 0.085 7.36 2.28 11.91
4/13/2022 4:45:00 PM 10.19 50.342 0.085 7.36 2.31 11.92
4/13/2022 5:00:00 PM 10.15 50.27 0.085 7.36 2.28 11.91
4/13/2022 5:15:00 PM 10.16 50.288 0.085 7.36 2.31 11.89
4/13/2022 5:30:00 PM 10.16 50.288 0.085 7.35 2.23 11.85
4/13/2022 5:45:00 PM 10.15 50.27 0.085 7.34 2.29 11.79
4/13/2022 6:00:00 PM 10.13 50.234 0.085 7.32 2.43 11.73
4/13/2022 6:15:00 PM 10.08 50.144 0.085 7.29 2.3 11.65
4/13/2022 6:30:00 PM 10.06 50.108 0.085 7.27 2.29 11.57
4/13/2022 6:45:00 PM 10.07 50.126 0.085 7.25 2.3 11.53
4/13/2022 7:00:00 PM 10.12 50.216 0.085 7.24 2.25 11.48
4/13/2022 7:15:00 PM 10.16 50.288 0.085 7.23 2.21 11.41
4/13/2022 7:30:00 PM 10.18 50.324 0.085 7.21 2.34 11.34
4/13/2022 7:45:00 PM 10.19 50.342 0.085 7.19 2.38 11.26
4/13/2022 8:00:00 PM 10.19 50.342 0.086 7.18 2.41 11.2
4/13/2022 8:15:00 PM 10.18 50.324 0.086 7.16 2.33 11.15
4/13/2022 8:30:00 PM 10.16 50.288 0.086 7.15 2.41 11.12
4/13/2022 8:45:00 PM 10.15 50.27 0.086 7.14 2.46 11.1
4/13/2022 9:00:00 PM 10.14 50.252 0.086 7.13 2.46 11.07
4/13/2022 9:15:00 PM 10.16 50.288 0.086 7.12 2.43 11.05
4/13/2022 9:30:00 PM 10.17 50.306 0.086 7.12 2.37 11.02
4/13/2022 9:45:00 PM 10.19 50.342 0.086 7.11 2.53 11
4/13/2022 10:00:00 PM 10.2 50.36 0.086 7.1 2.48 10.99
4/13/2022 10:15:00 PM 10.22 50.396 0.086 7.1 2.56 10.97
4/13/2022 10:30:00 PM 10.23 50.414 0.086 7.1 2.59 10.96
4/13/2022 10:45:00 PM 10.25 50.45 0.086 7.09 2.39 10.95
4/13/2022 11:00:00 PM 10.27 50.486 0.086 7.09 2.46 10.94
4/13/2022 11:15:00 PM 10.29 50.522 0.086 7.09 2.44 10.93
4/13/2022 11:30:00 PM 10.3 50.54 0.086 7.09 2.63 10.93
4/13/2022 11:45:00 PM 10.31 50.558 0.087 7.08 2.46 10.93
4/14/2022 12:00:00 AM 10.31 50.558 0.087 7.08 2.37 10.92
4/14/2022 12:15:00 AM 10.31 50.558 0.087 7.08 2.45 10.91
4/14/2022 12:30:00 AM 10.32 50.576 0.087 7.08 2.49 10.91
4/14/2022 12:45:00 AM 10.33 50.594 0.087 7.08 2.78 10.9
4/14/2022 1:00:00 AM 10.34 50.612 0.087 7.07 2.48 10.9
4/14/2022 1:15:00 AM 10.35 50.63 0.087 7.07 2.38 10.9
4/14/2022 1:30:00 AM 10.36 50.648 0.087 7.07 2.51 10.89
4/14/2022 1:45:00 AM 10.37 50.666 0.087 7.07 2.38 10.89
4/14/2022 2:00:00 AM 10.37 50.666 0.087 7.07 2.41 10.89
4/14/2022 2:15:00 AM 10.38 50.684 0.087 7.07 2.38 10.89
4/14/2022 2:30:00 AM 10.39 50.702 0.087 7.07 2.46 10.88
4/14/2022 2:45:00 AM 10.4 50.72 0.087 7.06 2.5 10.87
4/14/2022 3:00:00 AM 10.41 50.738 0.087 7.06 2.34 10.87
4/14/2022 3:15:00 AM 10.41 50.738 0.087 7.06 2.37 10.88
4/14/2022 3:30:00 AM 10.4 50.72 0.087 7.06 2.49 10.88
4/14/2022 3:45:00 AM 10.39 50.702 0.087 7.06 2.38 10.88
4/14/2022 4:00:00 AM 10.39 50.702 0.087 7.06 2.37 10.87
4/14/2022 4:15:00 AM 10.39 50.702 0.087 7.06 2.43 10.87
4/14/2022 4:30:00 AM 10.38 50.684 0.088 7.06 2.48 10.87
4/14/2022 4:45:00 AM 10.38 50.684 0.088 7.06 2.38 10.86
4/14/2022 5:00:00 AM 10.38 50.684 0.088 7.06 2.37 10.87
4/14/2022 5:15:00 AM 10.37 50.666 0.088 7.06 2.39 10.86
4/14/2022 5:30:00 AM 10.37 50.666 0.088 7.06 2.42 10.86
4/14/2022 5:45:00 AM 10.37 50.666 0.088 7.06 2.38 10.86
4/14/2022 6:00:00 AM 10.36 50.648 0.088 7.06 2.39 10.86
4/14/2022 6:15:00 AM 10.36 50.648 0.088 7.06 2.38 10.86
4/14/2022 6:30:00 AM 10.35 50.63 0.088 7.06 2.41 10.87
4/14/2022 6:45:00 AM 10.34 50.612 0.088 7.06 2.33 10.87
4/14/2022 7:00:00 AM 10.34 50.612 0.088 7.07 2.44 10.9
4/14/2022 7:15:00 AM 10.34 50.612 0.088 7.08 2.35 10.92
4/14/2022 7:30:00 AM 10.34 50.612 0.088 7.08 2.32 10.95
4/14/2022 7:45:00 AM 10.34 50.612 0.088 7.09 2.3 10.98
4/14/2022 8:00:00 AM 10.35 50.63 0.088 7.1 2.28 11.02
4/14/2022 8:15:00 AM 10.37 50.666 0.088 7.11 2.28 11.06
4/14/2022 8:30:00 AM 10.41 50.738 0.088 7.13 2.2 11.12
4/14/2022 8:45:00 AM 10.46 50.828 0.088 7.14 2.21 11.17
4/14/2022 9:00:00 AM 10.53 50.954 0.088 7.16 2.34 11.22
4/14/2022 9:15:00 AM 10.56 51.008 0.088 7.17 2.17 11.25
4/14/2022 9:30:00 AM 10.69 51.242 0.088 7.19 2.14 11.29
4/14/2022 9:45:00 AM 10.82 51.476 0.088 7.21 2.19 11.32
4/14/2022 10:00:00 AM 10.93 51.674 0.087 7.23 2.21 11.35
4/14/2022 10:15:00 AM 11.04 51.872 0.087 7.25 2.16 11.37
4/14/2022 10:30:00 AM 11.12 52.016 0.087 7.28 2.23 11.41
4/14/2022 10:45:00 AM 11.2 52.16 0.087 7.3 2.22 11.41
4/14/2022 11:00:00 AM 11.28 52.304 0.087 7.32 2.2 11.45
4/14/2022 11:15:00 AM 11.36 52.448 0.087 7.33 2.25 11.44
4/14/2022 11:30:00 AM 11.44 52.592 0.087 7.35 2.23 11.44
4/14/2022 11:45:00 AM 11.46 52.628 0.087 7.34 2.21 11.38
4/14/2022 12:00:00 PM 11.49 52.682 0.087 7.35 2.23 11.38
4/14/2022 12:15:00 PM 11.54 52.772 0.087 7.36 2.24 11.4
4/14/2022 12:30:00 PM 11.59 52.862 0.087 7.36 2.31 11.42
4/14/2022 12:45:00 PM 11.56 52.808 0.087 7.36 2.41 11.42
4/14/2022 1:00:00 PM 11.52 52.736 0.087 7.35 2.3 11.39
4/14/2022 1:15:00 PM 11.43 52.574 0.088 7.34 2.41 11.41
4/14/2022 1:30:00 PM 11.25 52.25 0.088 7.32 2.32 11.37
4/14/2022 1:45:00 PM 11.13 52.034 0.088 7.31 2.39 11.36
4/14/2022 2:00:00 PM 11.04 51.872 0.088 7.3 2.41 11.35
4/14/2022 2:15:00 PM 10.96 51.728 0.089 7.29 2.32 11.34
4/14/2022 2:30:00 PM 10.92 51.656 0.089 7.29 2.24 11.37
4/14/2022 2:45:00 PM 10.92 51.656 0.089 7.3 2.31 11.42
4/14/2022 3:00:00 PM 10.94 51.692 0.089 7.31 2.29 11.47
4/14/2022 3:15:00 PM 10.89 51.602 0.089 7.32 2.31 11.49
4/14/2022 3:30:00 PM 10.86 51.548 0.089 7.32 2.44 11.53
4/14/2022 3:45:00 PM 10.9 51.62 0.089 7.33 2.67 11.57
4/14/2022 4:00:00 PM 10.88 51.584 0.089 7.34 2.52 11.61
4/14/2022 4:15:00 PM 10.83 51.494 0.089 7.35 2.49 11.61
4/14/2022 4:30:00 PM 10.87 51.566 0.089 7.36 2.5 11.63
4/14/2022 4:45:00 PM 10.92 51.656 0.089 7.37 2.49 11.61
4/14/2022 5:00:00 PM 11.01 51.818 0.089 7.37 2.47 11.6
4/14/2022 5:15:00 PM 11 51.8 0.089 7.37 2.46 11.55
4/14/2022 5:30:00 PM 11.01 51.818 0.089 7.36 2.45 11.51
4/14/2022 5:45:00 PM 11.06 51.908 0.089 7.36 2.37 11.47
4/14/2022 6:00:00 PM 11.1 51.98 0.089 7.36 2.35 11.46
4/14/2022 6:15:00 PM 11.09 51.962 0.089 7.35 2.39 11.45
4/14/2022 6:30:00 PM 11 51.8 0.089 7.33 2.41 11.37
4/14/2022 6:45:00 PM 10.91 51.638 0.089 7.3 2.51 11.31
4/14/2022 7:00:00 PM 10.85 51.53 0.089 7.28 2.53 11.26
4/14/2022 7:15:00 PM 10.79 51.422 0.089 7.26 2.61 11.22
4/14/2022 7:30:00 PM 10.72 51.296 0.089 7.24 2.5 11.17
4/14/2022 7:45:00 PM 10.67 51.206 0.089 7.22 2.5 11.12
4/14/2022 8:00:00 PM 10.63 51.134 0.089 7.21 2.52 11.07
4/14/2022 8:15:00 PM 10.59 51.062 0.09 7.19 3.43 11.03
4/14/2022 8:30:00 PM 10.54 50.972 0.09 7.18 2.57 10.99
4/14/2022 8:45:00 PM 10.48 50.864 0.09 7.16 2.63 10.96
4/14/2022 9:00:00 PM 10.43 50.774 0.09 7.16 2.86 10.95
4/14/2022 9:15:00 PM 10.38 50.684 0.09 7.15 2.58 10.94
4/14/2022 9:30:00 PM 10.35 50.63 0.09 7.14 2.9 10.93
4/14/2022 9:45:00 PM 10.32 50.576 0.09 7.13 2.64 10.92
4/14/2022 10:00:00 PM 10.3 50.54 0.09 7.13 2.65 10.92
4/14/2022 10:15:00 PM 10.28 50.504 0.09 7.12 2.67 10.92
4/14/2022 10:30:00 PM 10.25 50.45 0.09 7.13 2.61 10.91
4/14/2022 10:45:00 PM 10.23 50.414 0.09 7.12 2.65 10.92
4/14/2022 11:00:00 PM 10.2 50.36 0.09 7.11 2.67 10.93
4/14/2022 11:15:00 PM 10.17 50.306 0.09 7.11 2.64 10.94
4/14/2022 11:30:00 PM 10.14 50.252 0.09 7.1 2.61 10.95
4/14/2022 11:45:00 PM 10.12 50.216 0.09 7.1 2.64 10.95
4/15/2022 12:00:00 AM 10.09 50.162 0.09 7.1 2.63 10.95
4/15/2022 12:15:00 AM 10.06 50.108 0.09 7.09 2.67 10.97
4/15/2022 12:30:00 AM 10.04 50.072 0.09 7.1 2.72 10.97
4/15/2022 12:45:00 AM 10.01 50.018 0.09 7.09 2.6 10.98
4/15/2022 1:00:00 AM 9.98 49.964 0.09 7.09 2.6 10.99
4/15/2022 1:15:00 AM 9.96 49.928 0.09 7.1 2.63 11
4/15/2022 1:30:00 AM 9.94 49.892 0.09 7.1 2.59 10.99
4/15/2022 1:45:00 AM 9.91 49.838 0.09 7.09 2.62 11
4/15/2022 2:00:00 AM 9.9 49.82 0.09 7.09 2.7 11.01
4/15/2022 2:15:00 AM 9.87 49.766 0.09 7.09 2.74 11.01
4/15/2022 2:30:00 AM 9.85 49.73 0.09 7.09 2.57 11.02
4/15/2022 2:45:00 AM 9.84 49.712 0.09 7.08 2.62 11.02
4/15/2022 3:00:00 AM 9.82 49.676 0.09 7.08 2.69 11.03
4/15/2022 3:15:00 AM 9.8 49.64 0.09 7.08 2.6 11.03
4/15/2022 3:30:00 AM 9.78 49.604 0.09 7.08 2.59 11.05
4/15/2022 3:45:00 AM 9.76 49.568 0.09 7.09 2.6 11.05
4/15/2022 4:00:00 AM 9.74 49.532 0.09 7.08 2.56 11.06
4/15/2022 4:15:00 AM 9.72 49.496 0.09 7.08 2.68 11.06
4/15/2022 4:30:00 AM 9.7 49.46 0.09 7.08 2.57 11.07
4/15/2022 4:45:00 AM 9.68 49.424 0.09 7.08 2.7 11.07
4/15/2022 5:00:00 AM 9.66 49.388 0.09 7.09 3.7 11.08
4/15/2022 5:15:00 AM 9.64 49.352 0.09 7.08 2.76 11.09
4/15/2022 5:30:00 AM 9.62 49.316 0.09 7.09 2.7 11.1
4/15/2022 5:45:00 AM 9.6 49.28 0.09 7.08 2.79 11.1
4/15/2022 6:00:00 AM 9.58 49.244 0.09 7.08 2.43 11.11
4/15/2022 6:15:00 AM 9.54 49.172 0.09 7.09 2.63 11.12
4/15/2022 6:30:00 AM 9.52 49.136 0.09 7.09 2.31 11.13
4/15/2022 6:45:00 AM 9.49 49.082 0.09 7.09 2.22 11.15
4/15/2022 7:00:00 AM 9.47 49.046 0.09 7.1 2.26 11.18
4/15/2022 7:15:00 AM 9.45 49.01 0.09 7.1 2.2 11.22
4/15/2022 7:30:00 AM 9.44 48.992 0.09 7.12 2.18 11.27
4/15/2022 7:45:00 AM 9.43 48.974 0.09 7.12 2.18 11.3
4/15/2022 8:00:00 AM 9.42 48.956 0.09 7.13 2.24 11.34
4/15/2022 8:15:00 AM 9.42 48.956 0.09 7.14 2.18 11.38
4/15/2022 8:30:00 AM 9.44 48.992 0.09 7.16 2.25 11.45
4/15/2022 8:45:00 AM 9.48 49.064 0.09 7.17 2.15 11.5
4/15/2022 9:00:00 AM 9.52 49.136 0.09 7.18 2.08 11.54
4/15/2022 9:15:00 AM 9.56 49.208 0.09 7.19 2.23 11.59
4/15/2022 9:30:00 AM 9.62 49.316 0.09 7.21 2.15 11.62
4/15/2022 9:45:00 AM 9.69 49.442 0.09 7.22 2.16 11.65
4/15/2022 10:00:00 AM 9.77 49.586 0.09 7.24 2.16 11.68
4/15/2022 10:15:00 AM 9.86 49.748 0.09 7.25 2.16 11.72
4/15/2022 10:30:00 AM 9.97 49.946 0.09 7.27 2.3 11.74
4/15/2022 10:45:00 AM 10.09 50.162 0.09 7.28 2.13 11.77
4/15/2022 11:00:00 AM 10.25 50.45 0.09 7.3 2.13 11.78
4/15/2022 11:15:00 AM 10.4 50.72 0.09 7.31 2.16 11.78
4/15/2022 11:30:00 AM 10.59 51.062 0.09 7.33 2.17 11.78
4/15/2022 11:45:00 AM 10.78 51.404 0.09 7.33 2.24 11.78
4/15/2022 12:00:00 PM 11 51.8 0.09 7.35 2.44 11.76
4/15/2022 12:15:00 PM 11.12 52.016 0.09 7.35 2.28 11.74
4/15/2022 12:30:00 PM 11.36 52.448 0.09 7.37 2.33 11.72
4/15/2022 12:45:00 PM 11.57 52.826 0.09 7.37 2.16 11.7
4/15/2022 1:00:00 PM 11.72 53.096 0.09 7.38 2.19 11.68
4/15/2022 1:15:00 PM 11.84 53.312 0.09 7.38 2.16 11.66
4/15/2022 1:30:00 PM 11.95 53.51 0.09 7.39 2.25 11.67
4/15/2022 1:45:00 PM 12.04 53.672 0.09 7.39 2.12 11.67
4/15/2022 2:00:00 PM 12.06 53.708 0.09 7.39 2.45 11.66
4/15/2022 2:15:00 PM 12.01 53.618 0.09 7.39 2.18 11.66
4/15/2022 2:30:00 PM 11.98 53.564 0.09 7.39 2.24 11.69
4/15/2022 2:45:00 PM 11.92 53.456 0.091 7.39 2.07 11.69
4/15/2022 3:00:00 PM 11.85 53.33 0.091 7.39 2.06 11.71
4/15/2022 3:15:00 PM 11.76 53.168 0.091 7.39 2.11 11.72
4/15/2022 3:30:00 PM 11.59 52.862 0.091 7.38 2.1 11.72
4/15/2022 3:45:00 PM 11.55 52.79 0.091 7.39 2.07 11.73
4/15/2022 4:00:00 PM 11.48 52.664 0.091 7.39 2.12 11.73
4/15/2022 4:15:00 PM 11.27 52.286 0.091 7.39 2.19 11.73
4/15/2022 4:30:00 PM 11.1 51.98 0.091 7.39 2.2 11.76
4/15/2022 4:45:00 PM 10.9 51.62 0.091 7.38 2.23 11.77
4/15/2022 5:00:00 PM 10.66 51.188 0.091 7.38 2.19 11.77
4/15/2022 5:15:00 PM 10.48 50.864 0.091 7.36 2.13 11.75
4/15/2022 5:30:00 PM 10.36 50.648 0.091 7.36 2.08 11.71
4/15/2022 5:45:00 PM 10.28 50.504 0.091 7.34 2.11 11.66
4/15/2022 6:00:00 PM 10.21 50.378 0.091 7.34 2.09 11.63
4/15/2022 6:15:00 PM 10.14 50.252 0.091 7.32 2.09 11.62
4/15/2022 6:30:00 PM 10.03 50.054 0.091 7.31 2.15 11.61
4/15/2022 6:45:00 PM 9.91 49.838 0.091 7.3 2.18 11.59
4/15/2022 7:00:00 PM 9.8 49.64 0.092 7.28 2.18 11.57
4/15/2022 7:15:00 PM 9.71 49.478 0.092 7.26 2.12 11.53
4/15/2022 7:30:00 PM 9.64 49.352 0.092 7.25 2.15 11.49
4/15/2022 7:45:00 PM 9.61 49.298 0.092 7.24 2.18 11.43
4/15/2022 8:00:00 PM 9.6 49.28 0.092 7.22 2.31 11.37
4/15/2022 8:15:00 PM 9.59 49.262 0.092 7.2 2.17 11.31
4/15/2022 8:30:00 PM 9.59 49.262 0.092 7.19 2.32 11.27
4/15/2022 8:45:00 PM 9.6 49.28 0.092 7.18 2.06 11.22
4/15/2022 9:00:00 PM 9.6 49.28 0.092 7.17 2.25 11.18
4/15/2022 9:15:00 PM 9.63 49.334 0.092 7.15 2.16 11.15
4/15/2022 9:30:00 PM 9.66 49.388 0.092 7.15 2.29 11.11
4/15/2022 9:45:00 PM 9.68 49.424 0.092 7.14 2.22 11.09
4/15/2022 10:00:00 PM 9.71 49.478 0.092 7.13 2.26 11.07
4/15/2022 10:15:00 PM 9.73 49.514 0.093 7.13 2.31 11.06
4/15/2022 10:30:00 PM 9.75 49.55 0.093 7.13 2.32 11.04
4/15/2022 10:45:00 PM 9.77 49.586 0.093 7.13 2.32 11.03
4/15/2022 11:00:00 PM 9.78 49.604 0.093 7.12 2.29 11.03
4/15/2022 11:15:00 PM 9.8 49.64 0.093 7.12 2.27 11.01
4/15/2022 11:30:00 PM 9.82 49.676 0.093 7.11 2.27 11.01
4/15/2022 11:45:00 PM 9.85 49.73 0.093 7.11 2.26 11
4/16/2022 12:00:00 AM 9.88 49.784 0.093 7.11 2.24 10.99
4/16/2022 12:15:00 AM 9.9 49.82 0.093 7.11 2.17 10.98
4/16/2022 12:30:00 AM 9.92 49.856 0.093 7.11 2.15 10.97
4/16/2022 12:45:00 AM 9.93 49.874 0.093 7.1 2.25 10.96
4/16/2022 1:00:00 AM 9.94 49.892 0.093 7.1 2.25 10.96
4/16/2022 1:15:00 AM 9.94 49.892 0.093 7.11 2.36 10.96
4/16/2022 1:30:00 AM 9.95 49.91 0.093 7.12 2.51 10.96
4/16/2022 1:45:00 AM 9.95 49.91 0.093 7.11 2.69 10.95
4/16/2022 2:00:00 AM 9.95 49.91 0.093 7.1 3.09 10.95
4/16/2022 2:15:00 AM 9.96 49.928 0.093 7.1 2.51 10.95
4/16/2022 2:30:00 AM 9.96 49.928 0.093 7.09 2.68 10.94
4/16/2022 2:45:00 AM 9.97 49.946 0.093 7.1 2.99 10.94
4/16/2022 3:00:00 AM 9.98 49.964 0.093 7.1 2.8 10.94
4/16/2022 3:15:00 AM 9.99 49.982 0.093 7.1 2.84 10.94
4/16/2022 3:30:00 AM 9.99 49.982 0.093 7.1 2.77 10.93
4/16/2022 3:45:00 AM 10 50 0.093 7.09 2.63 10.93
4/16/2022 4:00:00 AM 10.01 50.018 0.093 7.1 2.55 10.93
4/16/2022 4:15:00 AM 10.02 50.036 0.093 7.09 2.63 10.93
4/16/2022 4:30:00 AM 10.03 50.054 0.093 7.09 2.53 10.93
4/16/2022 4:45:00 AM 10.03 50.054 0.093 7.1 2.62 10.92
4/16/2022 5:00:00 AM 10.04 50.072 0.093 7.09 2.59 10.92
4/16/2022 5:15:00 AM 10.05 50.09 0.093 7.1 2.56 10.92
4/16/2022 5:30:00 AM 10.05 50.09 0.093 7.1 2.55 10.92
4/16/2022 5:45:00 AM 10.06 50.108 0.093 7.09 2.5 10.92
4/16/2022 6:00:00 AM 10.07 50.126 0.093 7.1 2.52 10.91
4/16/2022 6:15:00 AM 10.08 50.144 0.093 7.1 2.47 10.92
4/16/2022 6:30:00 AM 10.08 50.144 0.093 7.1 2.52 10.93
4/16/2022 6:45:00 AM 10.09 50.162 0.093 7.09 2.44 10.93
4/16/2022 7:00:00 AM 10.1 50.18 0.093 7.1 2.51 10.94
4/16/2022 7:15:00 AM 10.1 50.18 0.093 7.11 2.34 10.96
4/16/2022 7:30:00 AM 10.12 50.216 0.093 7.12 2.35 11.01
4/16/2022 7:45:00 AM 10.13 50.234 0.093 7.13 2.3 11.05
4/16/2022 8:00:00 AM 10.16 50.288 0.093 7.15 2.32 11.11
4/16/2022 8:15:00 AM 10.19 50.342 0.093 7.16 2.31 11.17
4/16/2022 8:30:00 AM 10.21 50.378 0.093 7.18 2.35 11.23
4/16/2022 8:45:00 AM 10.26 50.468 0.093 7.2 2.33 11.29
4/16/2022 9:00:00 AM 10.3 50.54 0.093 7.21 2.36 11.32
4/16/2022 9:15:00 AM 10.35 50.63 0.093 7.23 2.25 11.37
4/16/2022 9:30:00 AM 10.42 50.756 0.093 7.25 2.3 11.43
4/16/2022 9:45:00 AM 10.54 50.972 0.092 7.28 2.22 11.49
4/16/2022 10:00:00 AM 10.57 51.026 0.093 7.29 2.25 11.5
4/16/2022 10:15:00 AM 10.6 51.08 0.092 7.31 2.19 11.54
4/16/2022 10:30:00 AM 10.59 51.062 0.093 7.31 2.28 11.5
4/16/2022 10:45:00 AM 10.6 51.08 0.093 7.31 2.2 11.52
4/16/2022 11:00:00 AM 10.58 51.044 0.093 7.31 2.6 11.49
4/16/2022 11:15:00 AM 10.59 51.062 0.093 7.31 2.43 11.5
4/16/2022 11:30:00 AM 10.64 51.152 0.093 7.33 2.4 11.53
4/16/2022 11:45:00 AM 10.66 51.188 0.093 7.33 2.39 11.53
4/16/2022 12:00:00 PM 10.62 51.116 0.093 7.32 2.35 11.48
4/16/2022 12:15:00 PM 10.6 51.08 0.093 7.31 2.36 11.48
4/16/2022 12:30:00 PM 10.59 51.062 0.093 7.31 2.4 11.47
4/16/2022 12:45:00 PM 10.56 51.008 0.094 7.31 2.4 11.47
4/16/2022 1:00:00 PM 10.54 50.972 0.094 7.31 2.38 11.5
4/16/2022 1:15:00 PM 10.49 50.882 0.094 7.31 2.35 11.46
4/16/2022 1:30:00 PM 10.42 50.756 0.094 7.28 2.38 11.41
4/16/2022 1:45:00 PM 10.35 50.63 0.094 7.26 2.45 11.37
4/16/2022 2:00:00 PM 10.31 50.558 0.094 7.26 2.51 11.39
4/16/2022 2:15:00 PM 10.25 50.45 0.094 7.26 2.4 11.4
4/16/2022 2:30:00 PM 10.21 50.378 0.094 7.26 2.44 11.45
4/16/2022 2:45:00 PM 10.16 50.288 0.094 7.27 2.38 11.48
4/16/2022 3:00:00 PM 10.1 50.18 0.094 7.28 2.38 11.49
4/16/2022 3:15:00 PM 10.03 50.054 0.094 7.27 2.43 11.49
4/16/2022 3:30:00 PM 9.99 49.982 0.094 7.28 2.41 11.53
4/16/2022 3:45:00 PM 9.95 49.91 0.094 7.28 2.39 11.54
4/16/2022 4:00:00 PM 9.91 49.838 0.094 7.27 2.47 11.53
4/16/2022 4:15:00 PM 9.92 49.856 0.094 7.28 2.37 11.57
4/16/2022 4:30:00 PM 9.93 49.874 0.094 7.28 2.38 11.57
4/16/2022 4:45:00 PM 9.95 49.91 0.094 7.29 2.52 11.55
4/16/2022 5:00:00 PM 9.99 49.982 0.094 7.29 2.41 11.54
4/16/2022 5:15:00 PM 10.02 50.036 0.094 7.28 2.36 11.5
4/16/2022 5:30:00 PM 10.06 50.108 0.094 7.28 2.37 11.5
4/16/2022 5:45:00 PM 10.08 50.144 0.094 7.28 2.34 11.47
4/16/2022 6:00:00 PM 10.12 50.216 0.094 7.29 2.41 11.48
4/16/2022 6:15:00 PM 10.15 50.27 0.094 7.28 2.38 11.46
4/16/2022 6:30:00 PM 10.17 50.306 0.094 7.28 2.38 11.44
4/16/2022 6:45:00 PM 10.19 50.342 0.094 7.28 2.35 11.44
4/16/2022 7:00:00 PM 10.19 50.342 0.094 7.28 2.33 11.39
4/16/2022 7:15:00 PM 10.19 50.342 0.094 7.26 2.41 11.36
4/16/2022 7:30:00 PM 10.17 50.306 0.094 7.25 2.36 11.31
4/16/2022 7:45:00 PM 10.14 50.252 0.094 7.24 2.46 11.26
4/16/2022 8:00:00 PM 10.08 50.144 0.094 7.23 2.48 11.21
4/16/2022 8:15:00 PM 10.01 50.018 0.095 7.21 2.36 11.18
4/16/2022 8:30:00 PM 9.94 49.892 0.095 7.19 2.41 11.15
4/16/2022 8:45:00 PM 9.87 49.766 0.095 7.18 2.44 11.13
4/16/2022 9:00:00 PM 9.81 49.658 0.095 7.17 2.44 11.12
4/16/2022 9:15:00 PM 9.75 49.55 0.095 7.16 2.52 11.11
4/16/2022 9:30:00 PM 9.68 49.424 0.095 7.15 2.51 11.1
4/16/2022 9:45:00 PM 9.61 49.298 0.095 7.14 2.66 11.1
4/16/2022 10:00:00 PM 9.56 49.208 0.096 7.14 2.69 11.1
4/16/2022 10:15:00 PM 9.51 49.118 0.096 7.13 2.65 11.11
4/16/2022 10:30:00 PM 9.45 49.01 0.096 7.13 2.62 11.12
4/16/2022 10:45:00 PM 9.4 48.92 0.096 7.13 2.52 11.13
4/16/2022 11:00:00 PM 9.35 48.83 0.096 7.13 2.61 11.15
4/16/2022 11:15:00 PM 9.3 48.74 0.096 7.12 2.58 11.16
4/16/2022 11:30:00 PM 9.24 48.632 0.096 7.13 2.37 11.17
4/16/2022 11:45:00 PM 9.19 48.542 0.096 7.13 2.28 11.19
4/17/2022 12:00:00 AM 9.14 48.452 0.096 7.13 2.24 11.2
4/17/2022 12:15:00 AM 9.1 48.38 0.096 7.13 2.24 11.21
4/17/2022 12:30:00 AM 9.07 48.326 0.096 7.12 2.18 11.23
4/17/2022 12:45:00 AM 9.05 48.29 0.096 7.12 2.51 11.23
4/17/2022 1:00:00 AM 9.01 48.218 0.096 7.13 2.53 11.24
4/17/2022 1:15:00 AM 8.98 48.164 0.096 7.13 2.45 11.25
4/17/2022 1:30:00 AM 8.94 48.092 0.096 7.12 2.53 11.27
4/17/2022 1:45:00 AM 8.9 48.02 0.096 7.12 2.37 11.28
4/17/2022 2:00:00 AM 8.87 47.966 0.096 7.12 2.55 11.29
4/17/2022 2:15:00 AM 8.84 47.912 0.096 7.13 2.51 11.3
4/17/2022 2:30:00 AM 8.83 47.894 0.096 7.12 2.49 11.3
4/17/2022 2:45:00 AM 8.81 47.858 0.096 7.13 2.43 11.31
4/17/2022 3:00:00 AM 8.81 47.858 0.096 7.12 2.45 11.31
4/17/2022 3:15:00 AM 8.81 47.858 0.096 7.12 2.37 11.32
4/17/2022 3:30:00 AM 8.83 47.894 0.096 7.12 2.41 11.32
4/17/2022 3:45:00 AM 8.82 47.876 0.096 7.13 2.43 11.33
4/17/2022 4:00:00 AM 8.81 47.858 0.096 7.12 2.48 11.34
4/17/2022 4:15:00 AM 8.8 47.84 0.097 7.12 2.41 11.35
4/17/2022 4:30:00 AM 8.77 47.786 0.097 7.13 2.39 11.36
4/17/2022 4:45:00 AM 8.77 47.786 0.097 7.13 2.44 11.36
4/17/2022 5:00:00 AM 8.76 47.768 0.097 7.13 2.35 11.36
4/17/2022 5:15:00 AM 8.76 47.768 0.097 7.13 2.3 11.37
4/17/2022 5:30:00 AM 8.76 47.768 0.097 7.12 2.29 11.37
4/17/2022 5:45:00 AM 8.76 47.768 0.097 7.13 2.27 11.38
4/17/2022 6:00:00 AM 8.75 47.75 0.097 7.13 2.31 11.38
4/17/2022 6:15:00 AM 8.74 47.732 0.097 7.12 2.3 11.38
4/17/2022 6:30:00 AM 8.73 47.714 0.097 7.12 2.43 11.4
4/17/2022 6:45:00 AM 8.72 47.696 0.097 7.12 2.33 11.4
4/17/2022 7:00:00 AM 8.71 47.678 0.097 7.13 2.28 11.42
4/17/2022 7:15:00 AM 8.7 47.66 0.097 7.13 2.34 11.45
4/17/2022 7:30:00 AM 8.7 47.66 0.097 7.14 2.19 11.52
4/17/2022 7:45:00 AM 8.7 47.66 0.097 7.16 2.15 11.57
4/17/2022 8:00:00 AM 8.7 47.66 0.097 7.18 2.22 11.67
4/17/2022 8:15:00 AM 8.7 47.66 0.097 7.19 2.18 11.72
4/17/2022 8:30:00 AM 8.69 47.642 0.097 7.2 2.13 11.73
4/17/2022 8:45:00 AM 8.65 47.57 0.097 7.2 2.06 11.77
4/17/2022 9:00:00 AM 8.61 47.498 0.097 7.22 2.06 11.85
4/17/2022 9:15:00 AM 8.61 47.498 0.097 7.24 2.18 11.94
4/17/2022 9:30:00 AM 8.69 47.642 0.097 7.26 2.01 12.01
4/17/2022 9:45:00 AM 8.57 47.426 0.097 7.26 2.08 11.99
4/17/2022 10:00:00 AM 8.6 47.48 0.097 7.28 2.02 12.07
4/17/2022 10:15:00 AM 8.73 47.714 0.097 7.29 2.06 12.14
4/17/2022 10:30:00 AM 8.75 47.75 0.097 7.31 2.14 12.18
4/17/2022 10:45:00 AM 8.78 47.804 0.097 7.32 2.07 12.2
4/17/2022 11:00:00 AM 8.78 47.804 0.097 7.33 2.16 12.2
4/17/2022 11:15:00 AM 8.83 47.894 0.097 7.34 2.19 12.23
4/17/2022 11:30:00 AM 8.87 47.966 0.097 7.35 2.28 12.25
4/17/2022 11:45:00 AM 8.88 47.984 0.097 7.35 2.2 12.26
4/17/2022 12:00:00 PM 8.91 48.038 0.097 7.36 2.21 12.28
4/17/2022 12:15:00 PM 8.96 48.128 0.097 7.37 2.18 12.29
4/17/2022 12:30:00 PM 9.12 48.416 0.097 7.38 2.13 12.28
4/17/2022 12:45:00 PM 9.19 48.542 0.097 7.39 2.12 12.26
4/17/2022 1:00:00 PM 9.22 48.596 0.097 7.39 2.09 12.25
4/17/2022 1:15:00 PM 9.36 48.848 0.097 7.4 2.11 12.23
4/17/2022 1:30:00 PM 9.44 48.992 0.097 7.4 2.09 12.22
4/17/2022 1:45:00 PM 9.7 49.46 0.097 7.41 2.15 12.19
4/17/2022 2:00:00 PM 9.91 49.838 0.097 7.41 2.2 12.16
4/17/2022 2:15:00 PM 10 50 0.097 7.41 2.19 12.13
4/17/2022 2:30:00 PM 10 50 0.097 7.42 2.14 12.1
4/17/2022 2:45:00 PM 10.22 50.396 0.097 7.42 2.41 12.08
4/17/2022 3:00:00 PM 10.31 50.558 0.096 7.42 2.19 12.06
4/17/2022 3:15:00 PM 10.51 50.918 0.096 7.42 2.21 12.03
4/17/2022 3:30:00 PM 10.45 50.81 0.096 7.42 2.02 12.01
4/17/2022 3:45:00 PM 10.46 50.828 0.096 7.42 2.07 12.01
4/17/2022 4:00:00 PM 10.59 51.062 0.096 7.43 2.14 12
4/17/2022 4:15:00 PM 10.52 50.936 0.096 7.43 2.09 12
4/17/2022 4:30:00 PM 10.27 50.486 0.096 7.42 2.12 11.97
4/17/2022 4:45:00 PM 10.03 50.054 0.096 7.4 2.12 11.93
4/17/2022 5:00:00 PM 9.9 49.82 0.096 7.39 2.18 11.94
4/17/2022 5:15:00 PM 9.76 49.568 0.096 7.39 2.12 11.96
4/17/2022 5:30:00 PM 9.66 49.388 0.096 7.38 2.18 11.98
4/17/2022 5:45:00 PM 9.5 49.1 0.096 7.38 2.19 11.98
4/17/2022 6:00:00 PM 9.4 48.92 0.096 7.37 2.17 11.96
4/17/2022 6:15:00 PM 9.33 48.794 0.096 7.36 2.13 11.94
4/17/2022 6:30:00 PM 9.29 48.722 0.096 7.34 2.24 11.91
4/17/2022 6:45:00 PM 9.21 48.578 0.096 7.33 2.34 11.89
4/17/2022 7:00:00 PM 9.13 48.434 0.096 7.31 2.11 11.85
4/17/2022 7:15:00 PM 9.07 48.326 0.096 7.29 2.22 11.79
4/17/2022 7:30:00 PM 8.98 48.164 0.097 7.27 2.2 11.75
4/17/2022 7:45:00 PM 8.88 47.984 0.097 7.25 2.14 11.71
4/17/2022 8:00:00 PM 8.79 47.822 0.097 7.24 2.21 11.68
4/17/2022 8:15:00 PM 8.71 47.678 0.097 7.22 2.13 11.65
4/17/2022 8:30:00 PM 8.63 47.534 0.097 7.2 2.3 11.64
4/17/2022 8:45:00 PM 8.56 47.408 0.097 7.19 2.3 11.61
4/17/2022 9:00:00 PM 8.48 47.264 0.097 7.18 2.86 11.6
4/17/2022 9:15:00 PM 8.41 47.138 0.097 7.17 2.45 11.6
4/17/2022 9:30:00 PM 8.34 47.012 0.097 7.16 2.39 11.6
4/17/2022 9:45:00 PM 8.27 46.886 0.097 7.16 2.44 11.6
4/17/2022 10:00:00 PM 8.2 46.76 0.097 7.15 2.46 11.6
4/17/2022 10:15:00 PM 8.14 46.652 0.097 7.15 2.51 11.62
4/17/2022 10:30:00 PM 8.07 46.526 0.097 7.15 2.55 11.63
4/17/2022 10:45:00 PM 8.01 46.418 0.097 7.15 2.41 11.64
4/17/2022 11:00:00 PM 7.95 46.31 0.097 7.14 2.42 11.66
4/17/2022 11:15:00 PM 7.89 46.202 0.097 7.14 2.43 11.68
4/17/2022 11:30:00 PM 7.83 46.094 0.097 7.14 2.45 11.69
4/17/2022 11:45:00 PM 7.77 45.986 0.097 7.13 2.35 11.71
4/18/2022 12:00:00 AM 7.72 45.896 0.097 7.13 2.42 11.72
4/18/2022 12:15:00 AM 7.67 45.806 0.097 7.13 2.49 11.73
4/18/2022 12:30:00 AM 7.63 45.734 0.097 7.13 2.43 11.74
4/18/2022 12:45:00 AM 7.59 45.662 0.097 7.13 2.34 11.75
4/18/2022 1:00:00 AM 7.55 45.59 0.097 7.13 2.35 11.77
4/18/2022 1:15:00 AM 7.51 45.518 0.097 7.13 2.35 11.78
4/18/2022 1:30:00 AM 7.48 45.464 0.097 7.13 2.35 11.79
4/18/2022 1:45:00 AM 7.44 45.392 0.097 7.13 2.39 11.8
4/18/2022 2:00:00 AM 7.41 45.338 0.097 7.13 2.38 11.8
4/18/2022 2:15:00 AM 7.38 45.284 0.097 7.11 2.34 11.8
4/18/2022 2:30:00 AM 7.36 45.248 0.097 7.1 2.36 11.81
4/18/2022 2:45:00 AM 7.34 45.212 0.097 7.11 2.34 11.82
4/18/2022 3:00:00 AM 7.32 45.176 0.097 7.12 2.36 11.82
4/18/2022 3:15:00 AM 7.3 45.14 0.097 7.12 2.44 11.82
4/18/2022 3:30:00 AM 7.29 45.122 0.097 7.12 2.4 11.83
4/18/2022 3:45:00 AM 7.27 45.086 0.097 7.12 2.32 11.83
4/18/2022 4:00:00 AM 7.25 45.05 0.097 7.12 2.31 11.83
4/18/2022 4:15:00 AM 7.24 45.032 0.097 7.12 2.26 11.84
4/18/2022 4:30:00 AM 7.22 44.996 0.097 7.12 2.21 11.84
4/18/2022 4:45:00 AM 7.19 44.942 0.097 7.12 2.25 11.85
4/18/2022 5:00:00 AM 7.18 44.924 0.097 7.12 2.25 11.85
4/18/2022 5:15:00 AM 7.16 44.888 0.097 7.12 2.2 11.85
4/18/2022 5:30:00 AM 7.14 44.852 0.097 7.12 2.32 11.85
4/18/2022 5:45:00 AM 7.12 44.816 0.097 7.12 2.38 11.86
4/18/2022 6:00:00 AM 7.1 44.78 0.097 7.12 2.2 11.87
4/18/2022 6:15:00 AM 7.08 44.744 0.097 7.12 2.37 11.86
4/18/2022 6:30:00 AM 7.06 44.708 0.097 7.13 2.22 11.88
4/18/2022 6:45:00 AM 7.04 44.672 0.097 7.13 2.23 11.91
4/18/2022 7:00:00 AM 7.04 44.672 0.097 7.14 2.22 11.95
4/18/2022 7:15:00 AM 7.05 44.69 0.097 7.15 2.21 12
4/18/2022 7:30:00 AM 7.06 44.708 0.097 7.16 2.19 12.05
4/18/2022 7:45:00 AM 7.07 44.726 0.097 7.17 2.18 12.11
4/18/2022 8:00:00 AM 7.1 44.78 0.097 7.19 2.19 12.17
4/18/2022 8:15:00 AM 7.14 44.852 0.097 7.21 2.18 12.22
4/18/2022 8:30:00 AM 7.18 44.924 0.097 7.22 2.12 12.28
4/18/2022 8:45:00 AM 7.22 44.996 0.097 7.24 2.19 12.32
4/18/2022 9:00:00 AM 7.26 45.068 0.096 7.25 2.17 12.37
4/18/2022 9:15:00 AM 7.37 45.266 0.096 7.27 2.09 12.42
4/18/2022 9:30:00 AM 7.45 45.41 0.096 7.29 2.04 12.46
4/18/2022 9:45:00 AM 7.51 45.518 0.096 7.3 2.22 12.47
4/18/2022 10:00:00 AM 7.56 45.608 0.096 7.32 2.22 12.5
4/18/2022 10:15:00 AM 7.6 45.68 0.096 7.33 2.13 12.51
4/18/2022 10:30:00 AM 7.67 45.806 0.096 7.34 2.15 12.52
4/18/2022 10:45:00 AM 7.73 45.914 0.096 7.35 2.16 12.53
4/18/2022 11:00:00 AM 7.76 45.968 0.096 7.36 2.13 12.52
4/18/2022 11:15:00 AM 7.79 46.022 0.096 7.37 2.23 12.52
4/18/2022 11:30:00 AM 7.81 46.058 0.096 7.37 2.11 12.51
4/18/2022 11:45:00 AM 7.83 46.094 0.096 7.38 2.1 12.5
4/18/2022 12:00:00 PM 7.85 46.13 0.096 7.38 2.09 12.5
4/18/2022 12:15:00 PM 7.87 46.166 0.096 7.39 2.17 12.5
4/18/2022 12:30:00 PM 7.9 46.22 0.096 7.39 2.1 12.5
4/18/2022 12:45:00 PM 7.9 46.22 0.096 7.39 2.05 12.48
4/18/2022 1:00:00 PM 7.88 46.184 0.096 7.39 2.13 12.48
4/18/2022 1:15:00 PM 7.87 46.166 0.096 7.39 2.08 12.47
4/18/2022 1:30:00 PM 7.85 46.13 0.096 7.39 2.12 12.48
4/18/2022 1:45:00 PM 7.81 46.058 0.096 7.39 2.17 12.48
4/18/2022 2:00:00 PM 7.77 45.986 0.097 7.4 2.19 12.49
4/18/2022 2:15:00 PM 7.7 45.86 0.096 7.39 2.11 12.48
4/18/2022 2:30:00 PM 7.6 45.68 0.097 7.37 2.06 12.47
4/18/2022 2:45:00 PM 7.5 45.5 0.097 7.36 2.11 12.46
4/18/2022 3:00:00 PM 7.41 45.338 0.097 7.36 2.11 12.47
4/18/2022 3:15:00 PM 7.31 45.158 0.097 7.35 2.07 12.46
4/18/2022 3:30:00 PM 7.19 44.942 0.097 7.34 2.11 12.46
4/18/2022 3:45:00 PM 7.05 44.69 0.096 7.32 2.12 12.44
4/18/2022 4:00:00 PM 6.93 44.474 0.096 7.31 2.1 12.43
4/18/2022 4:15:00 PM 6.82 44.276 0.097 7.29 2.22 12.42
4/18/2022 4:30:00 PM 6.74 44.132 0.096 7.29 2.3 12.42
4/18/2022 4:45:00 PM 6.63 43.934 0.096 7.28 2.19 12.41
4/18/2022 5:00:00 PM 6.54 43.772 0.097 7.27 2.18 12.41
4/18/2022 5:15:00 PM 6.46 43.628 0.097 7.24 2.17 12.41
4/18/2022 5:30:00 PM 6.35 43.43 0.098 7.22 2.17 12.42
4/18/2022 5:45:00 PM 6.28 43.304 0.1 7.22 2.23 12.42
4/18/2022 6:00:00 PM 6.23 43.214 0.099 7.22 2.25 12.41
4/18/2022 6:15:00 PM 6.18 43.124 0.097 7.21 2.17 12.41
4/18/2022 6:30:00 PM 6.15 43.07 0.097 7.21 2.2 12.39
4/18/2022 6:45:00 PM 6.15 43.07 0.097 7.21 2.19 12.34
4/18/2022 7:00:00 PM 6.17 43.106 0.097 7.21 2.19 12.32
4/18/2022 7:15:00 PM 6.19 43.142 0.097 7.2 2.58 12.27
4/18/2022 7:30:00 PM 6.21 43.178 0.097 7.2 2.18 12.23
4/18/2022 7:45:00 PM 6.24 43.232 0.097 7.19 2.4 12.21
4/18/2022 8:00:00 PM 6.24 43.232 0.097 7.19 2.17 12.18
4/18/2022 8:15:00 PM 6.19 43.142 0.098 7.18 2.22 12.14
4/18/2022 8:30:00 PM 6.15 43.07 0.099 7.17 2.35 12.12
4/18/2022 8:45:00 PM 6.12 43.016 0.101 7.17 2.26 12.11
4/18/2022 9:00:00 PM 6.12 43.016 0.099 7.16 2.35 12.11
4/18/2022 9:15:00 PM 6.06 42.908 0.098 7.16 2.36 12.11
4/18/2022 9:30:00 PM 6.01 42.818 0.098 7.15 2.35 12.1
4/18/2022 9:45:00 PM 5.97 42.746 0.098 7.15 2.29 12.1
4/18/2022 10:00:00 PM 5.94 42.692 0.097 7.15 2.44 12.11
4/18/2022 10:15:00 PM 5.93 42.674 0.097 7.15 2.36 12.11
4/18/2022 10:30:00 PM 5.9 42.62 0.098 7.14 2.27 12.11
4/18/2022 10:45:00 PM 5.87 42.566 0.098 7.14 2.31 12.13
4/18/2022 11:00:00 PM 5.85 42.53 0.097 7.14 2.4 12.13
4/18/2022 11:15:00 PM 5.83 42.494 0.098 7.14 2.29 12.13
4/18/2022 11:30:00 PM 5.84 42.512 0.098 7.14 2.28 12.13
4/18/2022 11:45:00 PM 5.83 42.494 0.098 7.14 2.28 12.14
4/19/2022 12:00:00 AM 5.85 42.53 0.098 7.14 2.27 12.13
4/19/2022 12:15:00 AM 5.86 42.548 0.099 7.14 2.24 12.14
4/19/2022 12:30:00 AM 5.86 42.548 0.098 7.14 2.23 12.14
4/19/2022 12:45:00 AM 5.87 42.566 0.098 7.14 2.27 12.14
4/19/2022 1:00:00 AM 5.87 42.566 0.097 7.14 2.21 12.14
4/19/2022 1:15:00 AM 5.86 42.548 0.097 7.14 2.2 12.16
4/19/2022 1:30:00 AM 5.86 42.548 0.097 7.14 2.34 12.15
4/19/2022 1:45:00 AM 5.88 42.584 0.097 7.14 2.2 12.15
4/19/2022 2:00:00 AM 5.87 42.566 0.097 7.14 2.25 12.16
4/19/2022 2:15:00 AM 5.84 42.512 0.097 7.14 2.24 12.15
4/19/2022 2:30:00 AM 5.83 42.494 0.097 7.14 2.24 12.16
4/19/2022 2:45:00 AM 5.81 42.458 0.097 7.14 2.24 12.15
4/19/2022 3:00:00 AM 5.81 42.458 0.097 7.14 2.22 12.17
4/19/2022 3:15:00 AM 5.82 42.476 0.098 7.14 2.2 12.17
4/19/2022 3:30:00 AM 5.83 42.494 0.098 7.14 2.24 12.17
4/19/2022 3:45:00 AM 5.84 42.512 0.097 7.14 2.3 12.16
4/19/2022 4:00:00 AM 5.85 42.53 0.097 7.14 2.23 12.16
4/19/2022 4:15:00 AM 5.85 42.53 0.097 7.14 2.27 12.16
4/19/2022 4:30:00 AM 5.85 42.53 0.097 7.14 2.23 12.15
4/19/2022 4:45:00 AM 5.86 42.548 0.097 7.14 2.24 12.15
4/19/2022 5:00:00 AM 5.86 42.548 0.097 7.14 2.28 12.16
4/19/2022 5:15:00 AM 5.86 42.548 0.097 7.14 2.23 12.16
4/19/2022 5:30:00 AM 5.86 42.548 0.097 7.14 2.2 12.15
4/19/2022 5:45:00 AM 5.86 42.548 0.097 7.13 2.17 12.17
4/19/2022 6:00:00 AM 5.85 42.53 0.097 7.14 2.16 12.17
4/19/2022 6:15:00 AM 5.83 42.494 0.097 7.13 2.21 12.16
4/19/2022 6:30:00 AM 5.82 42.476 0.097 7.14 2.21 12.18
4/19/2022 6:45:00 AM 5.8 42.44 0.097 7.14 2.18 12.19
4/19/2022 7:00:00 AM 5.8 42.44 0.097 7.15 2.13 12.21
4/19/2022 7:15:00 AM 5.8 42.44 0.097 7.15 2.12 12.24
4/19/2022 7:30:00 AM 5.81 42.458 0.097 7.16 2.15 12.28
4/19/2022 7:45:00 AM 5.81 42.458 0.097 7.17 2.11 12.31
4/19/2022 8:00:00 AM 5.83 42.494 0.097 7.18 2.08 12.39
4/19/2022 8:15:00 AM 5.87 42.566 0.097 7.2 2.09 12.45
4/19/2022 8:30:00 AM 5.89 42.602 0.097 7.21 2.1 12.5
4/19/2022 8:45:00 AM 5.91 42.638 0.097 7.23 2.14 12.55
4/19/2022 9:00:00 AM 5.94 42.692 0.097 7.24 2.09 12.61
4/19/2022 9:15:00 AM 5.98 42.764 0.097 7.26 2.09 12.64
4/19/2022 9:30:00 AM 5.73 42.314 0.1 8.78 309.71 12.06
4/19/2022 9:45:00 AM 5.96 42.728 0.099 7.24 3.57 12.43
4/19/2022 10:00:00 AM 5.93 42.674 0.099 7.02 9.27 12.45
4/19/2022 10:15:00 AM 5.94 42.692 0.098 6.92 6.61 12.46
4/19/2022 10:30:00 AM 5.94 42.692 0.098 6.87 2 12.48
4/19/2022 10:45:00 AM 5.97 42.746 0.099 6.85 2.42 12.51
4/19/2022 11:00:00 AM 6.02 42.836 0.098 6.85 5.15 12.52
4/19/2022 11:15:00 AM 6.09 42.962 0.099 6.86 2.14 12.54
4/19/2022 11:30:00 AM 6.1 42.98 0.098 6.88 1.99 12.54
4/19/2022 11:45:00 AM 6.13 43.034 0.099 6.92 2.3 12.56
4/19/2022 12:00:00 PM 6.11 42.998 0.098 6.95 1.68 12.57
4/19/2022 12:15:00 PM 6.1 42.98 0.098 6.97 1.98 12.59
4/19/2022 12:30:00 PM 6.27 43.286 0.092 7 5.06 12.61
4/19/2022 12:45:00 PM 6.32 43.376 0.098 7.01 1.94 12.61
4/19/2022 1:00:00 PM 6.56 43.808 0.098 7.03 2.23 12.61
4/19/2022 1:15:00 PM 6.62 43.916 0.098 7.04 9.61 12.6
4/19/2022 1:30:00 PM 6.76 44.168 0.098 7.04 2.05 12.59
4/19/2022 1:45:00 PM 6.8 44.24 0.097 7.05 1.82 12.58
4/19/2022 2:00:00 PM 6.74 44.132 0.097 7.03 1.64 12.58
4/19/2022 2:15:00 PM 6.86 44.348 0.092 7.04 4.22 12.56
4/19/2022 2:30:00 PM 6.99 44.582 0.097 7.04 2.26 12.55
4/19/2022 2:45:00 PM 6.99 44.582 0.097 7.05 1.71 12.54
4/19/2022 3:00:00 PM 7.21 44.978 0.097 7.05 1.57 12.52
4/19/2022 3:15:00 PM 7.19 44.942 0.097 7.05 1.9 12.5
4/19/2022 3:30:00 PM 7.09 44.762 0.092 7.03 2.85 12.5
4/19/2022 3:45:00 PM 6.82 44.276 0.092 7 2.73 12.51
4/19/2022 4:00:00 PM 6.63 43.934 0.097 6.97 1.6 12.54
4/19/2022 4:15:00 PM 6.46 43.628 0.097 6.97 10.72 12.57
4/19/2022 4:30:00 PM 6.43 43.574 0.097 6.96 4.19 12.6
4/19/2022 4:45:00 PM 6.23 43.214 0.097 6.94 6.45 12.59
4/19/2022 5:00:00 PM 6.11 42.998 0.092 6.92 11.77 12.6
4/19/2022 5:15:00 PM 6.05 42.89 0.092 6.91 6.81 12.59
4/19/2022 5:30:00 PM 5.98 42.764 0.097 6.9 1.95 12.59
4/19/2022 5:45:00 PM 5.9 42.62 0.097 6.9 2.51 12.61
4/19/2022 6:00:00 PM 5.79 42.422 0.092 6.89 5.11 12.62
4/19/2022 6:15:00 PM 5.7 42.26 0.092 6.88 4.7 12.62
4/19/2022 6:30:00 PM 5.63 42.134 0.097 6.87 3.19 12.58
4/19/2022 6:45:00 PM 5.6 42.08 0.097 6.87 3.22 12.57
4/19/2022 7:00:00 PM 5.57 42.026 0.097 6.86 5.69 12.54
4/19/2022 7:15:00 PM 5.54 41.972 0.097 6.85 3.38 12.5
4/19/2022 7:30:00 PM 5.5 41.9 0.097 6.85 10.82 12.46
4/19/2022 7:45:00 PM 5.48 41.864 0.093 6.83 4.15 12.43
4/19/2022 8:00:00 PM 5.48 41.864 0.093 6.83 2.94 12.37
4/19/2022 8:15:00 PM 5.47 41.846 0.093 6.82 3.83 12.33
4/19/2022 8:30:00 PM 5.48 41.864 0.093 6.82 3.19 12.28
4/19/2022 8:45:00 PM 5.49 41.882 0.093 6.81 7.74 12.25
4/19/2022 9:00:00 PM 5.49 41.882 0.098 6.82 2.42 12.23
4/19/2022 9:15:00 PM 5.49 41.882 0.093 6.8 4.62 12.2
4/19/2022 9:30:00 PM 5.47 41.846 0.098 6.8 1.85 12.19
4/19/2022 9:45:00 PM 5.47 41.846 0.094 6.79 3.65 12.18
4/19/2022 10:00:00 PM 5.45 41.81 0.099 6.79 2.09 12.17
4/19/2022 10:15:00 PM 5.46 41.828 0.093 6.79 3.79 12.16
4/19/2022 10:30:00 PM 5.46 41.828 0.098 6.79 1.91 12.16
4/19/2022 10:45:00 PM 5.46 41.828 0.098 6.78 2.11 12.16
4/19/2022 11:00:00 PM 5.46 41.828 0.093 6.77 3.09 12.16
4/19/2022 11:15:00 PM 5.47 41.846 0.094 6.77 3.02 12.16
4/19/2022 11:30:00 PM 5.49 41.882 0.093 6.82 3.36 12.16
4/19/2022 11:45:00 PM 5.49 41.882 0.093 6.83 3.17 12.16
4/20/2022 12:00:00 AM 5.49 41.882 0.093 6.82 3.02 12.17
4/20/2022 12:15:00 AM 5.49 41.882 0.093 6.82 3.14 12.17
4/20/2022 12:30:00 AM 5.48 41.864 0.093 6.83 2.93 12.18
4/20/2022 12:45:00 AM 5.48 41.864 0.093 6.84 3.07 12.19
4/20/2022 1:00:00 AM 5.46 41.828 0.093 6.83 3.05 12.19
4/20/2022 1:15:00 AM 5.44 41.792 0.098 6.82 1.79 12.2
4/20/2022 1:30:00 AM 5.43 41.774 0.093 6.81 3.04 12.2
4/20/2022 1:45:00 AM 5.42 41.756 0.093 6.8 3.05 12.2
4/20/2022 2:00:00 AM 5.41 41.738 0.094 6.81 3.09 12.21
4/20/2022 2:15:00 AM 5.4 41.72 0.098 6.8 1.83 12.21
4/20/2022 2:30:00 AM 5.38 41.684 0.098 6.76 1.81 12.21
4/20/2022 2:45:00 AM 5.38 41.684 0.099 6.75 1.81 12.22
4/20/2022 3:00:00 AM 5.38 41.684 0.094 6.72 2.99 12.22
4/20/2022 3:15:00 AM 5.38 41.684 0.098 6.73 1.92 12.23
4/20/2022 3:30:00 AM 5.37 41.666 0.098 6.74 1.81 12.23
4/20/2022 3:45:00 AM 5.37 41.666 0.093 6.73 3.07 12.23
4/20/2022 4:00:00 AM 5.38 41.684 0.094 6.74 3.09 12.23
4/20/2022 4:15:00 AM 5.41 41.738 0.093 6.75 3.11 12.23
4/20/2022 4:30:00 AM 5.44 41.792 0.093 6.76 3.13 12.23
4/20/2022 4:45:00 AM 5.48 41.864 0.098 6.75 1.83 12.22
4/20/2022 5:00:00 AM 5.52 41.936 0.098 6.76 1.84 12.21
4/20/2022 5:15:00 AM 5.53 41.954 0.098 6.77 1.76 12.21
4/20/2022 5:30:00 AM 5.55 41.99 0.093 6.76 3.07 12.2
4/20/2022 5:45:00 AM 5.56 42.008 0.093 6.76 2.95 12.2
4/20/2022 6:00:00 AM 5.58 42.044 0.098 6.76 1.83 12.2
4/20/2022 6:15:00 AM 5.6 42.08 0.098 6.76 1.76 12.2
4/20/2022 6:30:00 AM 5.6 42.08 0.098 6.77 1.77 12.21
4/20/2022 6:45:00 AM 5.6 42.08 0.093 6.77 3.06 12.22
4/20/2022 7:00:00 AM 5.59 42.062 0.098 6.77 1.79 12.25
4/20/2022 7:15:00 AM 5.58 42.044 0.098 6.77 1.78 12.29
4/20/2022 7:30:00 AM 5.56 42.008 0.093 6.77 3.12 12.32
4/20/2022 7:45:00 AM 5.54 41.972 0.093 6.78 2.95 12.35
4/20/2022 8:00:00 AM 5.53 41.954 0.098 6.79 1.77 12.38
4/20/2022 8:15:00 AM 5.55 41.99 0.098 6.79 1.78 12.43
4/20/2022 8:30:00 AM 5.58 42.044 0.098 6.8 1.74 12.47
4/20/2022 8:45:00 AM 5.61 42.098 0.098 6.81 1.72 12.51
4/20/2022 9:00:00 AM 5.64 42.152 0.099 6.83 1.76 12.55
4/20/2022 9:15:00 AM 5.69 42.242 0.094 6.82 2.97 12.58
4/20/2022 9:30:00 AM 5.73 42.314 0.093 6.84 2.98 12.61
4/20/2022 9:45:00 AM 5.8 42.44 0.094 6.84 2.99 12.63
4/20/2022 10:00:00 AM 5.87 42.566 0.099 6.88 1.76 12.65
4/20/2022 10:15:00 AM 5.95 42.71 0.099 6.89 1.74 12.67
4/20/2022 10:30:00 AM 6.05 42.89 0.094 6.89 2.98 12.69
4/20/2022 10:45:00 AM 6.17 43.106 0.099 6.92 1.71 12.7
4/20/2022 11:00:00 AM 6.31 43.358 0.099 6.93 1.68 12.7
4/20/2022 11:15:00 AM 6.47 43.646 0.099 6.96 1.72 12.7
4/20/2022 11:30:00 AM 6.65 43.97 0.099 6.98 1.68 12.7
4/20/2022 11:45:00 AM 6.85 44.33 0.098 6.99 1.65 12.68
4/20/2022 12:00:00 PM 7.04 44.672 0.099 6.99 1.67 12.66
4/20/2022 12:15:00 PM 7.25 45.05 0.098 6.99 1.68 12.63
4/20/2022 12:30:00 PM 7.45 45.41 0.098 7.02 1.67 12.61
4/20/2022 12:45:00 PM 7.65 45.77 0.099 7.02 1.66 12.58
4/20/2022 1:00:00 PM 7.85 46.13 0.098 7.02 1.68 12.55
4/20/2022 1:15:00 PM 8.02 46.436 0.098 7.02 1.62 12.52
4/20/2022 1:30:00 PM 8.19 46.742 0.099 7.02 1.72 12.49
4/20/2022 1:45:00 PM 8.38 47.084 0.098 7.03 1.72 12.46
4/20/2022 2:00:00 PM 8.52 47.336 0.098 7.03 1.7 12.43
4/20/2022 2:15:00 PM 8.65 47.57 0.098 7.04 1.67 12.4
4/20/2022 2:30:00 PM 8.77 47.786 0.093 7.03 2.78 12.37
4/20/2022 2:45:00 PM 8.88 47.984 0.093 7.03 2.76 12.35
4/20/2022 3:00:00 PM 8.94 48.092 0.092 7.03 2.82 12.32
4/20/2022 3:15:00 PM 8.97 48.146 0.097 7.04 1.74 12.3
4/20/2022 3:30:00 PM 8.97 48.146 0.098 7.03 1.73 12.29
4/20/2022 3:45:00 PM 8.93 48.074 0.093 7.01 2.82 12.27
4/20/2022 4:00:00 PM 8.87 47.966 0.093 6.99 2.81 12.26
4/20/2022 4:15:00 PM 8.77 47.786 0.098 7 1.71 12.25
4/20/2022 4:30:00 PM 8.64 47.552 0.093 6.97 2.98 12.24
4/20/2022 4:45:00 PM 8.48 47.264 0.098 6.96 1.72 12.23
4/20/2022 5:00:00 PM 8.28 46.904 0.098 6.95 1.76 12.21
4/20/2022 5:15:00 PM 8.07 46.526 0.093 6.91 2.9 12.2
4/20/2022 5:30:00 PM 7.93 46.274 0.098 6.92 1.77 12.19
4/20/2022 5:45:00 PM 7.81 46.058 0.098 6.89 1.7 12.18
4/20/2022 6:00:00 PM 7.7 45.86 0.093 6.88 2.74 12.18
4/20/2022 6:15:00 PM 7.6 45.68 0.098 6.86 1.72 12.18
4/20/2022 6:30:00 PM 7.49 45.482 0.098 6.84 1.76 12.17
4/20/2022 6:45:00 PM 7.38 45.284 0.092 6.82 2.79 12.17
4/20/2022 7:00:00 PM 7.27 45.086 0.098 6.79 1.75 12.16
4/20/2022 7:15:00 PM 7.16 44.888 0.098 6.78 1.73 12.14
4/20/2022 7:30:00 PM 7.05 44.69 0.093 6.75 2.86 12.13
4/20/2022 7:45:00 PM 6.95 44.51 0.099 6.74 1.77 12.11
4/20/2022 8:00:00 PM 6.85 44.33 0.099 6.72 1.79 12.11
4/20/2022 8:15:00 PM 6.76 44.168 0.1 6.7 1.84 12.09
4/20/2022 8:30:00 PM 6.67 44.006 0.1 6.69 1.82 12.08
4/20/2022 8:45:00 PM 6.6 43.88 0.1 6.68 1.9 12.07
4/20/2022 9:00:00 PM 6.54 43.772 0.101 6.68 1.91 12.06
4/20/2022 9:15:00 PM 6.49 43.682 0.101 6.67 1.89 12.05
4/20/2022 9:30:00 PM 6.46 43.628 0.101 6.67 1.93 12.05
4/20/2022 9:45:00 PM 6.43 43.574 0.097 6.67 3.03 12.03
4/20/2022 10:00:00 PM 6.42 43.556 0.103 6.69 1.9 12.02
4/20/2022 10:15:00 PM 6.44 43.592 0.103 6.69 1.96 12.01
4/20/2022 10:30:00 PM 6.48 43.664 0.103 6.71 1.98 12
4/20/2022 10:45:00 PM 6.54 43.772 0.104 6.72 1.93 11.97
4/20/2022 11:00:00 PM 6.62 43.916 0.099 6.72 2.95 11.93
4/20/2022 11:15:00 PM 6.73 44.114 0.1 6.74 3.07 11.91
4/20/2022 11:30:00 PM 6.85 44.33 0.106 6.76 1.93 11.87
4/20/2022 11:45:00 PM 6.98 44.564 0.107 6.78 1.98 11.84
4/21/2022 12:00:00 AM 7.08 44.744 0.107 6.8 2.02 11.82
4/21/2022 12:15:00 AM 7.17 44.906 0.103 6.81 3.2 11.8
4/21/2022 12:30:00 AM 7.23 45.014 0.108 6.81 2.03 11.79
4/21/2022 12:45:00 AM 7.26 45.068 0.109 6.82 2.15 11.78
4/21/2022 1:00:00 AM 7.3 45.14 0.109 6.82 2.1 11.79
4/21/2022 1:15:00 AM 7.32 45.176 0.109 6.79 2.16 11.79
4/21/2022 1:30:00 AM 7.34 45.212 0.11 6.8 2.15 11.79
4/21/2022 1:45:00 AM 7.35 45.23 0.104 6.78 3.29 11.79
4/21/2022 2:00:00 AM 7.35 45.23 0.11 6.79 2.23 11.8
4/21/2022 2:15:00 AM 7.36 45.248 0.11 6.78 2.17 11.8
4/21/2022 2:30:00 AM 7.34 45.212 0.11 6.78 2.25 11.81
4/21/2022 2:45:00 AM 7.33 45.194 0.11 6.78 2.32 11.81
4/21/2022 3:00:00 AM 7.33 45.194 0.11 6.78 2.26 11.82
4/21/2022 3:15:00 AM 7.32 45.176 0.111 6.77 2.26 11.81
4/21/2022 3:30:00 AM 7.31 45.158 0.111 6.77 2.25 11.82
4/21/2022 3:45:00 AM 7.3 45.14 0.111 6.74 2.23 11.83
4/21/2022 4:00:00 AM 7.28 45.104 0.111 6.74 2.24 11.85
4/21/2022 4:15:00 AM 7.25 45.05 0.111 6.74 2.19 11.86
4/21/2022 4:30:00 AM 7.23 45.014 0.111 6.73 2.24 11.86
4/21/2022 4:45:00 AM 7.22 44.996 0.112 6.73 2.19 11.87
4/21/2022 5:00:00 AM 7.21 44.978 0.112 6.73 2.25 11.88
4/21/2022 5:15:00 AM 7.19 44.942 0.112 6.72 2.19 11.88
4/21/2022 5:30:00 AM 7.16 44.888 0.106 6.73 3.36 11.9
4/21/2022 5:45:00 AM 7.12 44.816 0.112 6.72 2.16 11.91
4/21/2022 6:00:00 AM 7.08 44.744 0.112 6.72 2.23 11.92
4/21/2022 6:15:00 AM 7.05 44.69 0.113 6.71 2.22 11.92
4/21/2022 6:30:00 AM 7.04 44.672 0.113 6.71 2.16 11.93
4/21/2022 6:45:00 AM 7.04 44.672 0.114 6.72 2.11 11.95
4/21/2022 7:00:00 AM 7.04 44.672 0.108 6.72 3.22 11.96
4/21/2022 7:15:00 AM 7.05 44.69 0.114 6.73 2.1 11.98
4/21/2022 7:30:00 AM 7.07 44.726 0.114 6.74 2.1 12.02
4/21/2022 7:45:00 AM 7.11 44.798 0.109 6.75 3.21 12.05
4/21/2022 8:00:00 AM 7.18 44.924 0.115 6.77 2.07 12.09
4/21/2022 8:15:00 AM 7.21 44.978 0.116 6.79 1.9 12.1
4/21/2022 8:30:00 AM 7.28 45.104 0.116 6.81 1.93 12.15
4/21/2022 8:45:00 AM 7.35 45.23 0.11 6.83 3.19 12.19
4/21/2022 9:00:00 AM 7.38 45.284 0.117 6.83 1.97 12.19
4/21/2022 9:15:00 AM 7.4 45.32 0.117 6.85 1.92 12.19
4/21/2022 9:30:00 AM 7.42 45.356 0.117 6.85 1.85 12.21
4/21/2022 9:45:00 AM 7.47 45.446 0.117 6.87 1.88 12.24
4/21/2022 10:00:00 AM 7.53 45.554 0.117 6.89 1.89 12.28
4/21/2022 10:15:00 AM 7.58 45.644 0.117 6.89 1.78 12.29
4/21/2022 10:30:00 AM 7.65 45.77 0.118 6.91 1.81 12.31
4/21/2022 10:45:00 AM 7.69 45.842 0.117 6.91 2.19 12.33
4/21/2022 11:00:00 AM 7.69 45.842 0.117 6.91 3.33 12.33
4/21/2022 11:15:00 AM 7.69 45.842 0.116 6.92 3.35 12.34
4/21/2022 11:30:00 AM 7.66 45.788 0.117 6.92 1.97 12.33
4/21/2022 11:45:00 AM 7.64 45.752 0.117 6.91 1.88 12.34
4/21/2022 12:00:00 PM 7.6 45.68 0.117 6.91 2.03 12.32
4/21/2022 12:15:00 PM 7.55 45.59 0.116 6.9 1.91 12.32
4/21/2022 12:30:00 PM 7.49 45.482 0.111 6.89 2.89 12.33
4/21/2022 12:45:00 PM 7.42 45.356 0.114 6.89 1.93 12.32
4/21/2022 1:00:00 PM 7.36 45.248 0.113 6.88 1.92 12.32
4/21/2022 1:15:00 PM 7.3 45.14 0.113 6.86 1.83 12.31
4/21/2022 1:30:00 PM 7.25 45.05 0.113 6.84 1.95 12.29
4/21/2022 1:45:00 PM 7.21 44.978 0.113 6.83 1.9 12.29
4/21/2022 2:00:00 PM 7.18 44.924 0.114 6.82 1.96 12.27
4/21/2022 2:15:00 PM 7.18 44.924 0.114 6.83 1.95 12.26
4/21/2022 2:30:00 PM 7.19 44.942 0.115 6.83 2.03 12.26
4/21/2022 2:45:00 PM 7.2 44.96 0.116 6.83 3.25 12.25
4/21/2022 3:00:00 PM 7.22 44.996 0.117 6.83 2.06 12.25
4/21/2022 3:15:00 PM 7.22 44.996 0.118 6.84 2.04 12.24
4/21/2022 3:30:00 PM 7.22 44.996 0.118 6.84 2.14 12.22
4/21/2022 3:45:00 PM 7.21 44.978 0.119 6.84 2.14 12.2
4/21/2022 4:00:00 PM 7.2 44.96 0.118 6.83 2.18 12.18
4/21/2022 4:15:00 PM 7.2 44.96 0.119 6.83 2.12 12.17
4/21/2022 4:30:00 PM 7.2 44.96 0.119 6.83 2.17 12.18
4/21/2022 4:45:00 PM 7.2 44.96 0.119 6.84 2.23 12.19
4/21/2022 5:00:00 PM 7.21 44.978 0.118 6.84 2.15 12.19
4/21/2022 5:15:00 PM 7.21 44.978 0.118 6.83 2.2 12.18
4/21/2022 5:30:00 PM 7.21 44.978 0.118 6.84 2.13 12.16
4/21/2022 5:45:00 PM 7.24 45.032 0.119 6.84 2.12 12.17
4/21/2022 6:00:00 PM 7.26 45.068 0.119 6.84 2.11 12.17
4/21/2022 6:15:00 PM 7.28 45.104 0.119 6.85 2.11 12.18
4/21/2022 6:30:00 PM 7.29 45.122 0.119 6.85 2.13 12.18
4/21/2022 6:45:00 PM 7.3 45.14 0.119 6.84 2.19 12.17
4/21/2022 7:00:00 PM 7.31 45.158 0.119 6.84 2.12 12.15
4/21/2022 7:15:00 PM 7.31 45.158 0.119 6.83 2.16 12.12
4/21/2022 7:30:00 PM 7.31 45.158 0.119 6.82 2.14 12.1
4/21/2022 7:45:00 PM 7.3 45.14 0.119 6.81 2.09 12.07
4/21/2022 8:00:00 PM 7.29 45.122 0.119 6.8 2.27 12.04
4/21/2022 8:15:00 PM 7.27 45.086 0.119 6.79 2.23 12.01
4/21/2022 8:30:00 PM 7.25 45.05 0.119 6.78 2.2 11.98
4/21/2022 8:45:00 PM 7.23 45.014 0.119 6.77 2.29 11.96
4/21/2022 9:00:00 PM 7.19 44.942 0.118 6.76 2.35 11.93
4/21/2022 9:15:00 PM 7.16 44.888 0.118 6.75 2.32 11.92
4/21/2022 9:30:00 PM 7.13 44.834 0.118 6.73 2.23 11.92
4/21/2022 9:45:00 PM 7.09 44.762 0.118 6.73 3.49 11.91
4/21/2022 10:00:00 PM 7.06 44.708 0.118 6.73 2.31 11.91
4/21/2022 10:15:00 PM 7.04 44.672 0.118 6.72 2.23 11.91
4/21/2022 10:30:00 PM 7.01 44.618 0.118 6.71 2.26 11.92
4/21/2022 10:45:00 PM 6.99 44.582 0.118 6.71 2.25 11.93
4/21/2022 11:00:00 PM 6.98 44.564 0.118 6.71 2.3 11.93
4/21/2022 11:15:00 PM 6.98 44.564 0.118 6.71 2.31 11.93
4/21/2022 11:30:00 PM 6.98 44.564 0.118 6.71 2.15 11.93
4/21/2022 11:45:00 PM 6.98 44.564 0.118 6.72 2.2 11.93
4/22/2022 12:00:00 AM 6.98 44.564 0.117 6.71 2.2 11.93
4/22/2022 12:15:00 AM 6.99 44.582 0.117 6.71 2.11 11.93
4/22/2022 12:30:00 AM 7 44.6 0.117 6.71 2.16 11.93
4/22/2022 12:45:00 AM 7.01 44.618 0.116 6.72 3.19 11.94
4/22/2022 1:00:00 AM 7.02 44.636 0.117 6.72 2.15 11.94
4/22/2022 1:15:00 AM 7.02 44.636 0.117 6.71 2.11 11.93
4/22/2022 1:30:00 AM 7.04 44.672 0.117 6.72 2.2 11.93
4/22/2022 1:45:00 AM 7.05 44.69 0.117 6.72 2.12 11.93
4/22/2022 2:00:00 AM 7.06 44.708 0.116 6.72 2.12 11.93
4/22/2022 2:15:00 AM 7.07 44.726 0.116 6.71 2.12 11.93
4/22/2022 2:30:00 AM 7.08 44.744 0.11 6.71 3.22 11.93
4/22/2022 2:45:00 AM 7.09 44.762 0.116 6.72 3.18 11.93
4/22/2022 3:00:00 AM 7.09 44.762 0.115 6.71 2.09 11.93
4/22/2022 3:15:00 AM 7.1 44.78 0.11 6.71 3.17 11.92
4/22/2022 3:30:00 AM 7.11 44.798 0.115 6.72 2.03 11.92
4/22/2022 3:45:00 AM 7.11 44.798 0.11 6.71 3.13 11.92
4/22/2022 4:00:00 AM 7.12 44.816 0.116 6.72 2.07 11.92
4/22/2022 4:15:00 AM 7.12 44.816 0.116 6.72 2.08 11.92
4/22/2022 4:30:00 AM 7.13 44.834 0.116 6.72 2.09 11.92
4/22/2022 4:45:00 AM 7.13 44.834 0.115 6.72 2.06 11.92
4/22/2022 5:00:00 AM 7.13 44.834 0.115 6.72 2.18 11.92
4/22/2022 5:15:00 AM 7.13 44.834 0.116 6.72 2.16 11.92
4/22/2022 5:30:00 AM 7.13 44.834 0.115 6.72 2.11 11.92
4/22/2022 5:45:00 AM 7.12 44.816 0.115 6.72 2.11 11.93
4/22/2022 6:00:00 AM 7.12 44.816 0.115 6.71 2.23 11.93
4/22/2022 6:15:00 AM 7.11 44.798 0.115 6.72 2.06 11.92
4/22/2022 6:30:00 AM 7.09 44.762 0.109 6.71 3.25 11.94
4/22/2022 6:45:00 AM 7.08 44.744 0.114 6.71 2.09 11.96
4/22/2022 7:00:00 AM 7.07 44.726 0.114 6.71 2.07 11.98
4/22/2022 7:15:00 AM 7.07 44.726 0.114 6.72 2.02 12
4/22/2022 7:30:00 AM 7.08 44.744 0.114 6.73 2.02 12.03
4/22/2022 7:45:00 AM 7.1 44.78 0.114 6.73 2.15 12.06
4/22/2022 8:00:00 AM 7.12 44.816 0.113 6.74 2.03 12.12
4/22/2022 8:15:00 AM 7.14 44.852 0.113 6.76 1.99 12.17
4/22/2022 8:30:00 AM 7.18 44.924 0.112 6.77 2.07 12.23
4/22/2022 8:45:00 AM 7.22 44.996 0.112 6.8 1.93 12.27
4/22/2022 9:00:00 AM 7.25 45.05 0.112 6.79 1.96 12.29
4/22/2022 9:15:00 AM 7.26 45.068 0.112 6.8 1.96 12.3
4/22/2022 9:30:00 AM 7.29 45.122 0.111 6.82 1.95 12.33
4/22/2022 9:45:00 AM 7.33 45.194 0.111 6.82 1.94 12.35
4/22/2022 10:00:00 AM 7.39 45.302 0.11 6.83 1.95 12.36
4/22/2022 10:15:00 AM 7.46 45.428 0.11 6.84 2.02 12.39
4/22/2022 10:30:00 AM 7.56 45.608 0.109 6.87 1.89 12.4
4/22/2022 10:45:00 AM 7.68 45.824 0.108 6.87 1.84 12.42
4/22/2022 11:00:00 AM 7.82 46.076 0.108 6.9 1.88 12.42
4/22/2022 11:15:00 AM 7.98 46.364 0.108 6.91 2.11 12.41
4/22/2022 11:30:00 AM 8.15 46.67 0.108 6.94 2.03 12.41
4/22/2022 11:45:00 AM 8.33 46.994 0.101 6.94 2.97 12.4
4/22/2022 12:00:00 PM 8.51 47.318 0.107 6.96 1.91 12.38
4/22/2022 12:15:00 PM 8.69 47.642 0.101 6.97 2.93 12.37
4/22/2022 12:30:00 PM 8.86 47.948 0.107 6.99 1.89 12.36
4/22/2022 12:45:00 PM 9.03 48.254 0.107 6.99 1.89 12.32
4/22/2022 1:00:00 PM 9.21 48.578 0.107 7 1.91 12.31
4/22/2022 1:15:00 PM 9.37 48.866 0.107 7.01 1.95 12.28
4/22/2022 1:30:00 PM 9.52 49.136 0.102 7.02 3.1 12.26
4/22/2022 1:45:00 PM 9.68 49.424 0.107 7.03 2.09 12.23
4/22/2022 2:00:00 PM 9.83 49.694 0.108 7.05 2.06 12.2
4/22/2022 2:15:00 PM 9.96 49.928 0.108 7.03 1.95 12.17
4/22/2022 2:30:00 PM 10.05 50.09 0.109 7.04 1.94 12.15
4/22/2022 2:45:00 PM 10.13 50.234 0.109 7.03 2.01 12.12
4/22/2022 3:00:00 PM 10.15 50.27 0.108 7.04 2.04 12.1
4/22/2022 3:15:00 PM 10.15 50.27 0.109 7.03 2.07 12.09
4/22/2022 3:30:00 PM 10.12 50.216 0.103 7.01 3.04 12.08
4/22/2022 3:45:00 PM 10.07 50.126 0.108 7 1.99 12.06
4/22/2022 4:00:00 PM 9.97 49.946 0.103 6.97 3.07 12.05
4/22/2022 4:15:00 PM 9.84 49.712 0.109 6.97 2.03 12.04
4/22/2022 4:30:00 PM 9.71 49.478 0.108 6.96 2.04 12.05
4/22/2022 4:45:00 PM 9.57 49.226 0.108 6.94 2 12.05
4/22/2022 5:00:00 PM 9.46 49.028 0.108 6.93 2.01 12.05
4/22/2022 5:15:00 PM 9.3 48.74 0.103 6.91 3.26 12.05
4/22/2022 5:30:00 PM 9.21 48.578 0.108 6.89 1.99 12.05
4/22/2022 5:45:00 PM 9.15 48.47 0.107 6.89 1.92 12.04
4/22/2022 6:00:00 PM 9.09 48.362 0.107 6.87 2.01 12.04
4/22/2022 6:15:00 PM 9.01 48.218 0.107 6.86 2.03 12.03
4/22/2022 6:30:00 PM 8.94 48.092 0.107 6.85 1.98 12.01
4/22/2022 6:45:00 PM 8.9 48.02 0.102 6.83 3.02 11.97
4/22/2022 7:00:00 PM 8.89 48.002 0.102 6.83 2.97 11.92
4/22/2022 7:15:00 PM 8.88 47.984 0.107 6.81 1.96 11.86
4/22/2022 7:30:00 PM 8.87 47.966 0.107 6.8 2 11.8
4/22/2022 7:45:00 PM 8.88 47.984 0.106 6.81 1.96 11.74
4/22/2022 8:00:00 PM 8.9 48.02 0.101 6.79 2.93 11.66
4/22/2022 8:15:00 PM 8.96 48.128 0.105 6.79 1.96 11.59
4/22/2022 8:30:00 PM 9.04 48.272 0.104 6.78 1.98 11.51
4/22/2022 8:45:00 PM 9.12 48.416 0.104 6.78 2.05 11.44
4/22/2022 9:00:00 PM 9.18 48.524 0.104 6.78 2.02 11.39
4/22/2022 9:15:00 PM 9.21 48.578 0.104 6.77 2.01 11.36
4/22/2022 9:30:00 PM 9.22 48.596 0.104 6.76 2.01 11.33
4/22/2022 9:45:00 PM 9.24 48.632 0.103 6.75 2 11.3
4/22/2022 10:00:00 PM 9.27 48.686 0.103 6.75 2.06 11.28
4/22/2022 10:15:00 PM 9.3 48.74 0.103 6.74 2.09 11.27
4/22/2022 10:30:00 PM 9.33 48.794 0.103 6.74 1.99 11.25
4/22/2022 10:45:00 PM 9.35 48.83 0.103 6.74 2.03 11.25
4/22/2022 11:00:00 PM 9.36 48.848 0.103 6.72 2.02 11.24
4/22/2022 11:15:00 PM 9.36 48.848 0.103 6.72 2.05 11.25
4/22/2022 11:30:00 PM 9.36 48.848 0.103 6.72 1.96 11.25
4/22/2022 11:45:00 PM 9.35 48.83 0.098 6.71 3.02 11.25
4/23/2022 12:00:00 AM 9.33 48.794 0.097 6.71 3.16 11.26
4/23/2022 12:15:00 AM 9.31 48.758 0.103 6.7 2.02 11.26
4/23/2022 12:30:00 AM 9.3 48.74 0.103 6.71 2.05 11.27
4/23/2022 12:45:00 AM 9.3 48.74 0.103 6.71 2.02 11.27
4/23/2022 1:00:00 AM 9.3 48.74 0.097 6.69 3.12 11.27
4/23/2022 1:15:00 AM 9.3 48.74 0.097 6.69 3.07 11.27
4/23/2022 1:30:00 AM 9.29 48.722 0.103 6.68 2.09 11.27
4/23/2022 1:45:00 AM 9.28 48.704 0.103 6.69 2 11.27
4/23/2022 2:00:00 AM 9.29 48.722 0.103 6.68 2.05 11.27
4/23/2022 2:15:00 AM 9.29 48.722 0.103 6.69 2.03 11.27
4/23/2022 2:30:00 AM 9.29 48.722 0.097 6.69 3.02 11.26
4/23/2022 2:45:00 AM 9.28 48.704 0.097 6.68 2.99 11.26
4/23/2022 3:00:00 AM 9.28 48.704 0.102 6.69 1.99 11.26
4/23/2022 3:15:00 AM 9.28 48.704 0.098 6.68 3.01 11.26
4/23/2022 3:30:00 AM 9.29 48.722 0.097 6.69 3.06 11.25
4/23/2022 3:45:00 AM 9.29 48.722 0.097 6.68 2.95 11.25
4/23/2022 4:00:00 AM 9.29 48.722 0.102 6.69 2.01 11.25
4/23/2022 4:15:00 AM 9.27 48.686 0.102 6.68 2.08 11.25
4/23/2022 4:30:00 AM 9.26 48.668 0.102 6.68 1.99 11.25
4/23/2022 4:45:00 AM 9.25 48.65 0.102 6.68 2.02 11.25
4/23/2022 5:00:00 AM 9.25 48.65 0.102 6.68 2.02 11.25
4/23/2022 5:15:00 AM 9.24 48.632 0.102 6.67 2.02 11.25
4/23/2022 5:30:00 AM 9.24 48.632 0.102 6.67 2.02 11.25
4/23/2022 5:45:00 AM 9.25 48.65 0.102 6.67 2.01 11.24
4/23/2022 6:00:00 AM 9.26 48.668 0.102 6.67 2.07 11.24
4/23/2022 6:15:00 AM 9.26 48.668 0.102 6.68 1.97 11.24
4/23/2022 6:30:00 AM 9.25 48.65 0.102 6.67 1.94 11.24
4/23/2022 6:45:00 AM 9.24 48.632 0.102 6.68 2.04 11.25
4/23/2022 7:00:00 AM 9.24 48.632 0.102 6.67 1.96 11.26
4/23/2022 7:15:00 AM 9.24 48.632 0.102 6.68 1.95 11.28
4/23/2022 7:30:00 AM 9.25 48.65 0.102 6.68 1.97 11.34
4/23/2022 7:45:00 AM 9.26 48.668 0.102 6.7 2.11 11.4
4/23/2022 8:00:00 AM 9.28 48.704 0.102 6.72 2.01 11.46
4/23/2022 8:15:00 AM 9.3 48.74 0.102 6.73 1.89 11.49
4/23/2022 8:30:00 AM 9.34 48.812 0.097 6.74 2.87 11.55
4/23/2022 8:45:00 AM 9.39 48.902 0.102 6.77 1.89 11.6
4/23/2022 9:00:00 AM 9.42 48.956 0.102 6.78 1.86 11.64
4/23/2022 9:15:00 AM 9.47 49.046 0.102 6.82 1.83 11.7
4/23/2022 9:30:00 AM 9.51 49.118 0.101 6.83 1.83 11.73
4/23/2022 9:45:00 AM 9.56 49.208 0.097 6.85 2.93 11.77
4/23/2022 10:00:00 AM 9.61 49.298 0.101 6.88 1.78 11.8
4/23/2022 10:15:00 AM 9.66 49.388 0.101 6.89 1.86 11.83
4/23/2022 10:30:00 AM 9.71 49.478 0.101 6.91 1.96 11.84
4/23/2022 10:45:00 AM 9.75 49.55 0.101 6.92 1.89 11.86
4/23/2022 11:00:00 AM 9.81 49.658 0.101 6.94 1.86 11.87
4/23/2022 11:15:00 AM 9.85 49.73 0.101 6.95 1.85 11.87
4/23/2022 11:30:00 AM 9.87 49.766 0.101 6.96 1.89 11.87
4/23/2022 11:45:00 AM 9.91 49.838 0.101 6.96 1.87 11.87
4/23/2022 12:00:00 PM 9.96 49.928 0.101 6.96 1.87 11.87
4/23/2022 12:15:00 PM 9.97 49.946 0.101 6.98 1.79 11.88
4/23/2022 12:30:00 PM 10.08 50.144 0.101 6.98 1.92 11.89
4/23/2022 12:45:00 PM 10.16 50.288 0.101 6.99 1.93 11.87
4/23/2022 1:00:00 PM 10.09 50.162 0.102 6.98 1.85 11.86
4/23/2022 1:15:00 PM 10.03 50.054 0.102 6.98 1.87 11.85
4/23/2022 1:30:00 PM 9.95 49.91 0.097 6.96 2.87 11.86
4/23/2022 1:45:00 PM 9.91 49.838 0.097 6.96 3.09 11.87
4/23/2022 2:00:00 PM 9.89 49.802 0.102 6.96 2.07 11.88
4/23/2022 2:15:00 PM 9.86 49.748 0.102 6.96 2.26 11.88
4/23/2022 2:30:00 PM 9.84 49.712 0.102 6.97 2.33 11.88
4/23/2022 2:45:00 PM 9.83 49.694 0.102 6.95 1.96 11.89
4/23/2022 3:00:00 PM 9.87 49.766 0.101 6.96 1.92 11.9
4/23/2022 3:15:00 PM 9.89 49.802 0.101 6.96 2.01 11.91
4/23/2022 3:30:00 PM 9.89 49.802 0.1 6.97 2.02 11.91
4/23/2022 3:45:00 PM 9.96 49.928 0.1 6.98 1.97 11.91
4/23/2022 4:00:00 PM 10.08 50.144 0.1 6.98 1.94 11.9
4/23/2022 4:15:00 PM 10.11 50.198 0.1 6.99 1.9 11.89
4/23/2022 4:30:00 PM 10.08 50.144 0.1 6.99 1.97 11.86
4/23/2022 4:45:00 PM 10.06 50.108 0.099 6.99 1.93 11.84
4/23/2022 5:00:00 PM 10.07 50.126 0.099 6.99 2 11.84
4/23/2022 5:15:00 PM 10.05 50.09 0.099 6.98 1.93 11.8
4/23/2022 5:30:00 PM 9.97 49.946 0.099 6.96 1.96 11.74
4/23/2022 5:45:00 PM 9.92 49.856 0.099 6.93 1.98 11.7
4/23/2022 6:00:00 PM 9.91 49.838 0.099 6.93 1.98 11.67
4/23/2022 6:15:00 PM 9.87 49.766 0.099 6.92 1.88 11.65
4/23/2022 6:30:00 PM 9.81 49.658 0.099 6.91 1.95 11.62
4/23/2022 6:45:00 PM 9.75 49.55 0.099 6.89 1.95 11.6
4/23/2022 7:00:00 PM 9.7 49.46 0.099 6.88 1.94 11.57
4/23/2022 7:15:00 PM 9.65 49.37 0.098 6.86 1.96 11.53
4/23/2022 7:30:00 PM 9.6 49.28 0.098 6.84 1.93 11.48
4/23/2022 7:45:00 PM 9.55 49.19 0.098 6.82 2.05 11.43
4/23/2022 8:00:00 PM 9.52 49.136 0.098 6.8 2 11.39
4/23/2022 8:15:00 PM 9.5 49.1 0.099 6.79 1.99 11.34
4/23/2022 8:30:00 PM 9.49 49.082 0.099 6.76 2.04 11.29
4/23/2022 8:45:00 PM 9.49 49.082 0.094 6.76 2.99 11.26
4/23/2022 9:00:00 PM 9.48 49.064 0.099 6.75 2.09 11.22
4/23/2022 9:15:00 PM 9.47 49.046 0.099 6.75 2.02 11.2
4/23/2022 9:30:00 PM 9.45 49.01 0.099 6.72 2.08 11.17
4/23/2022 9:45:00 PM 9.45 49.01 0.099 6.73 2.1 11.15
4/23/2022 10:00:00 PM 9.45 49.01 0.099 6.72 2.07 11.13
4/23/2022 10:15:00 PM 9.45 49.01 0.099 6.72 2.1 11.12
4/23/2022 10:30:00 PM 9.46 49.028 0.099 6.71 2.03 11.11
4/23/2022 10:45:00 PM 9.47 49.046 0.094 6.72 3.08 11.1
4/23/2022 11:00:00 PM 9.48 49.064 0.098 6.72 2.03 11.1
4/23/2022 11:15:00 PM 9.49 49.082 0.098 6.73 2.03 11.1
4/23/2022 11:30:00 PM 9.5 49.1 0.098 6.72 2.02 11.09
4/23/2022 11:45:00 PM 9.51 49.118 0.098 6.72 2.03 11.09
4/24/2022 12:00:00 AM 9.52 49.136 0.093 6.71 3 11.08
4/24/2022 12:15:00 AM 9.54 49.172 0.098 6.71 1.98 11.07
4/24/2022 12:30:00 AM 9.55 49.19 0.093 6.71 3.08 11.07
4/24/2022 12:45:00 AM 9.56 49.208 0.098 6.71 1.96 11.06
4/24/2022 1:00:00 AM 9.56 49.208 0.098 6.73 1.95 11.06
4/24/2022 1:15:00 AM 9.57 49.226 0.098 6.71 1.97 11.05
4/24/2022 1:30:00 AM 9.58 49.244 0.098 6.71 2.07 11.05
4/24/2022 1:45:00 AM 9.6 49.28 0.098 6.72 2 11.05
4/24/2022 2:00:00 AM 9.61 49.298 0.098 6.73 1.96 11.04
4/24/2022 2:15:00 AM 9.63 49.334 0.098 6.72 2.01 11.04
4/24/2022 2:30:00 AM 9.65 49.37 0.097 6.71 2 11.03
4/24/2022 2:45:00 AM 9.66 49.388 0.097 6.71 1.97 11.03
4/24/2022 3:00:00 AM 9.67 49.406 0.097 6.71 2.01 11.03
4/24/2022 3:15:00 AM 9.68 49.424 0.097 6.72 1.98 11.02
4/24/2022 3:30:00 AM 9.68 49.424 0.097 6.71 1.95 11.02
4/24/2022 3:45:00 AM 9.68 49.424 0.097 6.7 1.99 11.02
4/24/2022 4:00:00 AM 9.69 49.442 0.097 6.7 2 11.01
4/24/2022 4:15:00 AM 9.7 49.46 0.097 6.71 1.97 11.02
4/24/2022 4:30:00 AM 9.71 49.478 0.097 6.7 2 11.01
4/24/2022 4:45:00 AM 9.72 49.496 0.097 6.71 1.96 11.01
4/24/2022 5:00:00 AM 9.73 49.514 0.097 6.72 1.99 11.01
4/24/2022 5:15:00 AM 9.74 49.532 0.097 6.7 1.98 11
4/24/2022 5:30:00 AM 9.75 49.55 0.097 6.69 2.01 11.01
4/24/2022 5:45:00 AM 9.75 49.55 0.097 6.7 2 11
4/24/2022 6:00:00 AM 9.76 49.568 0.097 6.7 2 11
4/24/2022 6:15:00 AM 9.75 49.55 0.097 6.7 2.01 11
4/24/2022 6:30:00 AM 9.74 49.532 0.097 6.7 1.98 11.02
4/24/2022 6:45:00 AM 9.72 49.496 0.096 6.69 2.02 11.03
4/24/2022 7:00:00 AM 9.71 49.478 0.096 6.69 2 11.06
4/24/2022 7:15:00 AM 9.71 49.478 0.096 6.71 1.94 11.09
4/24/2022 7:30:00 AM 9.71 49.478 0.096 6.7 1.91 11.14
4/24/2022 7:45:00 AM 9.73 49.514 0.096 6.74 1.92 11.19
4/24/2022 8:00:00 AM 9.74 49.532 0.096 6.71 1.95 11.24
4/24/2022 8:15:00 AM 9.75 49.55 0.096 6.73 1.95 11.29
4/24/2022 8:30:00 AM 9.79 49.622 0.096 6.73 1.86 11.34
4/24/2022 8:45:00 AM 9.82 49.676 0.096 6.75 1.86 11.38
4/24/2022 9:00:00 AM 9.86 49.748 0.096 6.77 1.79 11.42
4/24/2022 9:15:00 AM 9.91 49.838 0.096 6.79 1.87 11.46
4/24/2022 9:30:00 AM 9.97 49.946 0.096 6.81 1.78 11.49
4/24/2022 9:45:00 AM 10.05 50.09 0.096 6.83 1.89 11.52
4/24/2022 10:00:00 AM 10.14 50.252 0.096 6.86 1.94 11.53
4/24/2022 10:15:00 AM 10.24 50.432 0.096 6.87 1.86 11.56
4/24/2022 10:30:00 AM 10.35 50.63 0.096 6.9 1.93 11.56
4/24/2022 10:45:00 AM 10.49 50.882 0.096 6.92 1.9 11.58
4/24/2022 11:00:00 AM 10.64 51.152 0.096 6.93 1.91 11.59
4/24/2022 11:15:00 AM 10.81 51.458 0.095 6.97 1.95 11.59
4/24/2022 11:30:00 AM 10.97 51.746 0.095 7 1.95 11.59
4/24/2022 11:45:00 AM 11.17 52.106 0.095 7 1.98 11.58
4/24/2022 12:00:00 PM 11.37 52.466 0.095 7.02 1.92 11.57
4/24/2022 12:15:00 PM 11.56 52.808 0.095 7.05 1.85 11.56
4/24/2022 12:30:00 PM 11.74 53.132 0.095 7.06 1.91 11.54
4/24/2022 12:45:00 PM 11.93 53.474 0.095 7.08 1.88 11.53
4/24/2022 1:00:00 PM 12.08 53.744 0.09 7.07 3.02 11.51
4/24/2022 1:15:00 PM 12.26 54.068 0.095 7.12 1.95 11.49
4/24/2022 1:30:00 PM 12.42 54.356 0.095 7.1 1.98 11.47
4/24/2022 1:45:00 PM 12.55 54.59 0.09 7.1 2.96 11.46
4/24/2022 2:00:00 PM 12.66 54.788 0.09 7.09 2.93 11.42
4/24/2022 2:15:00 PM 12.75 54.95 0.094 7.11 1.93 11.41
4/24/2022 2:30:00 PM 12.81 55.058 0.094 7.11 1.94 11.39
4/24/2022 2:45:00 PM 12.84 55.112 0.095 7.08 1.93 11.38
4/24/2022 3:00:00 PM 12.83 55.094 0.094 7.07 1.99 11.37
4/24/2022 3:15:00 PM 12.81 55.058 0.095 7.06 2.02 11.37
4/24/2022 3:30:00 PM 12.75 54.95 0.094 7.03 2 11.37
4/24/2022 3:45:00 PM 12.68 54.824 0.094 7.02 2.09 11.36
4/24/2022 4:00:00 PM 12.58 54.644 0.094 6.99 2.14 11.36
4/24/2022 4:15:00 PM 12.43 54.374 0.094 6.98 2.06 11.35
4/24/2022 4:30:00 PM 12.27 54.086 0.094 6.97 2.04 11.36
4/24/2022 4:45:00 PM 12.1 53.78 0.094 6.94 2.07 11.35
4/24/2022 5:00:00 PM 11.9 53.42 0.094 6.92 1.99 11.34
4/24/2022 5:15:00 PM 11.69 53.042 0.094 6.88 2.08 11.32
4/24/2022 5:30:00 PM 11.52 52.736 0.094 6.85 2.03 11.31
4/24/2022 5:45:00 PM 11.39 52.502 0.094 6.83 2.41 11.31
4/24/2022 6:00:00 PM 11.26 52.268 0.094 6.8 2.4 11.3
4/24/2022 6:15:00 PM 11.13 52.034 0.094 6.78 2.06 11.27
4/24/2022 6:30:00 PM 11 51.8 0.094 6.75 2.05 11.25
4/24/2022 6:45:00 PM 10.9 51.62 0.094 6.73 2.07 11.22
4/24/2022 7:00:00 PM 10.85 51.53 0.094 6.72 2.05 11.18
4/24/2022 7:15:00 PM 10.8 51.44 0.094 6.71 2.04 11.13
4/24/2022 7:30:00 PM 10.77 51.386 0.095 6.7 2.06 11.07
4/24/2022 7:45:00 PM 10.75 51.35 0.09 6.7 2.94 11.03
4/24/2022 8:00:00 PM 10.74 51.332 0.095 6.7 2.04 10.97
4/24/2022 8:15:00 PM 10.73 51.314 0.09 6.69 3.12 10.92
4/24/2022 8:30:00 PM 10.74 51.332 0.095 6.68 2.09 10.87
4/24/2022 8:45:00 PM 10.74 51.332 0.095 6.68 2.16 10.83
4/24/2022 9:00:00 PM 10.75 51.35 0.09 6.67 3.26 10.79
4/24/2022 9:15:00 PM 10.77 51.386 0.095 6.68 2.24 10.76
4/24/2022 9:30:00 PM 10.78 51.404 0.095 6.67 2.23 10.73
4/24/2022 9:45:00 PM 10.82 51.476 0.095 6.67 2.16 10.7
4/24/2022 10:00:00 PM 10.86 51.548 0.095 6.67 2.15 10.67
4/24/2022 10:15:00 PM 10.92 51.656 0.095 6.67 2.14 10.65
4/24/2022 10:30:00 PM 10.99 51.782 0.095 6.67 2.21 10.62
4/24/2022 10:45:00 PM 11.09 51.962 0.095 6.68 2.12 10.59
4/24/2022 11:00:00 PM 11.21 52.178 0.095 6.69 2.14 10.55
4/24/2022 11:15:00 PM 11.33 52.394 0.095 6.69 2.16 10.52
4/24/2022 11:30:00 PM 11.44 52.592 0.09 6.7 3.08 10.49
4/24/2022 11:45:00 PM 11.53 52.754 0.095 6.72 2.23 10.47
4/25/2022 12:00:00 AM 11.59 52.862 0.094 6.7 2.1 10.46
4/25/2022 12:15:00 AM 11.66 52.988 0.094 6.7 2.04 10.43
4/25/2022 12:30:00 AM 11.75 53.15 0.094 6.71 2.09 10.4
4/25/2022 12:45:00 AM 11.82 53.276 0.089 6.71 3.14 10.38
4/25/2022 1:00:00 AM 11.87 53.366 0.094 6.7 2.12 10.37
4/25/2022 1:15:00 AM 11.9 53.42 0.094 6.7 2.1 10.37
4/25/2022 1:30:00 AM 11.92 53.456 0.094 6.68 2.15 10.37
4/25/2022 1:45:00 AM 11.93 53.474 0.094 6.69 2.13 10.36
4/25/2022 2:00:00 AM 11.94 53.492 0.094 6.7 2.19 10.35
4/25/2022 2:15:00 AM 11.95 53.51 0.094 6.68 2.14 10.35
4/25/2022 2:30:00 AM 11.98 53.564 0.094 6.68 2.07 10.34
4/25/2022 2:45:00 AM 12 53.6 0.094 6.68 2.05 10.34
4/25/2022 3:00:00 AM 12.01 53.618 0.089 6.67 3.12 10.33
4/25/2022 3:15:00 AM 12.03 53.654 0.089 6.67 2.99 10.32
4/25/2022 3:30:00 AM 12.04 53.672 0.089 6.67 3.22 10.32
4/25/2022 3:45:00 AM 12.05 53.69 0.089 6.67 3.19 10.31
4/25/2022 4:00:00 AM 12.06 53.708 0.094 6.67 2.07 10.32
4/25/2022 4:15:00 AM 12.05 53.69 0.089 6.66 3.18 10.31
4/25/2022 4:30:00 AM 12.04 53.672 0.089 6.66 3.09 10.32
4/25/2022 4:45:00 AM 12.03 53.654 0.089 6.66 3.2 10.32
4/25/2022 5:00:00 AM 12.01 53.618 0.094 6.65 2.14 10.32
4/25/2022 5:15:00 AM 12 53.6 0.093 6.65 2.12 10.32
4/25/2022 5:30:00 AM 11.99 53.582 0.089 6.65 3.12 10.33
4/25/2022 5:45:00 AM 11.96 53.528 0.094 6.65 2.12 10.33
4/25/2022 6:00:00 AM 11.93 53.474 0.093 6.64 2.16 10.34
4/25/2022 6:15:00 AM 11.89 53.402 0.094 6.64 2.13 10.35
4/25/2022 6:30:00 AM 11.85 53.33 0.094 6.64 2.07 10.37
4/25/2022 6:45:00 AM 11.82 53.276 0.094 6.65 2.05 10.41
4/25/2022 7:00:00 AM 11.8 53.24 0.089 6.65 3.01 10.45
4/25/2022 7:15:00 AM 11.8 53.24 0.089 6.66 3.28 10.5
4/25/2022 7:30:00 AM 11.81 53.258 0.093 6.68 2.02 10.56
4/25/2022 7:45:00 AM 11.84 53.312 0.089 6.68 3.14 10.61
4/25/2022 8:00:00 AM 11.86 53.348 0.093 6.7 1.96 10.66
4/25/2022 8:15:00 AM 11.9 53.42 0.093 6.72 1.99 10.71
4/25/2022 8:30:00 AM 11.95 53.51 0.093 6.76 1.9 10.75
4/25/2022 8:45:00 AM 11.99 53.582 0.093 6.76 1.88 10.8
4/25/2022 9:00:00 AM 12.05 53.69 0.093 6.78 1.95 10.85
4/25/2022 9:15:00 AM 12.1 53.78 0.093 6.81 1.88 10.89
4/25/2022 9:30:00 AM 12.15 53.87 0.093 6.82 1.96 10.93
4/25/2022 9:45:00 AM 12.21 53.978 0.093 6.84 1.9 10.95
4/25/2022 10:00:00 AM 12.28 54.104 0.093 6.86 1.86 10.98
4/25/2022 10:15:00 AM 12.37 54.266 0.093 6.88 1.96 11
4/25/2022 10:30:00 AM 12.47 54.446 0.093 6.9 1.97 11.01
4/25/2022 10:45:00 AM 12.59 54.662 0.093 6.91 1.89 11.03
4/25/2022 11:00:00 AM 12.73 54.914 0.093 6.93 1.9 11.04
4/25/2022 11:15:00 AM 12.9 55.22 0.093 6.96 1.9 11.04
4/25/2022 11:30:00 AM 13.08 55.544 0.093 6.99 1.92 11.04
4/25/2022 11:45:00 AM 13.27 55.886 0.093 7.01 1.95 11.04
4/25/2022 12:00:00 PM 13.45 56.21 0.093 7.04 1.95 11.03
4/25/2022 12:15:00 PM 13.63 56.534 0.093 7.05 1.98 11.02
4/25/2022 12:30:00 PM 13.81 56.858 0.093 7.08 1.93 11.02
4/25/2022 12:45:00 PM 13.98 57.164 0.093 7.09 1.95 11
4/25/2022 1:00:00 PM 14.14 57.452 0.093 7.1 1.94 10.99
4/25/2022 1:15:00 PM 14.29 57.722 0.093 7.11 1.98 10.98
4/25/2022 1:30:00 PM 14.42 57.956 0.093 7.12 1.95 10.97
4/25/2022 1:45:00 PM 14.54 58.172 0.093 7.12 2.05 10.96
4/25/2022 2:00:00 PM 14.64 58.352 0.093 7.12 2.04 10.95
4/25/2022 2:15:00 PM 14.72 58.496 0.093 7.12 1.95 10.94
4/25/2022 2:30:00 PM 14.78 58.604 0.093 7.13 1.98 10.93
4/25/2022 2:45:00 PM 14.81 58.658 0.093 7.12 1.97 10.92
4/25/2022 3:00:00 PM 14.82 58.676 0.093 7.12 2.09 10.91
4/25/2022 3:15:00 PM 14.8 58.64 0.093 7.11 1.98 10.89
4/25/2022 3:30:00 PM 14.75 58.55 0.093 7.09 2.13 10.88
4/25/2022 3:45:00 PM 14.69 58.442 0.093 7.09 2.03 10.86
4/25/2022 4:00:00 PM 14.59 58.262 0.093 7.07 2.08 10.85
4/25/2022 4:15:00 PM 14.47 58.046 0.093 7.05 2.03 10.84
4/25/2022 4:30:00 PM 14.34 57.812 0.093 7.03 2.12 10.82
4/25/2022 4:45:00 PM 14.17 57.506 0.093 7.02 2.12 10.8
4/25/2022 5:00:00 PM 13.99 57.182 0.093 6.99 2.11 10.79
4/25/2022 5:15:00 PM 13.75 56.75 0.093 6.96 2.1 10.74
4/25/2022 5:30:00 PM 13.62 56.516 0.093 6.93 2.09 10.73
4/25/2022 5:45:00 PM 13.57 56.426 0.093 6.93 2.1 10.75
4/25/2022 6:00:00 PM 13.5 56.3 0.093 6.91 2.05 10.73
4/25/2022 6:15:00 PM 13.43 56.174 0.093 6.89 2.01 10.71
4/25/2022 6:30:00 PM 13.4 56.12 0.093 6.88 1.98 10.67
4/25/2022 6:45:00 PM 13.37 56.066 0.093 6.87 2.05 10.65
4/25/2022 7:00:00 PM 13.33 55.994 0.093 6.86 2.04 10.63
4/25/2022 7:15:00 PM 13.27 55.886 0.093 6.86 2.01 10.6
4/25/2022 7:30:00 PM 13.22 55.796 0.093 6.83 2 10.54
4/25/2022 7:45:00 PM 13.16 55.688 0.093 6.81 2.01 10.47
4/25/2022 8:00:00 PM 13.13 55.634 0.093 6.79 2.06 10.4
4/25/2022 8:15:00 PM 13.13 55.634 0.093 6.77 2.09 10.32
4/25/2022 8:30:00 PM 13.15 55.67 0.093 6.76 2.18 10.25
4/25/2022 8:45:00 PM 13.17 55.706 0.093 6.75 2.29 10.2
4/25/2022 9:00:00 PM 13.16 55.688 0.093 6.74 2.32 10.15
4/25/2022 9:15:00 PM 13.14 55.652 0.094 6.73 2.28 10.12
4/25/2022 9:30:00 PM 13.1 55.58 0.094 6.71 2.32 10.09
4/25/2022 9:45:00 PM 13.06 55.508 0.089 6.71 3.24 10.07
4/25/2022 10:00:00 PM 13.03 55.454 0.094 6.7 2.33 10.07
4/25/2022 10:15:00 PM 13.02 55.436 0.094 6.69 2.37 10.05
4/25/2022 10:30:00 PM 13.04 55.472 0.094 6.7 2.32 10.03
4/25/2022 10:45:00 PM 13.06 55.508 0.094 6.7 2.36 10.03
4/25/2022 11:00:00 PM 13.08 55.544 0.094 6.69 2.32 10.01
4/25/2022 11:15:00 PM 13.09 55.562 0.094 6.7 2.32 10.01
4/25/2022 11:30:00 PM 13.09 55.562 0.094 6.69 2.34 10.01
4/25/2022 11:45:00 PM 13.09 55.562 0.093 6.69 2.34 10.01
4/26/2022 12:00:00 AM 13.09 55.562 0.094 6.68 2.27 10.01
4/26/2022 12:15:00 AM 13.1 55.58 0.094 6.69 2.25 10
4/26/2022 12:30:00 AM 13.11 55.598 0.093 6.68 2.24 10
4/26/2022 12:45:00 AM 13.13 55.634 0.093 6.68 2.36 9.99
4/26/2022 1:00:00 AM 13.15 55.67 0.093 6.7 2.25 9.98
4/26/2022 1:15:00 AM 13.18 55.724 0.093 6.68 2.26 9.98
4/26/2022 1:30:00 AM 13.21 55.778 0.093 6.69 2.24 9.97
4/26/2022 1:45:00 AM 13.23 55.814 0.093 6.69 2.26 9.96
4/26/2022 2:00:00 AM 13.27 55.886 0.093 6.69 2.32 9.95
4/26/2022 2:15:00 AM 13.3 55.94 0.089 6.68 3.27 9.94
4/26/2022 2:30:00 AM 13.32 55.976 0.093 6.69 2.32 9.93
4/26/2022 2:45:00 AM 13.34 56.012 0.093 6.69 2.31 9.92
4/26/2022 3:00:00 AM 13.37 56.066 0.093 6.7 2.27 9.92
4/26/2022 3:15:00 AM 13.38 56.084 0.093 6.69 2.27 9.91
4/26/2022 3:30:00 AM 13.4 56.12 0.093 6.68 2.31 9.9
4/26/2022 3:45:00 AM 13.42 56.156 0.093 6.69 2.29 9.9
4/26/2022 4:00:00 AM 13.44 56.192 0.093 6.68 2.28 9.89
4/26/2022 4:15:00 AM 13.47 56.246 0.093 6.68 2.23 9.89
4/26/2022 4:30:00 AM 13.5 56.3 0.093 6.68 2.3 9.88
4/26/2022 4:45:00 AM 13.53 56.354 0.093 6.68 2.26 9.87
4/26/2022 5:00:00 AM 13.55 56.39 0.093 6.68 2.28 9.87
4/26/2022 5:15:00 AM 13.57 56.426 0.093 6.68 2.3 9.86
4/26/2022 5:30:00 AM 13.59 56.462 0.093 6.68 2.26 9.85
4/26/2022 5:45:00 AM 13.6 56.48 0.093 6.68 2.32 9.85
4/26/2022 6:00:00 AM 13.6 56.48 0.093 6.67 2.34 9.85
4/26/2022 6:15:00 AM 13.6 56.48 0.093 6.67 2.37 9.85
4/26/2022 6:30:00 AM 13.6 56.48 0.093 6.67 2.2 9.85
4/26/2022 6:45:00 AM 13.6 56.48 0.093 6.66 2.35 9.86
4/26/2022 7:00:00 AM 13.6 56.48 0.093 6.67 2.25 9.87
4/26/2022 7:15:00 AM 13.6 56.48 0.093 6.68 2.23 9.88
4/26/2022 7:30:00 AM 13.6 56.48 0.093 6.66 2.2 9.91
4/26/2022 7:45:00 AM 13.61 56.498 0.093 6.69 2.27 9.93
4/26/2022 8:00:00 AM 13.61 56.498 0.093 6.68 2.18 9.95
4/26/2022 8:15:00 AM 13.61 56.498 0.093 6.68 2.16 9.97
4/26/2022 8:30:00 AM 13.61 56.498 0.093 6.69 2.16 10.02
4/26/2022 8:45:00 AM 13.62 56.516 0.093 6.7 2.12 10.08
4/26/2022 9:00:00 AM 13.64 56.552 0.093 6.73 2.03 10.15
4/26/2022 9:15:00 AM 13.66 56.588 0.093 6.74 2.02 10.19
4/26/2022 9:30:00 AM 13.66 56.588 0.093 6.75 2.03 10.19
4/26/2022 9:45:00 AM 13.67 56.606 0.093 6.76 2.06 10.24
4/26/2022 10:00:00 AM 13.68 56.624 0.093 6.77 2.09 10.29
4/26/2022 10:15:00 AM 13.71 56.678 0.093 6.8 2.11 10.37
4/26/2022 10:30:00 AM 13.72 56.696 0.093 6.82 2.07 10.44
4/26/2022 10:45:00 AM 13.71 56.678 0.092 6.84 2.06 10.48
4/26/2022 11:00:00 AM 13.69 56.642 0.093 6.84 2 10.49
4/26/2022 11:15:00 AM 13.66 56.588 0.093 6.85 2.05 10.52
4/26/2022 11:30:00 AM 13.64 56.552 0.093 6.86 2.08 10.55
4/26/2022 11:45:00 AM 13.64 56.552 0.093 6.87 2.06 10.61
4/26/2022 12:00:00 PM 13.63 56.534 0.093 6.9 2.08 10.64
4/26/2022 12:15:00 PM 13.63 56.534 0.093 6.91 2.03 10.68
4/26/2022 12:30:00 PM 13.63 56.534 0.093 6.92 2.12 10.71
4/26/2022 12:45:00 PM 13.61 56.498 0.093 6.93 2.08 10.71
4/26/2022 1:00:00 PM 13.6 56.48 0.093 6.93 2.05 10.73
4/26/2022 1:15:00 PM 13.59 56.462 0.093 6.94 2.08 10.75
4/26/2022 1:30:00 PM 13.57 56.426 0.093 6.95 2.13 10.76
4/26/2022 1:45:00 PM 13.56 56.408 0.093 6.96 2.08 10.78
4/26/2022 2:00:00 PM 13.53 56.354 0.093 6.97 2.04 10.78
4/26/2022 2:15:00 PM 13.49 56.282 0.094 6.96 2.09 10.77
4/26/2022 2:30:00 PM 13.46 56.228 0.094 6.97 2.11 10.77
4/26/2022 2:45:00 PM 13.43 56.174 0.094 6.95 2.12 10.77
4/26/2022 3:00:00 PM 13.42 56.156 0.094 6.97 2.16 10.8
4/26/2022 3:15:00 PM 13.39 56.102 0.094 6.97 2.09 10.79
4/26/2022 3:30:00 PM 13.34 56.012 0.094 6.96 2.06 10.76
4/26/2022 3:45:00 PM 13.29 55.922 0.094 6.94 2.11 10.73
4/26/2022 4:00:00 PM 13.23 55.814 0.094 6.91 2.12 10.67
4/26/2022 4:15:00 PM 13.18 55.724 0.094 6.89 2.07 10.64
4/26/2022 4:30:00 PM 13.14 55.652 0.094 6.88 2.09 10.63
4/26/2022 4:45:00 PM 13.1 55.58 0.095 6.87 2.13 10.62
4/26/2022 5:00:00 PM 13.06 55.508 0.095 6.85 2.13 10.59
4/26/2022 5:15:00 PM 13.03 55.454 0.095 6.84 2.21 10.55
4/26/2022 5:30:00 PM 13 55.4 0.095 6.85 2.11 10.57
4/26/2022 5:45:00 PM 13 55.4 0.095 6.86 2.11 10.6
4/26/2022 6:00:00 PM 12.99 55.382 0.095 6.86 2.15 10.61
4/26/2022 6:15:00 PM 12.97 55.346 0.095 6.86 2.07 10.6
4/26/2022 6:30:00 PM 12.95 55.31 0.095 6.86 2.11 10.59
4/26/2022 6:45:00 PM 12.92 55.256 0.095 6.85 2.07 10.55
4/26/2022 7:00:00 PM 12.89 55.202 0.095 6.83 2.07 10.53
4/26/2022 7:15:00 PM 12.87 55.166 0.095 6.83 2.04 10.49
4/26/2022 7:30:00 PM 12.84 55.112 0.095 6.81 2.1 10.46
4/26/2022 7:45:00 PM 12.8 55.04 0.095 6.8 2.04 10.42
4/26/2022 8:00:00 PM 12.76 54.968 0.095 6.78 2.13 10.38
4/26/2022 8:15:00 PM 12.71 54.878 0.095 6.77 2.1 10.34
4/26/2022 8:30:00 PM 12.66 54.788 0.096 6.75 2.14 10.3
4/26/2022 8:45:00 PM 12.59 54.662 0.096 6.73 2.2 10.26
4/26/2022 9:00:00 PM 12.51 54.518 0.096 6.72 2.4 10.25
4/26/2022 9:15:00 PM 12.41 54.338 0.096 6.7 2.25 10.23
4/26/2022 9:30:00 PM 12.31 54.158 0.096 6.68 2.52 10.23
4/26/2022 9:45:00 PM 12.24 54.032 0.096 6.67 2.47 10.22
4/26/2022 10:00:00 PM 12.19 53.942 0.096 6.66 2.32 10.22
4/26/2022 10:15:00 PM 12.16 53.888 0.096 6.66 2.38 10.21
4/26/2022 10:30:00 PM 12.14 53.852 0.096 6.66 2.38 10.21
4/26/2022 10:45:00 PM 12.11 53.798 0.097 6.66 2.39 10.21
4/26/2022 11:00:00 PM 12.08 53.744 0.097 6.65 2.44 10.22
4/26/2022 11:15:00 PM 12.05 53.69 0.092 6.67 3.4 10.23
4/26/2022 11:30:00 PM 12.03 53.654 0.092 6.66 3.34 10.23
4/26/2022 11:45:00 PM 12.03 53.654 0.092 6.67 3.46 10.22
4/27/2022 12:00:00 AM 12.05 53.69 0.091 6.68 3.33 10.22
4/27/2022 12:15:00 AM 12.06 53.708 0.091 6.68 3.23 10.21
4/27/2022 12:30:00 AM 12.07 53.726 0.096 6.69 2.32 10.21
4/27/2022 12:45:00 AM 12.07 53.726 0.091 6.68 3.43 10.21
4/27/2022 1:00:00 AM 12.07 53.726 0.096 6.69 2.24 10.21
4/27/2022 1:15:00 AM 12.06 53.708 0.096 6.69 2.31 10.21
4/27/2022 1:30:00 AM 12.06 53.708 0.096 6.69 2.2 10.21
4/27/2022 1:45:00 AM 12.05 53.69 0.096 6.68 2.25 10.2
4/27/2022 2:00:00 AM 12.07 53.726 0.096 6.7 2.17 10.2
4/27/2022 2:15:00 AM 12.11 53.798 0.095 6.69 2.24 10.18
4/27/2022 2:30:00 AM 12.16 53.888 0.095 6.7 2.25 10.16
4/27/2022 2:45:00 AM 12.19 53.942 0.095 6.7 2.23 10.16
4/27/2022 3:00:00 AM 12.2 53.96 0.095 6.7 2.28 10.15
4/27/2022 3:15:00 AM 12.2 53.96 0.095 6.7 2.19 10.15
4/27/2022 3:30:00 AM 12.18 53.924 0.095 6.7 2.25 10.16
4/27/2022 3:45:00 AM 12.15 53.87 0.095 6.7 2.27 10.16
4/27/2022 4:00:00 AM 12.13 53.834 0.095 6.7 2.28 10.17
4/27/2022 4:15:00 AM 12.11 53.798 0.095 6.69 2.23 10.17
4/27/2022 4:30:00 AM 12.04 53.672 0.095 6.68 2.27 10.18
4/27/2022 4:45:00 AM 11.97 53.546 0.095 6.68 2.3 10.19
4/27/2022 5:00:00 AM 11.95 53.51 0.095 6.67 2.23 10.2
4/27/2022 5:15:00 AM 11.9 53.42 0.095 6.67 2.27 10.22
4/27/2022 5:30:00 AM 11.82 53.276 0.095 6.66 2.26 10.24
4/27/2022 5:45:00 AM 11.76 53.168 0.096 6.65 2.26 10.25
4/27/2022 6:00:00 AM 11.69 53.042 0.096 6.66 2.29 10.27
4/27/2022 6:15:00 AM 11.64 52.952 0.096 6.64 2.27 10.29
4/27/2022 6:30:00 AM 11.54 52.772 0.096 6.65 2.3 10.33
4/27/2022 6:45:00 AM 11.46 52.628 0.096 6.65 2.21 10.37
4/27/2022 7:00:00 AM 11.39 52.502 0.096 6.65 2.25 10.43
4/27/2022 7:15:00 AM 11.35 52.43 0.096 6.66 2.17 10.51
4/27/2022 7:30:00 AM 11.31 52.358 0.096 6.68 2.16 10.59
4/27/2022 7:45:00 AM 11.29 52.322 0.096 6.69 2.13 10.65
4/27/2022 8:00:00 AM 11.25 52.25 0.096 6.71 2.12 10.72
4/27/2022 8:15:00 AM 11.22 52.196 0.091 6.72 3.08 10.76
4/27/2022 8:30:00 AM 11.18 52.124 0.091 6.72 3.13 10.76
4/27/2022 8:45:00 AM 11.17 52.106 0.091 6.74 3.08 10.8
4/27/2022 9:00:00 AM 11.14 52.052 0.096 6.75 2.07 10.82
4/27/2022 9:15:00 AM 11.12 52.016 0.096 6.76 2.02 10.84
4/27/2022 9:30:00 AM 11.08 51.944 0.096 6.76 2.05 10.87
4/27/2022 9:45:00 AM 11.07 51.926 0.096 6.78 2.02 10.93
4/27/2022 10:00:00 AM 11.05 51.89 0.096 6.79 1.94 10.95
4/27/2022 10:15:00 AM 11.03 51.854 0.096 6.8 2.01 11
4/27/2022 10:30:00 AM 11.03 51.854 0.096 6.83 1.98 11.06
4/27/2022 10:45:00 AM 11.07 51.926 0.096 6.85 1.97 11.13
4/27/2022 11:00:00 AM 11.14 52.052 0.096 6.88 1.99 11.16
4/27/2022 11:15:00 AM 11.11 51.998 0.096 6.89 2.05 11.2
4/27/2022 11:30:00 AM 11.15 52.07 0.096 6.92 1.99 11.26
4/27/2022 11:45:00 AM 11.12 52.016 0.096 6.93 2.05 11.26
4/27/2022 12:00:00 PM 11.08 51.944 0.096 6.93 2.06 11.29
4/27/2022 12:15:00 PM 11.09 51.962 0.096 6.95 2.01 11.33
4/27/2022 12:30:00 PM 11.05 51.89 0.096 6.95 2.04 11.33
4/27/2022 12:45:00 PM 11.07 51.926 0.096 6.95 2.09 11.32
4/27/2022 1:00:00 PM 11.08 51.944 0.096 6.96 2.07 11.33
4/27/2022 1:15:00 PM 11.07 51.926 0.096 6.98 2.03 11.33
4/27/2022 1:30:00 PM 11.07 51.926 0.096 6.98 2.03 11.34
4/27/2022 1:45:00 PM 11.03 51.854 0.096 6.98 2.02 11.33
4/27/2022 2:00:00 PM 11.01 51.818 0.097 6.98 2.02 11.35
4/27/2022 2:15:00 PM 11.04 51.872 0.097 6.99 2.08 11.38
4/27/2022 2:30:00 PM 11.04 51.872 0.097 7 2.07 11.38
4/27/2022 2:45:00 PM 11.11 51.998 0.096 7.03 2.05 11.4
4/27/2022 3:00:00 PM 11.15 52.07 0.096 7.03 2.01 11.39
4/27/2022 3:15:00 PM 11.18 52.124 0.091 7.03 3.02 11.38
4/27/2022 3:30:00 PM 11.31 52.358 0.096 7.06 2 11.38
4/27/2022 3:45:00 PM 11.34 52.412 0.096 7.07 2.07 11.34
4/27/2022 4:00:00 PM 11.29 52.322 0.096 7.05 1.98 11.28
4/27/2022 4:15:00 PM 11.22 52.196 0.096 7.02 2.02 11.25
4/27/2022 4:30:00 PM 11.18 52.124 0.096 7 2.06 11.2
4/27/2022 4:45:00 PM 11.15 52.07 0.091 6.98 3.08 11.18
4/27/2022 5:00:00 PM 11.17 52.106 0.091 6.98 3.03 11.2
4/27/2022 5:15:00 PM 11.12 52.016 0.096 6.99 2.02 11.19
4/27/2022 5:30:00 PM 11.06 51.908 0.096 6.97 2.01 11.16
4/27/2022 5:45:00 PM 10.97 51.746 0.096 6.94 2.02 11.13
4/27/2022 6:00:00 PM 10.88 51.584 0.096 6.9 2.06 11.1
4/27/2022 6:15:00 PM 10.8 51.44 0.097 6.88 2.14 11.08
4/27/2022 6:30:00 PM 10.71 51.278 0.097 6.86 2.04 11.05
4/27/2022 6:45:00 PM 10.64 51.152 0.097 6.85 2.12 11.03
4/27/2022 7:00:00 PM 10.58 51.044 0.097 6.83 2.16 10.99
4/27/2022 7:15:00 PM 10.51 50.918 0.097 6.8 2.02 10.96
4/27/2022 7:30:00 PM 10.44 50.792 0.097 6.79 2.12 10.93
4/27/2022 7:45:00 PM 10.37 50.666 0.097 6.76 2.19 10.89
4/27/2022 8:00:00 PM 10.32 50.576 0.097 6.75 2.13 10.85
4/27/2022 8:15:00 PM 10.26 50.468 0.097 6.74 2.23 10.82
4/27/2022 8:30:00 PM 10.21 50.378 0.097 6.72 2.13 10.79
4/27/2022 8:45:00 PM 10.14 50.252 0.098 6.71 2.25 10.79
4/27/2022 9:00:00 PM 10.09 50.162 0.098 6.7 2.28 10.78
4/27/2022 9:15:00 PM 10.03 50.054 0.098 6.69 2.22 10.76
4/27/2022 9:30:00 PM 9.97 49.946 0.098 6.69 2.37 10.77
4/27/2022 9:45:00 PM 9.92 49.856 0.098 6.68 2.29 10.77
4/27/2022 10:00:00 PM 9.87 49.766 0.098 6.69 2.36 10.78
4/27/2022 10:15:00 PM 9.82 49.676 0.098 6.68 2.29 10.78
4/27/2022 10:30:00 PM 9.78 49.604 0.098 6.67 2.33 10.79
4/27/2022 10:45:00 PM 9.75 49.55 0.098 6.67 2.3 10.8
4/27/2022 11:00:00 PM 9.71 49.478 0.098 6.68 2.33 10.81
4/27/2022 11:15:00 PM 9.68 49.424 0.098 6.67 2.43 10.81
4/27/2022 11:30:00 PM 9.66 49.388 0.098 6.68 2.22 10.82
4/27/2022 11:45:00 PM 9.63 49.334 0.098 6.68 2.29 10.83
4/28/2022 12:00:00 AM 9.6 49.28 0.098 6.67 2.24 10.84
4/28/2022 12:15:00 AM 9.57 49.226 0.098 6.68 2.27 10.84
4/28/2022 12:30:00 AM 9.54 49.172 0.098 6.68 2.29 10.86
4/28/2022 12:45:00 AM 9.51 49.118 0.098 6.68 2.28 10.87
4/28/2022 1:00:00 AM 9.47 49.046 0.098 6.68 2.29 10.88
4/28/2022 1:15:00 AM 9.42 48.956 0.098 6.67 2.21 10.9
4/28/2022 1:30:00 AM 9.38 48.884 0.099 6.67 2.19 10.91
4/28/2022 1:45:00 AM 9.32 48.776 0.099 6.67 2.23 10.93
4/28/2022 2:00:00 AM 9.27 48.686 0.099 6.67 2.23 10.94
4/28/2022 2:15:00 AM 9.22 48.596 0.099 6.67 2.26 10.96
4/28/2022 2:30:00 AM 9.16 48.488 0.099 6.67 2.18 10.98
4/28/2022 2:45:00 AM 9.1 48.38 0.099 6.66 2.27 11
4/28/2022 3:00:00 AM 9.01 48.218 0.099 6.66 2.32 11.02
4/28/2022 3:15:00 AM 8.94 48.092 0.099 6.65 2.3 11.05
4/28/2022 3:30:00 AM 8.86 47.948 0.099 6.65 2.25 11.08
4/28/2022 3:45:00 AM 8.78 47.804 0.099 6.65 2.29 11.1
4/28/2022 4:00:00 AM 8.72 47.696 0.099 6.64 2.18 11.12
4/28/2022 4:15:00 AM 8.66 47.588 0.099 6.64 2.25 11.13
4/28/2022 4:30:00 AM 8.61 47.498 0.099 6.65 2.29 11.15
4/28/2022 4:45:00 AM 8.56 47.408 0.099 6.64 2.19 11.16
4/28/2022 5:00:00 AM 8.52 47.336 0.099 6.65 2.22 11.17
4/28/2022 5:15:00 AM 8.48 47.264 0.099 6.65 2.22 11.18
4/28/2022 5:30:00 AM 8.46 47.228 0.099 6.65 2.22 11.18
4/28/2022 5:45:00 AM 8.45 47.21 0.099 6.67 2.21 11.19
4/28/2022 6:00:00 AM 8.42 47.156 0.099 6.66 2.17 11.19
4/28/2022 6:15:00 AM 8.41 47.138 0.099 6.66 2.24 11.19
4/28/2022 6:30:00 AM 8.41 47.138 0.099 6.67 2.18 11.2
4/28/2022 6:45:00 AM 8.4 47.12 0.099 6.68 2.14 11.23
4/28/2022 7:00:00 AM 8.4 47.12 0.099 6.69 2.12 11.28
4/28/2022 7:15:00 AM 8.39 47.102 0.099 6.71 2.12 11.35
4/28/2022 7:30:00 AM 8.39 47.102 0.099 6.73 2.05 11.43
4/28/2022 7:45:00 AM 8.38 47.084 0.099 6.75 2.01 11.49
4/28/2022 8:00:00 AM 8.39 47.102 0.099 6.76 2.05 11.56
4/28/2022 8:15:00 AM 8.4 47.12 0.099 6.79 2 11.61
4/28/2022 8:30:00 AM 8.4 47.12 0.099 6.79 2 11.66
4/28/2022 8:45:00 AM 8.42 47.156 0.094 6.81 3.09 11.7
4/28/2022 9:00:00 AM 8.47 47.246 0.099 6.84 1.95 11.76
4/28/2022 9:15:00 AM 8.5 47.3 0.093 6.86 2.95 11.81
4/28/2022 9:30:00 AM 8.55 47.39 0.098 6.88 1.9 11.85
4/28/2022 9:45:00 AM 8.6 47.48 0.098 6.89 1.9 11.88
4/28/2022 10:00:00 AM 8.66 47.588 0.098 6.91 1.93 11.9
4/28/2022 10:15:00 AM 8.71 47.678 0.093 6.92 3.03 11.91
4/28/2022 10:30:00 AM 8.81 47.858 0.098 6.94 1.87 11.92
4/28/2022 10:45:00 AM 8.92 48.056 0.098 6.96 1.85 11.93
4/28/2022 11:00:00 AM 9.06 48.308 0.098 6.98 1.95 11.93
4/28/2022 11:15:00 AM 9.22 48.596 0.098 6.99 1.87 11.92
4/28/2022 11:30:00 AM 9.41 48.938 0.098 7.02 1.89 11.91
4/28/2022 11:45:00 AM 9.6 49.28 0.098 7.04 1.84 11.88
4/28/2022 12:00:00 PM 9.81 49.658 0.098 7.05 1.9 11.87
4/28/2022 12:15:00 PM 10.02 50.036 0.098 7.08 1.9 11.84
4/28/2022 12:30:00 PM 10.24 50.432 0.098 7.07 1.94 11.81
4/28/2022 12:45:00 PM 10.48 50.864 0.098 7.08 1.9 11.78
4/28/2022 1:00:00 PM 10.69 51.242 0.098 7.09 1.89 11.74
4/28/2022 1:15:00 PM 10.91 51.638 0.098 7.09 1.91 11.71
4/28/2022 1:30:00 PM 11.12 52.016 0.098 7.08 1.95 11.68
4/28/2022 1:45:00 PM 11.3 52.34 0.098 7.09 1.94 11.65
4/28/2022 2:00:00 PM 11.45 52.61 0.098 7.1 1.91 11.62
4/28/2022 2:15:00 PM 11.58 52.844 0.098 7.11 1.95 11.6
4/28/2022 2:30:00 PM 11.67 53.006 0.098 7.1 1.99 11.57
4/28/2022 2:45:00 PM 11.75 53.15 0.098 7.1 1.94 11.54
4/28/2022 3:00:00 PM 11.81 53.258 0.098 7.09 1.98 11.52
4/28/2022 3:15:00 PM 11.82 53.276 0.098 7.09 2 11.51
4/28/2022 3:30:00 PM 11.78 53.204 0.098 7.09 1.98 11.5
4/28/2022 3:45:00 PM 11.72 53.096 0.098 7.09 2.02 11.49
4/28/2022 4:00:00 PM 11.62 52.916 0.098 7.07 1.95 11.49
4/28/2022 4:15:00 PM 11.44 52.592 0.098 7.05 2.03 11.49
4/28/2022 4:30:00 PM 11.25 52.25 0.098 7.05 2.05 11.5
4/28/2022 4:45:00 PM 11.04 51.872 0.098 7.03 2 11.5
4/28/2022 5:00:00 PM 10.79 51.422 0.098 7 2.06 11.5
4/28/2022 5:15:00 PM 10.46 50.828 0.099 6.97 2.1 11.5
4/28/2022 5:30:00 PM 10.2 50.36 0.099 6.95 1.96 11.49
4/28/2022 5:45:00 PM 10.01 50.018 0.099 6.91 1.97 11.51
4/28/2022 6:00:00 PM 9.83 49.694 0.099 6.86 1.96 11.51
4/28/2022 6:15:00 PM 9.65 49.37 0.099 6.83 2 11.52
4/28/2022 6:30:00 PM 9.48 49.064 0.094 6.81 2.99 11.52
4/28/2022 6:45:00 PM 9.33 48.794 0.094 6.78 3.04 11.53
4/28/2022 7:00:00 PM 9.16 48.488 0.099 6.76 1.97 11.53
4/28/2022 7:15:00 PM 9.03 48.254 0.099 6.75 1.96 11.52
4/28/2022 7:30:00 PM 8.9 48.02 0.099 6.74 1.95 11.5
4/28/2022 7:45:00 PM 8.79 47.822 0.099 6.72 2 11.48
4/28/2022 8:00:00 PM 8.68 47.624 0.094 6.71 3.04 11.45
4/28/2022 8:15:00 PM 8.58 47.444 0.099 6.7 2.01 11.43
4/28/2022 8:30:00 PM 8.47 47.246 0.099 6.69 2.06 11.41
4/28/2022 8:45:00 PM 8.37 47.066 0.099 6.68 2.08 11.4
4/28/2022 9:00:00 PM 8.27 46.886 0.099 6.67 2.09 11.39
4/28/2022 9:15:00 PM 8.18 46.724 0.099 6.67 2.13 11.38
4/28/2022 9:30:00 PM 8.1 46.58 0.099 6.67 2.11 11.38
4/28/2022 9:45:00 PM 8.02 46.436 0.099 6.67 2.1 11.38
4/28/2022 10:00:00 PM 7.96 46.328 0.099 6.67 2.16 11.38
4/28/2022 10:15:00 PM 7.89 46.202 0.099 6.67 2.15 11.38
4/28/2022 10:30:00 PM 7.83 46.094 0.099 6.67 2.16 11.38
4/28/2022 10:45:00 PM 7.78 46.004 0.099 6.67 2.13 11.39
4/28/2022 11:00:00 PM 7.73 45.914 0.094 6.67 3.34 11.39
4/28/2022 11:15:00 PM 7.69 45.842 0.099 6.67 2.18 11.41
4/28/2022 11:30:00 PM 7.65 45.77 0.099 6.68 2.12 11.41
4/28/2022 11:45:00 PM 7.61 45.698 0.099 6.67 2.1 11.42
4/29/2022 12:00:00 AM 7.58 45.644 0.099 6.68 2.12 11.43
4/29/2022 12:15:00 AM 7.55 45.59 0.099 6.68 2.09 11.44
4/29/2022 12:30:00 AM 7.51 45.518 0.099 6.68 2.05 11.45
4/29/2022 12:45:00 AM 7.49 45.482 0.099 6.68 2.02 11.45
4/29/2022 1:00:00 AM 7.48 45.464 0.099 6.68 2.05 11.45
4/29/2022 1:15:00 AM 7.47 45.446 0.099 6.68 2.05 11.45
4/29/2022 1:30:00 AM 7.46 45.428 0.099 6.69 2.08 11.46
4/29/2022 1:45:00 AM 7.46 45.428 0.094 6.69 3.14 11.45
4/29/2022 2:00:00 AM 7.45 45.41 0.099 6.69 1.97 11.45
4/29/2022 2:15:00 AM 7.45 45.41 0.099 6.7 1.96 11.45
4/29/2022 2:30:00 AM 7.45 45.41 0.099 6.7 2.02 11.44
4/29/2022 2:45:00 AM 7.45 45.41 0.099 6.69 1.99 11.45
4/29/2022 3:00:00 AM 7.45 45.41 0.099 6.69 1.99 11.44
4/29/2022 3:15:00 AM 7.46 45.428 0.094 6.7 3.1 11.43
4/29/2022 3:30:00 AM 7.46 45.428 0.099 6.7 1.98 11.43
4/29/2022 3:45:00 AM 7.47 45.446 0.094 6.7 3.22 11.43
4/29/2022 4:00:00 AM 7.47 45.446 0.099 6.7 1.97 11.42
4/29/2022 4:15:00 AM 7.47 45.446 0.094 6.7 3.14 11.43
4/29/2022 4:30:00 AM 7.47 45.446 0.099 6.71 1.91 11.43
4/29/2022 4:45:00 AM 7.46 45.428 0.099 6.71 1.94 11.42
4/29/2022 5:00:00 AM 7.46 45.428 0.099 6.7 1.92 11.43
4/29/2022 5:15:00 AM 7.45 45.41 0.099 6.71 1.9 11.43
4/29/2022 5:30:00 AM 7.44 45.392 0.099 6.71 2 11.43
4/29/2022 5:45:00 AM 7.42 45.356 0.099 6.71 1.96 11.44
4/29/2022 6:00:00 AM 7.41 45.338 0.099 6.71 1.94 11.44
4/29/2022 6:15:00 AM 7.4 45.32 0.099 6.7 1.89 11.45
4/29/2022 6:30:00 AM 7.39 45.302 0.099 6.71 1.9 11.47
4/29/2022 6:45:00 AM 7.39 45.302 0.098 6.72 1.84 11.51
4/29/2022 7:00:00 AM 7.38 45.284 0.098 6.72 1.86 11.55
4/29/2022 7:15:00 AM 7.38 45.284 0.098 6.73 1.84 11.59
4/29/2022 7:30:00 AM 7.39 45.302 0.093 6.73 3.03 11.63
4/29/2022 7:45:00 AM 7.39 45.302 0.098 6.75 1.82 11.67
4/29/2022 8:00:00 AM 7.41 45.338 0.098 6.77 1.77 11.72
4/29/2022 8:15:00 AM 7.48 45.464 0.098 6.79 1.77 11.78
4/29/2022 8:30:00 AM 7.54 45.572 0.098 6.81 1.7 11.82
4/29/2022 8:45:00 AM 7.61 45.698 0.098 6.82 1.7 11.86
4/29/2022 9:00:00 AM 7.68 45.824 0.098 6.84 1.66 11.89
4/29/2022 9:15:00 AM 7.77 45.986 0.098 6.87 1.72 11.92
4/29/2022 9:30:00 AM 7.85 46.13 0.098 6.88 1.69 11.95
4/29/2022 9:45:00 AM 7.94 46.292 0.093 6.89 2.74 11.97
4/29/2022 10:00:00 AM 8.05 46.49 0.098 6.91 1.72 11.99
4/29/2022 10:15:00 AM 8.17 46.706 0.093 6.92 2.74 12.01
4/29/2022 10:30:00 AM 8.31 46.958 0.097 6.96 1.66 12.02
4/29/2022 10:45:00 AM 8.48 47.264 0.097 6.98 1.66 12.02
4/29/2022 11:00:00 AM 8.67 47.606 0.097 7 1.67 12.02
4/29/2022 11:15:00 AM 8.9 48.02 0.092 7.01 2.66 12.01
4/29/2022 11:30:00 AM 9.16 48.488 0.097 7.04 1.68 11.99
4/29/2022 11:45:00 AM 9.42 48.956 0.092 7.05 2.88 11.96
4/29/2022 12:00:00 PM 9.7 49.46 0.097 7.07 1.66 11.92
4/29/2022 12:15:00 PM 9.97 49.946 0.097 7.07 1.7 11.88
4/29/2022 12:30:00 PM 10.24 50.432 0.097 7.09 1.67 11.84
4/29/2022 12:45:00 PM 10.52 50.936 0.097 7.09 1.78 11.79
4/29/2022 1:00:00 PM 10.79 51.422 0.097 7.11 1.66 11.74
4/29/2022 1:15:00 PM 11.06 51.908 0.097 7.1 1.68 11.7
4/29/2022 1:30:00 PM 11.31 52.358 0.097 7.14 1.66 11.66
4/29/2022 1:45:00 PM 11.54 52.772 0.097 7.12 1.66 11.61
4/29/2022 2:00:00 PM 11.74 53.132 0.097 7.14 1.73 11.57
4/29/2022 2:15:00 PM 11.93 53.474 0.097 7.15 1.65 11.52
4/29/2022 2:30:00 PM 12.1 53.78 0.097 7.15 1.72 11.49
4/29/2022 2:45:00 PM 12.22 53.996 0.097 7.15 1.66 11.45
4/29/2022 3:00:00 PM 12.32 54.176 0.097 7.15 1.72 11.42
4/29/2022 3:15:00 PM 12.4 54.32 0.097 7.15 1.72 11.39
4/29/2022 3:30:00 PM 12.42 54.356 0.097 7.16 1.68 11.37
4/29/2022 3:45:00 PM 12.39 54.302 0.097 7.15 1.7 11.35
4/29/2022 4:00:00 PM 12.3 54.14 0.097 7.14 1.73 11.34
4/29/2022 4:15:00 PM 12.2 53.96 0.097 7.12 1.73 11.33
4/29/2022 4:30:00 PM 12.05 53.69 0.097 7.12 1.72 11.32
4/29/2022 4:45:00 PM 11.84 53.312 0.098 7.1 1.76 11.32
4/29/2022 5:00:00 PM 11.6 52.88 0.098 7.08 1.8 11.31
4/29/2022 5:15:00 PM 11.31 52.358 0.098 7.04 1.79 11.29
4/29/2022 5:30:00 PM 11.07 51.926 0.098 7.02 1.79 11.28
4/29/2022 5:45:00 PM 10.9 51.62 0.098 7 1.77 11.28
4/29/2022 6:00:00 PM 10.75 51.35 0.098 6.98 1.94 11.28
4/29/2022 6:15:00 PM 10.6 51.08 0.098 6.96 1.83 11.27
4/29/2022 6:30:00 PM 10.45 50.81 0.098 6.93 1.84 11.27
4/29/2022 6:45:00 PM 10.31 50.558 0.098 6.91 1.86 11.26
4/29/2022 7:00:00 PM 10.18 50.324 0.093 6.88 3.04 11.25
4/29/2022 7:15:00 PM 10.05 50.09 0.098 6.84 1.87 11.23
4/29/2022 7:30:00 PM 9.94 49.892 0.093 6.81 2.93 11.21
4/29/2022 7:45:00 PM 9.82 49.676 0.099 6.79 1.83 11.18
4/29/2022 8:00:00 PM 9.71 49.478 0.099 6.76 1.84 11.15
4/29/2022 8:15:00 PM 9.6 49.28 0.099 6.74 1.87 11.12
4/29/2022 8:30:00 PM 9.49 49.082 0.099 6.72 1.88 11.1
4/29/2022 8:45:00 PM 9.39 48.902 0.099 6.7 1.99 11.08
4/29/2022 9:00:00 PM 9.29 48.722 0.099 6.69 2.01 11.07
4/29/2022 9:15:00 PM 9.19 48.542 0.099 6.68 2.02 11.06
4/29/2022 9:30:00 PM 9.11 48.398 0.099 6.67 1.94 11.05
4/29/2022 9:45:00 PM 9.05 48.29 0.099 6.66 2.04 11.04
4/29/2022 10:00:00 PM 8.99 48.182 0.099 6.66 2.07 11.04
4/29/2022 10:15:00 PM 8.94 48.092 0.099 6.66 2.05 11.04
4/29/2022 10:30:00 PM 8.88 47.984 0.099 6.67 2.07 11.04
4/29/2022 10:45:00 PM 8.83 47.894 0.099 6.67 2.03 11.04
4/29/2022 11:00:00 PM 8.77 47.786 0.099 6.67 2.12 11.05
4/29/2022 11:15:00 PM 8.72 47.696 0.099 6.67 2.04 11.07
4/29/2022 11:30:00 PM 8.66 47.588 0.099 6.67 2.1 11.08
4/29/2022 11:45:00 PM 8.61 47.498 0.099 6.67 2.09 11.09
4/30/2022 12:00:00 AM 8.55 47.39 0.099 6.67 2.04 11.1
4/30/2022 12:15:00 AM 8.5 47.3 0.099 6.67 2.12 11.12
4/30/2022 12:30:00 AM 8.45 47.21 0.099 6.67 2.08 11.13
4/30/2022 12:45:00 AM 8.4 47.12 0.099 6.67 2.08 11.15
4/30/2022 1:00:00 AM 8.35 47.03 0.099 6.67 2.06 11.16
4/30/2022 1:15:00 AM 8.31 46.958 0.099 6.67 2.01 11.17
4/30/2022 1:30:00 AM 8.27 46.886 0.099 6.67 2.11 11.18
4/30/2022 1:45:00 AM 8.23 46.814 0.099 6.67 1.99 11.18
4/30/2022 2:00:00 AM 8.2 46.76 0.099 6.68 1.99 11.19
4/30/2022 2:15:00 AM 8.18 46.724 0.099 6.67 1.98 11.19
4/30/2022 2:30:00 AM 8.16 46.688 0.099 6.68 2.03 11.2
4/30/2022 2:45:00 AM 8.15 46.67 0.099 6.69 1.98 11.2
4/30/2022 3:00:00 AM 8.13 46.634 0.1 6.69 1.99 11.2
4/30/2022 3:15:00 AM 8.12 46.616 0.1 6.69 1.99 11.21
4/30/2022 3:30:00 AM 8.11 46.598 0.1 6.68 1.97 11.21
4/30/2022 3:45:00 AM 8.1 46.58 0.1 6.69 2.01 11.21
4/30/2022 4:00:00 AM 8.08 46.544 0.1 6.69 1.94 11.21
4/30/2022 4:15:00 AM 8.07 46.526 0.1 6.69 1.91 11.21
4/30/2022 4:30:00 AM 8.05 46.49 0.1 6.69 1.88 11.22
4/30/2022 4:45:00 AM 8.04 46.472 0.1 6.7 1.88 11.22
4/30/2022 5:00:00 AM 8.02 46.436 0.1 6.69 1.87 11.22
4/30/2022 5:15:00 AM 8 46.4 0.1 6.7 1.88 11.23
4/30/2022 5:30:00 AM 7.98 46.364 0.094 6.69 2.93 11.23
4/30/2022 5:45:00 AM 7.97 46.346 0.1 6.7 1.89 11.24
4/30/2022 6:00:00 AM 7.95 46.31 0.1 6.7 1.82 11.24
4/30/2022 6:15:00 AM 7.94 46.292 0.1 6.69 1.85 11.25
4/30/2022 6:30:00 AM 7.92 46.256 0.1 6.7 1.93 11.28
4/30/2022 6:45:00 AM 7.92 46.256 0.1 6.71 1.81 11.32
4/30/2022 7:00:00 AM 7.91 46.238 0.094 6.71 2.91 11.36
4/30/2022 7:15:00 AM 7.9 46.22 0.099 6.73 1.83 11.41
4/30/2022 7:30:00 AM 7.89 46.202 0.099 6.74 1.76 11.45
4/30/2022 7:45:00 AM 7.89 46.202 0.099 6.75 1.75 11.49
4/30/2022 8:00:00 AM 7.91 46.238 0.099 6.76 1.74 11.55
4/30/2022 8:15:00 AM 7.97 46.346 0.099 6.78 1.76 11.61
4/30/2022 8:30:00 AM 8.02 46.436 0.099 6.8 1.74 11.65
4/30/2022 8:45:00 AM 8.09 46.562 0.099 6.82 1.7 11.69
4/30/2022 9:00:00 AM 8.17 46.706 0.099 6.84 1.71 11.73
4/30/2022 9:15:00 AM 8.25 46.85 0.099 6.86 1.76 11.77
4/30/2022 9:30:00 AM 8.35 47.03 0.099 6.89 1.75 11.79
4/30/2022 9:45:00 AM 8.46 47.228 0.099 6.9 1.69 11.81
4/30/2022 10:00:00 AM 8.59 47.462 0.099 6.92 1.61 11.82
4/30/2022 10:15:00 AM 8.74 47.732 0.099 6.94 1.81 11.84
4/30/2022 10:30:00 AM 8.9 48.02 0.098 6.96 1.67 11.84
4/30/2022 10:45:00 AM 9.09 48.362 0.098 6.98 1.66 11.84
4/30/2022 11:00:00 AM 9.31 48.758 0.098 7 1.64 11.83
4/30/2022 11:15:00 AM 9.55 49.19 0.093 7.02 2.7 11.82
4/30/2022 11:30:00 AM 9.83 49.694 0.098 7.05 1.69 11.8
4/30/2022 11:45:00 AM 10.11 50.198 0.098 7.06 1.72 11.76
4/30/2022 12:00:00 PM 10.41 50.738 0.098 7.08 1.68 11.73
4/30/2022 12:15:00 PM 10.73 51.314 0.098 7.1 1.64 11.68
4/30/2022 12:30:00 PM 10.99 51.782 0.098 7.1 1.64 11.65
4/30/2022 12:45:00 PM 11.28 52.304 0.098 7.11 1.67 11.6
4/30/2022 1:00:00 PM 11.58 52.844 0.098 7.12 1.71 11.56
4/30/2022 1:15:00 PM 11.86 53.348 0.098 7.13 1.65 11.51
4/30/2022 1:30:00 PM 12.14 53.852 0.098 7.14 1.7 11.47
4/30/2022 1:45:00 PM 12.36 54.248 0.098 7.16 1.68 11.42
4/30/2022 2:00:00 PM 12.57 54.626 0.098 7.16 1.72 11.38
4/30/2022 2:15:00 PM 12.73 54.914 0.098 7.17 1.64 11.35
4/30/2022 2:30:00 PM 12.89 55.202 0.098 7.17 1.71 11.31
4/30/2022 2:45:00 PM 13.02 55.436 0.098 7.19 1.69 11.29
4/30/2022 3:00:00 PM 13.01 55.418 0.098 7.19 1.75 11.26
4/30/2022 3:15:00 PM 12.95 55.31 0.098 7.18 1.74 11.24
4/30/2022 3:30:00 PM 12.98 55.364 0.099 7.18 1.8 11.24
4/30/2022 3:45:00 PM 13.05 55.49 0.098 7.18 1.75 11.22
4/30/2022 4:00:00 PM 13.01 55.418 0.098 7.17 1.78 11.21
4/30/2022 4:15:00 PM 12.91 55.238 0.098 7.16 1.74 11.2
4/30/2022 4:30:00 PM 12.77 54.986 0.098 7.15 1.75 11.18
4/30/2022 4:45:00 PM 12.65 54.77 0.099 7.12 1.92 11.16
4/30/2022 5:00:00 PM 12.46 54.428 0.099 7.11 1.97 11.13
4/30/2022 5:15:00 PM 12.18 53.924 0.099 7.09 1.81 11.12
4/30/2022 5:30:00 PM 11.98 53.564 0.099 7.07 1.78 11.09
4/30/2022 5:45:00 PM 11.83 53.294 0.099 7.04 1.77 11.09
4/30/2022 6:00:00 PM 11.71 53.078 0.099 7.03 1.87 11.08
4/30/2022 6:15:00 PM 11.58 52.844 0.099 7 1.78 11.06
4/30/2022 6:30:00 PM 11.47 52.646 0.099 6.99 1.85 11.04
4/30/2022 6:45:00 PM 11.37 52.466 0.094 6.95 2.85 11.02
4/30/2022 7:00:00 PM 11.28 52.304 0.099 6.95 1.72 10.97
4/30/2022 7:15:00 PM 11.19 52.142 0.099 6.91 1.83 10.94
4/30/2022 7:30:00 PM 11.1 51.98 0.099 6.89 1.78 10.89
4/30/2022 7:45:00 PM 11.01 51.818 0.1 6.85 1.87 10.84
4/30/2022 8:00:00 PM 10.91 51.638 0.1 6.83 1.85 10.8
4/30/2022 8:15:00 PM 10.82 51.476 0.095 6.79 2.92 10.76
4/30/2022 8:30:00 PM 10.73 51.314 0.1 6.78 1.89 10.72
4/30/2022 8:45:00 PM 10.64 51.152 0.1 6.76 1.92 10.7
4/30/2022 9:00:00 PM 10.54 50.972 0.095 6.73 3.06 10.69
4/30/2022 9:15:00 PM 10.45 50.81 0.1 6.73 2.08 10.68
4/30/2022 9:30:00 PM 10.36 50.648 0.1 6.71 2.02 10.66
4/30/2022 9:45:00 PM 10.28 50.504 0.1 6.7 1.98 10.65
4/30/2022 10:00:00 PM 10.2 50.36 0.1 6.69 2.05 10.65
4/30/2022 10:15:00 PM 10.12 50.216 0.095 6.68 3.02 10.66
4/30/2022 10:30:00 PM 10.04 50.072 0.101 6.68 2.07 10.68
4/30/2022 10:45:00 PM 9.97 49.946 0.101 6.68 2.02 10.68
4/30/2022 11:00:00 PM 9.91 49.838 0.101 6.67 1.99 10.68
4/30/2022 11:15:00 PM 9.85 49.73 0.101 6.68 1.98 10.69
4/30/2022 11:30:00 PM 9.81 49.658 0.101 6.67 2.04 10.69
4/30/2022 11:45:00 PM 9.77 49.586 0.101 6.67 2.01 10.7
5/1/2022 12:00:00 AM 9.73 49.514 0.1 6.67 2.23 10.71
5/1/2022 12:15:00 AM 9.69 49.442 0.101 6.67 2.15 10.72
5/1/2022 12:30:00 AM 9.64 49.352 0.101 6.67 1.95 10.73
5/1/2022 12:45:00 AM 9.59 49.262 0.101 6.67 1.98 10.75
5/1/2022 1:00:00 AM 9.54 49.172 0.101 6.67 2.03 10.76
5/1/2022 1:15:00 AM 9.49 49.082 0.101 6.67 2.05 10.77
5/1/2022 1:30:00 AM 9.44 48.992 0.101 6.67 1.98 10.79
5/1/2022 1:45:00 AM 9.39 48.902 0.101 6.66 1.9 10.8
5/1/2022 2:00:00 AM 9.33 48.794 0.095 6.66 2.94 10.82
5/1/2022 2:15:00 AM 9.27 48.686 0.095 6.66 3.1 10.83
5/1/2022 2:30:00 AM 9.22 48.596 0.101 6.67 2.03 10.85
5/1/2022 2:45:00 AM 9.18 48.524 0.101 6.66 1.93 10.85
5/1/2022 3:00:00 AM 9.14 48.452 0.101 6.66 1.96 10.86
5/1/2022 3:15:00 AM 9.12 48.416 0.101 6.67 1.96 10.87
5/1/2022 3:30:00 AM 9.1 48.38 0.101 6.67 1.88 10.87
5/1/2022 3:45:00 AM 9.07 48.326 0.101 6.67 1.94 10.88
5/1/2022 4:00:00 AM 9.05 48.29 0.101 6.67 1.84 10.88
5/1/2022 4:15:00 AM 9.03 48.254 0.101 6.67 1.94 10.89
5/1/2022 4:30:00 AM 9.01 48.218 0.101 6.67 1.9 10.88
5/1/2022 4:45:00 AM 8.99 48.182 0.101 6.68 1.89 10.89
5/1/2022 5:00:00 AM 8.97 48.146 0.101 6.68 1.87 10.89
5/1/2022 5:15:00 AM 8.96 48.128 0.101 6.68 1.81 10.9
5/1/2022 5:30:00 AM 8.94 48.092 0.096 6.67 2.96 10.9
5/1/2022 5:45:00 AM 8.92 48.056 0.101 6.68 1.91 10.91
5/1/2022 6:00:00 AM 8.91 48.038 0.096 6.68 2.81 10.91
5/1/2022 6:15:00 AM 8.91 48.038 0.096 6.68 2.8 10.92
5/1/2022 6:30:00 AM 8.91 48.038 0.096 6.69 2.81 10.95
5/1/2022 6:45:00 AM 8.91 48.038 0.096 6.7 2.82 11.01
5/1/2022 7:00:00 AM 8.93 48.074 0.096 6.72 2.68 11.08
5/1/2022 7:15:00 AM 8.96 48.128 0.096 6.74 2.84 11.15
5/1/2022 7:30:00 AM 8.99 48.182 0.101 6.77 1.64 11.21
5/1/2022 7:45:00 AM 9.02 48.236 0.101 6.78 1.67 11.27
5/1/2022 8:00:00 AM 9.06 48.308 0.101 6.8 1.63 11.33
5/1/2022 8:15:00 AM 9.11 48.398 0.101 6.82 1.62 11.37
5/1/2022 8:30:00 AM 9.18 48.524 0.1 6.84 1.68 11.42
5/1/2022 8:45:00 AM 9.27 48.686 0.1 6.87 1.65 11.48
5/1/2022 9:00:00 AM 9.33 48.794 0.1 6.89 1.62 11.52
5/1/2022 9:15:00 AM 9.39 48.902 0.1 6.91 1.58 11.56
5/1/2022 9:30:00 AM 9.45 49.01 0.1 6.93 1.58 11.59
5/1/2022 9:45:00 AM 9.55 49.19 0.1 6.95 1.53 11.62
5/1/2022 10:00:00 AM 9.71 49.478 0.1 6.97 1.6 11.64
5/1/2022 10:15:00 AM 9.88 49.784 0.1 7 1.58 11.65
5/1/2022 10:30:00 AM 10.04 50.072 0.1 7.02 1.52 11.66
5/1/2022 10:45:00 AM 10.11 50.198 0.099 7.05 1.58 11.64
5/1/2022 11:00:00 AM 10.09 50.162 0.099 7.04 1.71 11.56
5/1/2022 11:15:00 AM 10.11 50.198 0.099 7.02 1.77 11.55
5/1/2022 11:30:00 AM 10.22 50.396 0.099 7.03 1.67 11.56
5/1/2022 11:45:00 AM 10.35 50.63 0.099 7.06 1.64 11.56
5/1/2022 12:00:00 PM 10.47 50.846 0.099 7.07 1.63 11.55
5/1/2022 12:15:00 PM 10.57 51.026 0.099 7.08 1.63 11.53
5/1/2022 12:30:00 PM 10.67 51.206 0.099 7.09 1.58 11.5
5/1/2022 12:45:00 PM 10.72 51.296 0.099 7.09 1.59 11.46
5/1/2022 1:00:00 PM 10.72 51.296 0.099 7.08 1.73 11.39
5/1/2022 1:15:00 PM 10.71 51.278 0.099 7.05 1.82 11.36
5/1/2022 1:30:00 PM 10.69 51.242 0.099 7.04 1.65 11.37
5/1/2022 1:45:00 PM 10.68 51.224 0.1 7.05 1.62 11.36
5/1/2022 2:00:00 PM 10.68 51.224 0.099 7.05 1.6 11.38
5/1/2022 2:15:00 PM 10.63 51.134 0.1 7.03 1.56 11.34
5/1/2022 2:30:00 PM 10.56 51.008 0.1 7.01 1.7 11.31
5/1/2022 2:45:00 PM 10.49 50.882 0.1 7 1.68 11.33
5/1/2022 3:00:00 PM 10.42 50.756 0.099 6.99 1.68 11.36
5/1/2022 3:15:00 PM 10.35 50.63 0.099 6.99 1.7 11.36
5/1/2022 3:30:00 PM 10.27 50.486 0.099 6.98 1.69 11.35
5/1/2022 3:45:00 PM 10.19 50.342 0.1 6.96 1.73 11.32
5/1/2022 4:00:00 PM 10.11 50.198 0.1 6.95 1.69 11.33
5/1/2022 4:15:00 PM 10.04 50.072 0.099 6.94 1.73 11.33
5/1/2022 4:30:00 PM 9.99 49.982 0.099 6.94 1.66 11.38
5/1/2022 4:45:00 PM 9.94 49.892 0.099 6.94 1.77 11.39
5/1/2022 5:00:00 PM 9.9 49.82 0.1 6.94 1.74 11.41
5/1/2022 5:15:00 PM 9.86 49.748 0.1 6.94 1.76 11.41
5/1/2022 5:30:00 PM 9.83 49.694 0.1 6.91 1.77 11.39
5/1/2022 5:45:00 PM 9.79 49.622 0.1 6.91 1.8 11.36
5/1/2022 6:00:00 PM 9.76 49.568 0.101 6.9 1.8 11.32
5/1/2022 6:15:00 PM 9.72 49.496 0.101 6.87 1.74 11.27
5/1/2022 6:30:00 PM 9.7 49.46 0.1 6.87 1.88 11.22
5/1/2022 6:45:00 PM 9.68 49.424 0.101 6.84 1.77 11.18
5/1/2022 7:00:00 PM 9.68 49.424 0.101 6.84 1.88 11.16
5/1/2022 7:15:00 PM 9.68 49.424 0.101 6.83 1.87 11.12
5/1/2022 7:30:00 PM 9.68 49.424 0.101 6.81 1.77 11.08
5/1/2022 7:45:00 PM 9.68 49.424 0.101 6.81 1.77 11.04
5/1/2022 8:00:00 PM 9.69 49.442 0.101 6.79 1.84 10.99
5/1/2022 8:15:00 PM 9.7 49.46 0.101 6.79 1.83 10.94
5/1/2022 8:30:00 PM 9.71 49.478 0.101 6.78 1.86 10.9
5/1/2022 8:45:00 PM 9.7 49.46 0.101 6.77 1.89 10.87
5/1/2022 9:00:00 PM 9.7 49.46 0.102 6.77 1.86 10.85
5/1/2022 9:15:00 PM 9.69 49.442 0.102 6.76 1.96 10.83
5/1/2022 9:30:00 PM 9.68 49.424 0.102 6.76 1.9 10.81
5/1/2022 9:45:00 PM 9.68 49.424 0.102 6.74 2.01 10.8
5/1/2022 10:00:00 PM 9.68 49.424 0.102 6.74 1.93 10.78
5/1/2022 10:15:00 PM 9.67 49.406 0.102 6.73 1.99 10.78
5/1/2022 10:30:00 PM 9.67 49.406 0.102 6.73 1.93 10.77
5/1/2022 10:45:00 PM 9.66 49.388 0.102 6.73 1.95 10.77
5/1/2022 11:00:00 PM 9.66 49.388 0.102 6.74 2.03 10.76
5/1/2022 11:15:00 PM 9.65 49.37 0.102 6.73 1.94 10.76
5/1/2022 11:30:00 PM 9.64 49.352 0.102 6.73 1.91 10.76
5/1/2022 11:45:00 PM 9.63 49.334 0.102 6.73 1.96 10.77
5/2/2022 12:00:00 AM 9.62 49.316 0.102 6.73 1.94 10.77
5/2/2022 12:15:00 AM 9.62 49.316 0.102 6.72 2.01 10.78
5/2/2022 12:30:00 AM 9.61 49.298 0.102 6.72 1.99 10.78
5/2/2022 12:45:00 AM 9.6 49.28 0.102 6.71 2.06 10.77
5/2/2022 1:00:00 AM 9.59 49.262 0.102 6.72 2.15 10.77
5/2/2022 1:15:00 AM 9.59 49.262 0.102 6.72 2 10.77
5/2/2022 1:30:00 AM 9.58 49.244 0.097 6.7 3.1 10.78
5/2/2022 1:45:00 AM 9.57 49.226 0.097 6.7 3.1 10.78
5/2/2022 2:00:00 AM 9.56 49.208 0.097 6.7 3.06 10.79
5/2/2022 2:15:00 AM 9.54 49.172 0.102 6.7 2.01 10.8
5/2/2022 2:30:00 AM 9.53 49.154 0.102 6.7 2.04 10.79
5/2/2022 2:45:00 AM 9.52 49.136 0.102 6.7 1.95 10.8
5/2/2022 3:00:00 AM 9.51 49.118 0.097 6.68 3.07 10.81
5/2/2022 3:15:00 AM 9.5 49.1 0.102 6.7 1.93 10.8
5/2/2022 3:30:00 AM 9.49 49.082 0.102 6.69 1.98 10.81
5/2/2022 3:45:00 AM 9.47 49.046 0.102 6.68 1.96 10.82
5/2/2022 4:00:00 AM 9.46 49.028 0.103 6.69 1.94 10.82
5/2/2022 4:15:00 AM 9.45 49.01 0.103 6.69 1.88 10.83
5/2/2022 4:30:00 AM 9.43 48.974 0.103 6.67 1.99 10.84
5/2/2022 4:45:00 AM 9.43 48.974 0.103 6.67 1.94 10.84
5/2/2022 5:00:00 AM 9.42 48.956 0.103 6.67 1.94 10.84
5/2/2022 5:15:00 AM 9.41 48.938 0.103 6.67 1.9 10.84
5/2/2022 5:30:00 AM 9.4 48.92 0.103 6.67 1.92 10.85
5/2/2022 5:45:00 AM 9.39 48.902 0.103 6.67 1.93 10.85
5/2/2022 6:00:00 AM 9.39 48.902 0.103 6.66 1.95 10.85
5/2/2022 6:15:00 AM 9.38 48.884 0.103 6.68 1.8 10.86
5/2/2022 6:30:00 AM 9.37 48.866 0.098 6.67 2.94 10.87
5/2/2022 6:45:00 AM 9.37 48.866 0.103 6.68 1.86 10.89
5/2/2022 7:00:00 AM 9.37 48.866 0.103 6.68 1.78 10.92
5/2/2022 7:15:00 AM 9.38 48.884 0.103 6.69 1.73 10.96
5/2/2022 7:30:00 AM 9.39 48.902 0.103 6.71 1.82 11.01
5/2/2022 7:45:00 AM 9.4 48.92 0.103 6.73 1.7 11.05
5/2/2022 8:00:00 AM 9.42 48.956 0.103 6.74 1.74 11.09
5/2/2022 8:15:00 AM 9.46 49.028 0.103 6.76 1.72 11.17
5/2/2022 8:30:00 AM 9.5 49.1 0.103 6.78 1.71 11.24
5/2/2022 8:45:00 AM 9.55 49.19 0.103 6.81 1.71 11.31
5/2/2022 9:00:00 AM 9.62 49.316 0.103 6.84 1.65 11.37
5/2/2022 9:15:00 AM 9.68 49.424 0.102 6.86 1.7 11.41
5/2/2022 9:30:00 AM 9.7 49.46 0.102 6.87 1.62 11.41
5/2/2022 9:45:00 AM 9.74 49.532 0.102 6.89 1.66 11.45
5/2/2022 10:00:00 AM 9.82 49.676 0.102 6.91 1.67 11.5
5/2/2022 10:15:00 AM 9.95 49.91 0.097 6.94 2.6 11.56
5/2/2022 10:30:00 AM 10.18 50.324 0.102 6.98 1.62 11.59
5/2/2022 10:45:00 AM 10.39 50.702 0.102 7.01 1.66 11.59
5/2/2022 11:00:00 AM 10.4 50.72 0.102 7.03 1.71 11.6
5/2/2022 11:15:00 AM 10.42 50.756 0.102 7.02 1.67 11.6
5/2/2022 11:30:00 AM 10.42 50.756 0.102 7.02 1.66 11.57
5/2/2022 11:45:00 AM 10.44 50.792 0.102 7.03 1.68 11.57
5/2/2022 12:00:00 PM 10.46 50.828 0.102 7.04 1.6 11.56
5/2/2022 12:15:00 PM 10.44 50.792 0.102 7.01 1.69 11.44
5/2/2022 12:30:00 PM 10.45 50.81 0.102 6.98 1.66 11.34
5/2/2022 12:45:00 PM 10.5 50.9 0.102 6.97 1.67 11.35
5/2/2022 1:00:00 PM 10.69 51.242 0.102 7 1.73 11.42
5/2/2022 1:15:00 PM 11.03 51.854 0.102 7.03 1.67 11.43
5/2/2022 1:30:00 PM 11.26 52.268 0.102 7.04 1.66 11.42
5/2/2022 1:45:00 PM 11.48 52.664 0.102 7.06 1.7 11.41
5/2/2022 2:00:00 PM 11.61 52.898 0.102 7.08 1.68 11.4
5/2/2022 2:15:00 PM 11.72 53.096 0.102 7.08 1.74 11.38
5/2/2022 2:30:00 PM 11.88 53.384 0.102 7.1 1.68 11.37
5/2/2022 2:45:00 PM 12.06 53.708 0.102 7.09 1.89 11.37
5/2/2022 3:00:00 PM 12.09 53.762 0.102 7.1 1.67 11.36
5/2/2022 3:15:00 PM 12.29 54.122 0.102 7.12 1.75 11.35
5/2/2022 3:30:00 PM 12.52 54.536 0.102 7.14 1.7 11.33
5/2/2022 3:45:00 PM 12.6 54.68 0.102 7.14 1.77 11.31
5/2/2022 4:00:00 PM 12.47 54.446 0.103 7.14 1.81 11.28
5/2/2022 4:15:00 PM 12.34 54.212 0.103 7.11 1.84 11.27
5/2/2022 4:30:00 PM 12.33 54.194 0.103 7.12 1.8 11.28
5/2/2022 4:45:00 PM 12.27 54.086 0.103 7.1 1.75 11.25
5/2/2022 5:00:00 PM 12.12 53.816 0.103 7.1 1.78 11.21
5/2/2022 5:15:00 PM 11.92 53.456 0.103 7.08 1.78 11.18
5/2/2022 5:30:00 PM 11.73 53.114 0.104 7.05 1.74 11.14
5/2/2022 5:45:00 PM 11.6 52.88 0.104 7.02 1.78 11.11
5/2/2022 6:00:00 PM 11.5 52.7 0.104 7 1.86 11.1
5/2/2022 6:15:00 PM 11.37 52.466 0.104 6.99 1.82 11.09
5/2/2022 6:30:00 PM 11.22 52.196 0.104 6.96 1.91 11.07
5/2/2022 6:45:00 PM 11.08 51.944 0.104 6.95 1.84 11.08
5/2/2022 7:00:00 PM 10.94 51.692 0.104 6.94 1.86 11.07
5/2/2022 7:15:00 PM 10.81 51.458 0.104 6.92 1.83 11.08
5/2/2022 7:30:00 PM 10.68 51.224 0.104 6.9 1.84 11.04
5/2/2022 7:45:00 PM 10.57 51.026 0.099 6.86 2.81 10.99
5/2/2022 8:00:00 PM 10.48 50.864 0.104 6.84 1.9 10.95
5/2/2022 8:15:00 PM 10.41 50.738 0.104 6.81 1.84 10.89
5/2/2022 8:30:00 PM 10.36 50.648 0.104 6.79 1.77 10.85
5/2/2022 8:45:00 PM 10.34 50.612 0.104 6.77 1.93 10.8
5/2/2022 9:00:00 PM 10.34 50.612 0.104 6.76 1.88 10.76
5/2/2022 9:15:00 PM 10.34 50.612 0.104 6.75 1.91 10.72
5/2/2022 9:30:00 PM 10.35 50.63 0.104 6.75 1.95 10.68
5/2/2022 9:45:00 PM 10.36 50.648 0.104 6.74 1.94 10.66
5/2/2022 10:00:00 PM 10.36 50.648 0.104 6.74 1.94 10.62
5/2/2022 10:15:00 PM 10.36 50.648 0.104 6.74 2.01 10.6
5/2/2022 10:30:00 PM 10.36 50.648 0.104 6.74 1.97 10.59
5/2/2022 10:45:00 PM 10.34 50.612 0.104 6.73 2.07 10.58
5/2/2022 11:00:00 PM 10.34 50.612 0.104 6.74 1.91 10.56
5/2/2022 11:15:00 PM 10.33 50.594 0.104 6.73 1.9 10.56
5/2/2022 11:30:00 PM 10.33 50.594 0.104 6.73 1.89 10.56
5/2/2022 11:45:00 PM 10.33 50.594 0.104 6.73 1.94 10.55
5/3/2022 12:00:00 AM 10.33 50.594 0.104 6.73 1.98 10.55
5/3/2022 12:15:00 AM 10.33 50.594 0.104 6.72 1.99 10.55
5/3/2022 12:30:00 AM 10.32 50.576 0.104 6.73 1.85 10.55
5/3/2022 12:45:00 AM 10.32 50.576 0.104 6.73 1.85 10.54
5/3/2022 1:00:00 AM 10.31 50.558 0.104 6.72 1.86 10.54
5/3/2022 1:15:00 AM 10.3 50.54 0.104 6.73 1.83 10.54
5/3/2022 1:30:00 AM 10.29 50.522 0.104 6.72 1.87 10.55
5/3/2022 1:45:00 AM 10.29 50.522 0.104 6.73 1.86 10.54
5/3/2022 2:00:00 AM 10.28 50.504 0.104 6.72 1.96 10.55
5/3/2022 2:15:00 AM 10.26 50.468 0.104 6.72 1.86 10.55
5/3/2022 2:30:00 AM 10.25 50.45 0.104 6.72 1.94 10.55
5/3/2022 2:45:00 AM 10.22 50.396 0.104 6.72 1.92 10.56
5/3/2022 3:00:00 AM 10.2 50.36 0.104 6.71 1.89 10.57
5/3/2022 3:15:00 AM 10.17 50.306 0.104 6.71 1.91 10.58
5/3/2022 3:30:00 AM 10.14 50.252 0.104 6.71 1.85 10.58
5/3/2022 3:45:00 AM 10.12 50.216 0.105 6.7 1.95 10.59
5/3/2022 4:00:00 AM 10.09 50.162 0.105 6.72 1.89 10.6
5/3/2022 4:15:00 AM 10.07 50.126 0.105 6.7 1.95 10.59
5/3/2022 4:30:00 AM 10.05 50.09 0.104 6.7 1.95 10.61
5/3/2022 4:45:00 AM 10.04 50.072 0.104 6.71 1.9 10.61
5/3/2022 5:00:00 AM 10.02 50.036 0.104 6.7 1.85 10.61
5/3/2022 5:15:00 AM 10.01 50.018 0.104 6.7 1.91 10.61
5/3/2022 5:30:00 AM 10 50 0.104 6.7 1.97 10.61
5/3/2022 5:45:00 AM 10 50 0.104 6.71 1.94 10.61
5/3/2022 6:00:00 AM 9.99 49.982 0.104 6.71 1.89 10.61
5/3/2022 6:15:00 AM 9.99 49.982 0.104 6.7 1.84 10.62
5/3/2022 6:30:00 AM 9.99 49.982 0.104 6.71 1.87 10.66
5/3/2022 6:45:00 AM 9.99 49.982 0.099 6.72 2.91 10.72
5/3/2022 7:00:00 AM 10 50 0.099 6.74 2.97 10.77
5/3/2022 7:15:00 AM 10.02 50.036 0.104 6.76 1.77 10.83
5/3/2022 7:30:00 AM 10.03 50.054 0.104 6.76 1.75 10.87
5/3/2022 7:45:00 AM 10.06 50.108 0.104 6.78 1.77 10.95
5/3/2022 8:00:00 AM 10.11 50.198 0.098 6.8 2.78 11.02
5/3/2022 8:15:00 AM 10.17 50.306 0.098 6.82 2.75 11.09
5/3/2022 8:30:00 AM 10.25 50.45 0.103 6.86 1.69 11.14
5/3/2022 8:45:00 AM 10.34 50.612 0.103 6.88 1.68 11.2
5/3/2022 9:00:00 AM 10.44 50.792 0.103 6.91 1.7 11.26
5/3/2022 9:15:00 AM 10.53 50.954 0.103 6.93 1.67 11.3
5/3/2022 9:30:00 AM 10.61 51.098 0.103 6.95 1.62 11.33
5/3/2022 9:45:00 AM 10.69 51.242 0.103 6.98 1.67 11.37
5/3/2022 10:00:00 AM 10.8 51.44 0.097 6.99 2.81 11.39
5/3/2022 10:15:00 AM 10.92 51.656 0.103 7.03 1.66 11.41
5/3/2022 10:30:00 AM 11.06 51.908 0.102 7.04 1.71 11.42
5/3/2022 10:45:00 AM 11.22 52.196 0.102 7.07 1.66 11.43
5/3/2022 11:00:00 AM 11.43 52.574 0.102 7.08 1.57 11.42
5/3/2022 11:15:00 AM 11.58 52.844 0.102 7.09 1.6 11.41
5/3/2022 11:30:00 AM 11.78 53.204 0.102 7.11 1.65 11.39
5/3/2022 11:45:00 AM 11.95 53.51 0.102 7.13 1.67 11.37
5/3/2022 12:00:00 PM 12.06 53.708 0.102 7.15 1.66 11.35
5/3/2022 12:15:00 PM 12.2 53.96 0.102 7.15 1.65 11.33
5/3/2022 12:30:00 PM 12.3 54.14 0.102 7.16 1.76 11.31
5/3/2022 12:45:00 PM 12.39 54.302 0.102 7.17 1.62 11.28
5/3/2022 1:00:00 PM 12.5 54.5 0.102 7.18 1.59 11.27
5/3/2022 1:15:00 PM 12.58 54.644 0.102 7.18 1.69 11.25
5/3/2022 1:30:00 PM 12.7 54.86 0.102 7.2 1.63 11.23
5/3/2022 1:45:00 PM 12.9 55.22 0.102 7.21 1.68 11.21
5/3/2022 2:00:00 PM 13.11 55.598 0.102 7.22 1.63 11.19
5/3/2022 2:15:00 PM 13.22 55.796 0.102 7.23 1.64 11.16
5/3/2022 2:30:00 PM 13.22 55.796 0.102 7.23 1.82 11.13
5/3/2022 2:45:00 PM 13.17 55.706 0.102 7.22 1.67 11.11
5/3/2022 3:00:00 PM 13.08 55.544 0.103 7.21 1.7 11.1
5/3/2022 3:15:00 PM 12.98 55.364 0.103 7.2 1.81 11.08
5/3/2022 3:30:00 PM 12.88 55.184 0.103 7.19 1.82 11.08
5/3/2022 3:45:00 PM 12.81 55.058 0.103 7.19 1.81 11.1
5/3/2022 4:00:00 PM 12.74 54.932 0.103 7.19 1.78 11.11
5/3/2022 4:15:00 PM 12.63 54.734 0.103 7.17 1.76 11.1
5/3/2022 4:30:00 PM 12.53 54.554 0.103 7.15 1.81 11.1
5/3/2022 4:45:00 PM 12.47 54.446 0.103 7.15 1.76 11.11
5/3/2022 5:00:00 PM 12.4 54.32 0.103 7.15 1.82 11.12
5/3/2022 5:15:00 PM 12.33 54.194 0.104 7.15 1.77 11.12
5/3/2022 5:30:00 PM 12.22 53.996 0.104 7.13 1.87 11.12
5/3/2022 5:45:00 PM 12.13 53.834 0.104 7.12 1.83 11.12
5/3/2022 6:00:00 PM 12 53.6 0.104 7.1 1.82 11.1
5/3/2022 6:15:00 PM 11.91 53.438 0.104 7.08 1.86 11.08
5/3/2022 6:30:00 PM 11.82 53.276 0.104 7.07 1.86 11.08
5/3/2022 6:45:00 PM 11.74 53.132 0.105 7.05 1.86 11.05
5/3/2022 7:00:00 PM 11.66 52.988 0.105 7.03 1.87 11.02
5/3/2022 7:15:00 PM 11.59 52.862 0.105 7 1.85 10.97
5/3/2022 7:30:00 PM 11.52 52.736 0.105 6.98 2.01 10.92
5/3/2022 7:45:00 PM 11.45 52.61 0.105 6.94 1.86 10.84
5/3/2022 8:00:00 PM 11.41 52.538 0.105 6.92 1.92 10.75
5/3/2022 8:15:00 PM 11.4 52.52 0.105 6.89 1.88 10.66
5/3/2022 8:30:00 PM 11.38 52.484 0.105 6.86 2.08 10.59
5/3/2022 8:45:00 PM 11.39 52.502 0.105 6.85 2 10.53
5/3/2022 9:00:00 PM 11.4 52.52 0.105 6.83 1.97 10.48
5/3/2022 9:15:00 PM 11.43 52.574 0.105 6.83 2.38 10.43
5/3/2022 9:30:00 PM 11.41 52.538 0.105 6.82 2.39 10.38
5/3/2022 9:45:00 PM 11.39 52.502 0.105 6.82 3.28 10.34
5/3/2022 10:00:00 PM 11.36 52.448 0.105 6.8 2.48 10.31
5/3/2022 10:15:00 PM 11.35 52.43 0.105 6.79 2.23 10.3
5/3/2022 10:30:00 PM 11.33 52.394 0.105 6.78 2.18 10.28
5/3/2022 10:45:00 PM 11.3 52.34 0.105 6.77 2.36 10.26
5/3/2022 11:00:00 PM 11.27 52.286 0.105 6.75 2.32 10.27
5/3/2022 11:15:00 PM 11.24 52.232 0.105 6.75 2.22 10.26
5/3/2022 11:30:00 PM 11.2 52.16 0.105 6.74 2.2 10.27
5/3/2022 11:45:00 PM 11.16 52.088 0.105 6.74 2.22 10.27
5/4/2022 12:00:00 AM 11.14 52.052 0.105 6.73 2.15 10.29
5/4/2022 12:15:00 AM 11.12 52.016 0.105 6.74 2.18 10.29
5/4/2022 12:30:00 AM 11.1 51.98 0.105 6.73 2.24 10.29
5/4/2022 12:45:00 AM 11.07 51.926 0.105 6.74 2.2 10.31
5/4/2022 1:00:00 AM 11.05 51.89 0.106 6.73 2.14 10.31
5/4/2022 1:15:00 AM 11.05 51.89 0.106 6.73 2.22 10.31
5/4/2022 1:30:00 AM 11.05 51.89 0.106 6.73 2.16 10.31
5/4/2022 1:45:00 AM 11.05 51.89 0.106 6.74 2.14 10.3
5/4/2022 2:00:00 AM 11.07 51.926 0.105 6.73 2.11 10.29
5/4/2022 2:15:00 AM 11.1 51.98 0.105 6.74 2.13 10.28
5/4/2022 2:30:00 AM 11.14 52.052 0.105 6.74 2.04 10.27
5/4/2022 2:45:00 AM 11.17 52.106 0.105 6.74 3.22 10.26
5/4/2022 3:00:00 AM 11.2 52.16 0.105 6.75 1.98 10.25
5/4/2022 3:15:00 AM 11.24 52.232 0.105 6.75 2.05 10.24
5/4/2022 3:30:00 AM 11.26 52.268 0.105 6.76 2.07 10.23
5/4/2022 3:45:00 AM 11.3 52.34 0.105 6.75 2.05 10.22
5/4/2022 4:00:00 AM 11.32 52.376 0.105 6.75 2.02 10.21
5/4/2022 4:15:00 AM 11.35 52.43 0.105 6.76 1.98 10.21
5/4/2022 4:30:00 AM 11.38 52.484 0.105 6.76 2.06 10.19
5/4/2022 4:45:00 AM 11.4 52.52 0.105 6.76 2.04 10.18
5/4/2022 5:00:00 AM 11.42 52.556 0.105 6.76 2 10.18
5/4/2022 5:15:00 AM 11.44 52.592 0.105 6.76 2.07 10.18
5/4/2022 5:30:00 AM 11.46 52.628 0.105 6.76 2.09 10.17
5/4/2022 5:45:00 AM 11.47 52.646 0.105 6.76 2.06 10.17
5/4/2022 6:00:00 AM 11.48 52.664 0.105 6.76 2.11 10.16
5/4/2022 6:15:00 AM 11.48 52.664 0.105 6.75 2.07 10.17
5/4/2022 6:30:00 AM 11.47 52.646 0.105 6.75 2.1 10.18
5/4/2022 6:45:00 AM 11.46 52.628 0.104 6.75 2.3 10.18
5/4/2022 7:00:00 AM 11.45 52.61 0.105 6.76 2.81 10.2
5/4/2022 7:15:00 AM 11.43 52.574 0.105 6.75 2.27 10.24
5/4/2022 7:30:00 AM 11.42 52.556 0.105 6.76 2.09 10.27
5/4/2022 7:45:00 AM 11.41 52.538 0.105 6.76 2.16 10.31
5/4/2022 8:00:00 AM 11.4 52.52 0.105 6.77 2.17 10.37
5/4/2022 8:15:00 AM 11.38 52.484 0.105 6.77 2.18 10.4
5/4/2022 8:30:00 AM 11.38 52.484 0.105 6.79 2.13 10.46
5/4/2022 8:45:00 AM 11.38 52.484 0.104 6.79 2.01 10.51
5/4/2022 9:00:00 AM 11.4 52.52 0.104 6.81 2.01 10.59
5/4/2022 9:15:00 AM 11.4 52.52 0.104 6.81 1.9 10.62
5/4/2022 9:30:00 AM 11.41 52.538 0.104 6.82 1.93 10.65
5/4/2022 9:45:00 AM 11.45 52.61 0.104 6.84 1.99 10.71
5/4/2022 10:00:00 AM 11.48 52.664 0.104 6.87 5.2 10.76
5/4/2022 10:15:00 AM 11.52 52.736 0.104 6.87 1.97 10.8
5/4/2022 10:30:00 AM 11.56 52.808 0.104 6.89 1.84 10.83
5/4/2022 10:45:00 AM 11.61 52.898 0.104 6.91 1.81 10.87
5/4/2022 11:00:00 AM 11.67 53.006 0.104 6.93 1.86 10.92
5/4/2022 11:15:00 AM 11.72 53.096 0.104 6.95 1.83 10.94
5/4/2022 11:30:00 AM 11.77 53.186 0.104 6.95 1.89 10.96
5/4/2022 11:45:00 AM 11.83 53.294 0.104 6.98 1.82 10.99
5/4/2022 12:00:00 PM 11.97 53.546 0.104 7 1.82 11.03
5/4/2022 12:15:00 PM 12.08 53.744 0.104 7.03 1.78 11.05
5/4/2022 12:30:00 PM 12.23 54.014 0.104 7.05 1.86 11.07
5/4/2022 12:45:00 PM 12.46 54.428 0.104 7.06 1.82 11.08
5/4/2022 1:00:00 PM 12.63 54.734 0.104 7.08 1.76 11.07
5/4/2022 1:15:00 PM 12.83 55.094 0.104 7.09 1.84 11.06
5/4/2022 1:30:00 PM 13.03 55.454 0.104 7.12 1.82 11.03
5/4/2022 1:45:00 PM 13.16 55.688 0.104 7.13 1.73 11.01
5/4/2022 2:00:00 PM 13.36 56.048 0.104 7.15 1.76 10.99
5/4/2022 2:15:00 PM 13.48 56.264 0.104 7.15 1.83 10.94
5/4/2022 2:30:00 PM 13.49 56.282 0.104 7.16 1.81 10.91
5/4/2022 2:45:00 PM 13.48 56.264 0.104 7.15 1.98 10.83
5/4/2022 3:00:00 PM 13.47 56.246 0.104 7.14 1.96 10.85
5/4/2022 3:15:00 PM 13.42 56.156 0.104 7.15 2.01 10.83
5/4/2022 3:30:00 PM 13.35 56.03 0.104 7.14 1.95 10.8
5/4/2022 3:45:00 PM 13.32 55.976 0.105 7.11 2.97 10.77
5/4/2022 4:00:00 PM 13.27 55.886 0.105 7.09 2.87 10.72
5/4/2022 4:15:00 PM 13.24 55.832 0.105 7.1 1.92 10.72
5/4/2022 4:30:00 PM 13.26 55.868 0.105 7.12 2.01 10.77
5/4/2022 4:45:00 PM 13.23 55.814 0.105 7.11 3 10.79
5/4/2022 5:00:00 PM 13.11 55.598 0.105 7.09 1.97 10.73
5/4/2022 5:15:00 PM 12.97 55.346 0.106 7.04 1.97 10.65
5/4/2022 5:30:00 PM 12.85 55.13 0.106 7.02 1.98 10.61
5/4/2022 5:45:00 PM 12.75 54.95 0.106 7 1.96 10.63
5/4/2022 6:00:00 PM 12.69 54.842 0.106 7.01 1.99 10.66
5/4/2022 6:15:00 PM 12.64 54.752 0.106 7.01 1.95 10.72
5/4/2022 6:30:00 PM 12.58 54.644 0.106 7 1.97 10.69
5/4/2022 6:45:00 PM 12.51 54.518 0.106 6.97 1.94 10.63
5/4/2022 7:00:00 PM 12.44 54.392 0.107 6.94 1.92 10.57
5/4/2022 7:15:00 PM 12.38 54.284 0.107 6.92 1.94 10.5
5/4/2022 7:30:00 PM 12.32 54.176 0.107 6.9 1.92 10.44
5/4/2022 7:45:00 PM 12.29 54.122 0.107 6.87 1.98 10.39
5/4/2022 8:00:00 PM 12.26 54.068 0.107 6.86 1.98 10.34
5/4/2022 8:15:00 PM 12.25 54.05 0.107 6.84 1.96 10.29
5/4/2022 8:30:00 PM 12.25 54.05 0.107 6.83 1.96 10.24
5/4/2022 8:45:00 PM 12.25 54.05 0.107 6.82 2.09 10.2
5/4/2022 9:00:00 PM 12.26 54.068 0.107 6.81 2.09 10.16
5/4/2022 9:15:00 PM 12.26 54.068 0.107 6.79 2.23 10.13
5/4/2022 9:30:00 PM 12.26 54.068 0.107 6.78 2.18 10.1
5/4/2022 9:45:00 PM 12.25 54.05 0.107 6.78 2.21 10.08
5/4/2022 10:00:00 PM 12.25 54.05 0.107 6.77 2.18 10.06
5/4/2022 10:15:00 PM 12.24 54.032 0.108 6.78 2.16 10.05
5/4/2022 10:30:00 PM 12.24 54.032 0.108 6.77 2.21 10.04
5/4/2022 10:45:00 PM 12.23 54.014 0.108 6.77 2.13 10.03
5/4/2022 11:00:00 PM 12.21 53.978 0.108 6.76 2.14 10.03
5/4/2022 11:15:00 PM 12.2 53.96 0.108 6.75 2.27 10.04
5/4/2022 11:30:00 PM 12.19 53.942 0.108 6.74 2.27 10.03
5/4/2022 11:45:00 PM 12.18 53.924 0.108 6.74 2.31 10.04
5/5/2022 12:00:00 AM 12.16 53.888 0.108 6.74 2.27 10.04
5/5/2022 12:15:00 AM 12.14 53.852 0.108 6.73 2.29 10.05
5/5/2022 12:30:00 AM 12.13 53.834 0.108 6.73 2.26 10.05
5/5/2022 12:45:00 AM 12.11 53.798 0.108 6.73 2.25 10.06
5/5/2022 1:00:00 AM 12.09 53.762 0.108 6.73 2.36 10.07
5/5/2022 1:15:00 AM 12.08 53.744 0.108 6.73 2.21 10.07
5/5/2022 1:30:00 AM 12.06 53.708 0.108 6.72 2.27 10.07
5/5/2022 1:45:00 AM 12.05 53.69 0.108 6.73 2.56 10.08
5/5/2022 2:00:00 AM 12.04 53.672 0.108 6.71 2.29 10.08
5/5/2022 2:15:00 AM 12.03 53.654 0.108 6.71 2.15 10.09
5/5/2022 2:30:00 AM 12.02 53.636 0.108 6.72 2.21 10.08
5/5/2022 2:45:00 AM 12 53.6 0.108 6.71 2.21 10.09
5/5/2022 3:00:00 AM 11.99 53.582 0.108 6.71 2.19 10.09
5/5/2022 3:15:00 AM 11.97 53.546 0.108 6.7 2.29 10.09
5/5/2022 3:30:00 AM 11.96 53.528 0.108 6.7 2.16 10.1
5/5/2022 3:45:00 AM 11.95 53.51 0.108 6.71 2.22 10.1
5/5/2022 4:00:00 AM 11.93 53.474 0.108 6.71 2.32 10.1
5/5/2022 4:15:00 AM 11.89 53.402 0.108 6.7 2.29 10.1
5/5/2022 4:30:00 AM 11.85 53.33 0.108 6.7 2.2 10.11
5/5/2022 4:45:00 AM 11.81 53.258 0.108 6.69 2.23 10.12
5/5/2022 5:00:00 AM 11.78 53.204 0.108 6.7 2.3 10.12
5/5/2022 5:15:00 AM 11.74 53.132 0.108 6.69 2.2 10.13
5/5/2022 5:30:00 AM 11.7 53.06 0.108 6.69 2.22 10.13
5/5/2022 5:45:00 AM 11.67 53.006 0.108 6.69 2.19 10.14
5/5/2022 6:00:00 AM 11.63 52.934 0.108 6.69 2.29 10.15
5/5/2022 6:15:00 AM 11.62 52.916 0.108 6.69 2.15 10.17
5/5/2022 6:30:00 AM 11.62 52.916 0.108 6.7 2.19 10.2
5/5/2022 6:45:00 AM 11.63 52.934 0.108 6.71 2.18 10.23
5/5/2022 7:00:00 AM 11.63 52.934 0.108 6.73 2.08 10.31
5/5/2022 7:15:00 AM 11.65 52.97 0.108 6.74 2.12 10.39
5/5/2022 7:30:00 AM 11.66 52.988 0.108 6.77 2 10.46
5/5/2022 7:45:00 AM 11.68 53.024 0.108 6.78 2.09 10.52
5/5/2022 8:00:00 AM 11.71 53.078 0.108 6.8 1.99 10.58
5/5/2022 8:15:00 AM 11.77 53.186 0.108 6.82 2.01 10.67
5/5/2022 8:30:00 AM 11.81 53.258 0.107 6.85 2.04 10.74
5/5/2022 8:45:00 AM 11.88 53.384 0.107 6.88 1.95 10.79
5/5/2022 9:00:00 AM 11.96 53.528 0.107 6.89 1.99 10.84
5/5/2022 9:15:00 AM 12.05 53.69 0.107 6.93 1.96 10.88
5/5/2022 9:30:00 AM 12.13 53.834 0.107 6.94 1.98 10.91
5/5/2022 9:45:00 AM 12.23 54.014 0.107 6.98 1.96 10.94
5/5/2022 10:00:00 AM 12.33 54.194 0.107 6.99 1.97 10.98
5/5/2022 10:15:00 AM 12.41 54.338 0.107 7.01 1.93 11
5/5/2022 10:30:00 AM 12.51 54.518 0.107 7.04 1.9 11.04
5/5/2022 10:45:00 AM 12.64 54.752 0.106 7.04 3.04 11.06
5/5/2022 11:00:00 AM 12.79 55.022 0.106 7.09 1.89 11.06
5/5/2022 11:15:00 AM 12.96 55.328 0.106 7.1 1.99 11.08
5/5/2022 11:30:00 AM 13.15 55.67 0.106 7.13 1.96 11.06
5/5/2022 11:45:00 AM 13.37 56.066 0.106 7.14 1.9 11.05
5/5/2022 12:00:00 PM 13.58 56.444 0.106 7.16 2.04 11.03
5/5/2022 12:15:00 PM 13.78 56.804 0.106 7.19 1.92 11
5/5/2022 12:30:00 PM 13.97 57.146 0.106 7.2 2.26 10.99
5/5/2022 12:45:00 PM 14.15 57.47 0.106 7.22 1.99 10.97
5/5/2022 1:00:00 PM 14.35 57.83 0.106 7.24 1.94 10.94
5/5/2022 1:15:00 PM 14.62 58.316 0.107 7.26 2.01 10.91
5/5/2022 1:30:00 PM 14.84 58.712 0.107 7.27 1.95 10.87
5/5/2022 1:45:00 PM 15.02 59.036 0.107 7.29 2.02 10.84
5/5/2022 2:00:00 PM 15.27 59.486 0.107 7.29 1.95 10.8
5/5/2022 2:15:00 PM 15.51 59.918 0.107 7.31 1.93 10.76
5/5/2022 2:30:00 PM 15.67 60.206 0.107 7.33 2.04 10.72
5/5/2022 2:45:00 PM 15.76 60.368 0.107 7.31 2.02 10.69
5/5/2022 3:00:00 PM 15.7 60.26 0.107 7.32 1.97 10.65
5/5/2022 3:15:00 PM 15.75 60.35 0.107 7.32 1.92 10.64
5/5/2022 3:30:00 PM 15.89 60.602 0.107 7.31 1.93 10.63
5/5/2022 3:45:00 PM 15.9 60.62 0.107 7.32 1.91 10.59
5/5/2022 4:00:00 PM 15.83 60.494 0.107 7.31 2.02 10.57
5/5/2022 4:15:00 PM 15.81 60.458 0.107 7.3 1.95 10.55
5/5/2022 4:30:00 PM 15.74 60.332 0.107 7.29 1.99 10.53
5/5/2022 4:45:00 PM 15.63 60.134 0.108 7.28 2 10.51
5/5/2022 5:00:00 PM 15.56 60.008 0.108 7.26 1.99 10.49
5/5/2022 5:15:00 PM 15.35 59.63 0.107 7.22 1.97 10.46
5/5/2022 5:30:00 PM 15.18 59.324 0.107 7.2 1.97 10.42
5/5/2022 5:45:00 PM 15.08 59.144 0.108 7.19 2.17 10.41
5/5/2022 6:00:00 PM 15 59 0.108 7.17 1.95 10.4
5/5/2022 6:15:00 PM 14.91 58.838 0.108 7.16 2.08 10.37
5/5/2022 6:30:00 PM 14.84 58.712 0.108 7.13 2.03 10.35
5/5/2022 6:45:00 PM 14.77 58.586 0.108 7.12 2.02 10.32
5/5/2022 7:00:00 PM 14.66 58.388 0.108 7.08 1.99 10.28
5/5/2022 7:15:00 PM 14.55 58.19 0.108 7.05 2.01 10.21
5/5/2022 7:30:00 PM 14.43 57.974 0.108 7.01 2.02 10.16
5/5/2022 7:45:00 PM 14.31 57.758 0.108 6.98 2.06 10.09
5/5/2022 8:00:00 PM 14.2 57.56 0.108 6.93 2.09 10.01
5/5/2022 8:15:00 PM 14.1 57.38 0.108 6.91 2.09 9.95
5/5/2022 8:30:00 PM 14.01 57.218 0.109 6.87 2.1 9.89
5/5/2022 8:45:00 PM 13.92 57.056 0.109 6.83 2.26 9.85
5/5/2022 9:00:00 PM 13.84 56.912 0.109 6.8 2.31 9.81
5/5/2022 9:15:00 PM 13.76 56.768 0.109 6.79 2.29 9.78
5/5/2022 9:30:00 PM 13.69 56.642 0.109 6.77 2.4 9.76
5/5/2022 9:45:00 PM 13.62 56.516 0.109 6.75 2.29 9.74
5/5/2022 10:00:00 PM 13.56 56.408 0.109 6.75 2.33 9.72
5/5/2022 10:15:00 PM 13.5 56.3 0.11 6.74 2.38 9.71
5/5/2022 10:30:00 PM 13.45 56.21 0.11 6.73 2.31 9.7
5/5/2022 10:45:00 PM 13.41 56.138 0.11 6.73 2.26 9.69
5/5/2022 11:00:00 PM 13.37 56.066 0.11 6.73 2.45 9.69
5/5/2022 11:15:00 PM 13.32 55.976 0.11 6.73 2.29 9.7
5/5/2022 11:30:00 PM 13.28 55.904 0.11 6.72 2.36 9.7
5/5/2022 11:45:00 PM 13.24 55.832 0.11 6.73 2.35 9.7
5/6/2022 12:00:00 AM 13.2 55.76 0.11 6.72 2.3 9.71
5/6/2022 12:15:00 AM 13.17 55.706 0.11 6.72 2.36 9.71
5/6/2022 12:30:00 AM 13.14 55.652 0.11 6.72 2.39 9.73
5/6/2022 12:45:00 AM 13.11 55.598 0.11 6.72 2.41 9.73
5/6/2022 1:00:00 AM 13.08 55.544 0.11 6.72 2.28 9.73
5/6/2022 1:15:00 AM 13.05 55.49 0.11 6.71 2.3 9.74
5/6/2022 1:30:00 AM 13.01 55.418 0.11 6.71 2.28 9.75
5/6/2022 1:45:00 AM 12.98 55.364 0.11 6.71 2.27 9.76
5/6/2022 2:00:00 AM 12.96 55.328 0.11 6.71 2.26 9.76
5/6/2022 2:15:00 AM 12.93 55.274 0.11 6.71 2.27 9.77
5/6/2022 2:30:00 AM 12.91 55.238 0.11 6.71 2.4 9.78
5/6/2022 2:45:00 AM 12.9 55.22 0.11 6.72 2.63 9.78
5/6/2022 3:00:00 AM 12.9 55.22 0.11 6.72 2.28 9.78
5/6/2022 3:15:00 AM 12.89 55.202 0.109 6.72 2.86 9.76
5/6/2022 3:30:00 AM 12.9 55.22 0.109 6.72 2.43 9.76
5/6/2022 3:45:00 AM 12.9 55.22 0.109 6.73 2.36 9.76
5/6/2022 4:00:00 AM 12.91 55.238 0.109 6.74 2.3 9.76
5/6/2022 4:15:00 AM 12.92 55.256 0.109 6.74 2.3 9.75
5/6/2022 4:30:00 AM 12.94 55.292 0.109 6.74 2.32 9.74
5/6/2022 4:45:00 AM 12.94 55.292 0.109 6.74 2.2 9.73
5/6/2022 5:00:00 AM 12.95 55.31 0.109 6.74 2.22 9.73
5/6/2022 5:15:00 AM 12.94 55.292 0.109 6.74 2.21 9.73
5/6/2022 5:30:00 AM 12.94 55.292 0.109 6.74 2.29 9.73
5/6/2022 5:45:00 AM 12.93 55.274 0.109 6.74 2.19 9.74
5/6/2022 6:00:00 AM 12.92 55.256 0.109 6.74 2.21 9.75
5/6/2022 6:15:00 AM 12.91 55.238 0.109 6.74 2.13 9.74
5/6/2022 6:30:00 AM 12.88 55.184 0.109 6.75 2.35 9.76
5/6/2022 6:45:00 AM 12.86 55.148 0.109 6.74 2.15 9.78
5/6/2022 7:00:00 AM 12.85 55.13 0.109 6.74 2.2 9.8
5/6/2022 7:15:00 AM 12.84 55.112 0.109 6.75 2.04 9.81
5/6/2022 7:30:00 AM 12.83 55.094 0.109 6.75 2.17 9.85
5/6/2022 7:45:00 AM 12.83 55.094 0.109 6.76 2.17 9.88
5/6/2022 8:00:00 AM 12.83 55.094 0.109 6.77 2.18 9.96
5/6/2022 8:15:00 AM 12.85 55.13 0.108 6.78 2.08 10.02
5/6/2022 8:30:00 AM 12.86 55.148 0.108 6.8 2.04 10.08
5/6/2022 8:45:00 AM 12.87 55.166 0.108 6.8 1.99 10.11
5/6/2022 9:00:00 AM 12.88 55.184 0.108 6.82 2.01 10.14
5/6/2022 9:15:00 AM 12.89 55.202 0.108 6.83 2.06 10.19
5/6/2022 9:30:00 AM 12.92 55.256 0.108 6.84 1.96 10.25
5/6/2022 9:45:00 AM 12.94 55.292 0.108 6.86 1.95 10.29
5/6/2022 10:00:00 AM 12.95 55.31 0.107 6.87 1.9 10.3
5/6/2022 10:15:00 AM 12.96 55.328 0.107 6.88 2.01 10.33
5/6/2022 10:30:00 AM 12.98 55.364 0.107 6.89 2.14 10.34
5/6/2022 10:45:00 AM 12.99 55.382 0.107 6.9 2.11 10.34
5/6/2022 11:00:00 AM 13 55.4 0.107 6.9 2.2 10.35
5/6/2022 11:15:00 AM 13.01 55.418 0.107 6.92 2.02 10.37
5/6/2022 11:30:00 AM 13.03 55.454 0.107 6.92 2.05 10.42
5/6/2022 11:45:00 AM 13.05 55.49 0.106 6.95 2.23 10.46
5/6/2022 12:00:00 PM 13.05 55.49 0.106 6.95 2.42 10.45
5/6/2022 12:15:00 PM 13.05 55.49 0.106 6.96 2.63 10.44
5/6/2022 12:30:00 PM 13.06 55.508 0.105 6.97 2.79 10.44
5/6/2022 12:45:00 PM 13.07 55.526 0.105 6.97 3.19 10.44
5/6/2022 1:00:00 PM 13.06 55.508 0.104 6.96 3.18 10.44
5/6/2022 1:15:00 PM 13.06 55.508 0.104 6.97 3.81 10.42
5/6/2022 1:30:00 PM 13.06 55.508 0.104 6.97 4.42 10.43
5/6/2022 1:45:00 PM 13.06 55.508 0.103 6.98 4.19 10.46
5/6/2022 2:00:00 PM 13.06 55.508 0.104 6.97 4.57 10.45
5/6/2022 2:15:00 PM 13.06 55.508 0.104 6.98 3.76 10.45
5/6/2022 2:30:00 PM 13.04 55.472 0.104 6.96 3.58 10.45
5/6/2022 2:45:00 PM 13.04 55.472 0.104 6.97 3.66 10.45
5/6/2022 3:00:00 PM 13.04 55.472 0.104 6.96 4.64 10.47
5/6/2022 3:15:00 PM 13.06 55.508 0.104 6.98 3.72 10.5
5/6/2022 3:30:00 PM 13.08 55.544 0.104 6.99 3.57 10.53
5/6/2022 3:45:00 PM 13.08 55.544 0.104 6.99 3.42 10.51
5/6/2022 4:00:00 PM 13.08 55.544 0.104 6.99 3.22 10.5
5/6/2022 4:15:00 PM 13.06 55.508 0.104 6.97 3.93 10.48
5/6/2022 4:30:00 PM 13.05 55.49 0.104 6.97 3 10.48
5/6/2022 4:45:00 PM 13.03 55.454 0.104 6.98 2.97 10.45
5/6/2022 5:00:00 PM 13 55.4 0.104 6.97 3.06 10.43
5/6/2022 5:15:00 PM 12.97 55.346 0.104 6.96 2.98 10.43
5/6/2022 5:30:00 PM 12.95 55.31 0.104 6.96 3.13 10.42
5/6/2022 5:45:00 PM 12.93 55.274 0.104 6.95 3.03 10.44
5/6/2022 6:00:00 PM 12.9 55.22 0.104 6.95 3.06 10.43
5/6/2022 6:15:00 PM 12.87 55.166 0.104 6.93 2.86 10.4
5/6/2022 6:30:00 PM 12.83 55.094 0.104 6.92 2.98 10.34
5/6/2022 6:45:00 PM 12.78 55.004 0.104 6.9 3.05 10.31
5/6/2022 7:00:00 PM 12.72 54.896 0.104 6.88 3 10.27
5/6/2022 7:15:00 PM 12.66 54.788 0.105 6.87 3.07 10.25
5/6/2022 7:30:00 PM 12.59 54.662 0.105 6.85 3.05 10.21
5/6/2022 7:45:00 PM 12.52 54.536 0.105 6.83 3.41 10.19
5/6/2022 8:00:00 PM 12.47 54.446 0.105 6.81 3.4 10.17
5/6/2022 8:15:00 PM 12.41 54.338 0.105 6.79 3.51 10.14
5/6/2022 8:30:00 PM 12.35 54.23 0.105 6.79 3.53 10.13
5/6/2022 8:45:00 PM 12.29 54.122 0.105 6.78 3.74 10.12
5/6/2022 9:00:00 PM 12.23 54.014 0.105 6.76 3.73 10.11
5/6/2022 9:15:00 PM 12.18 53.924 0.105 6.75 3.81 10.11
5/6/2022 9:30:00 PM 12.13 53.834 0.106 6.74 3.95 10.11
5/6/2022 9:45:00 PM 12.08 53.744 0.106 6.74 4.11 10.12
5/6/2022 10:00:00 PM 12.04 53.672 0.106 6.73 4.1 10.13
5/6/2022 10:15:00 PM 12 53.6 0.106 6.73 4.27 10.14
5/6/2022 10:30:00 PM 11.97 53.546 0.106 6.73 4.61 10.17
5/6/2022 10:45:00 PM 11.93 53.474 0.106 6.72 4.61 10.18
5/6/2022 11:00:00 PM 11.91 53.438 0.106 6.72 4.86 10.2
5/6/2022 11:15:00 PM 11.88 53.384 0.106 6.72 4.92 10.22
5/6/2022 11:30:00 PM 11.86 53.348 0.107 6.72 5.06 10.23
5/6/2022 11:45:00 PM 11.84 53.312 0.107 6.72 4.91 10.25
5/7/2022 12:00:00 AM 11.82 53.276 0.107 6.72 5.16 10.27
5/7/2022 12:15:00 AM 11.77 53.186 0.107 6.72 5.94 10.29
5/7/2022 12:30:00 AM 11.72 53.096 0.107 6.71 5.28 10.32
5/7/2022 12:45:00 AM 11.67 53.006 0.108 6.71 5.46 10.35
5/7/2022 1:00:00 AM 11.64 52.952 0.108 6.71 5.46 10.37
5/7/2022 1:15:00 AM 11.61 52.898 0.108 6.72 5.38 10.4
5/7/2022 1:30:00 AM 11.6 52.88 0.108 6.72 5.35 10.42
5/7/2022 1:45:00 AM 11.6 52.88 0.108 6.72 5.41 10.42
5/7/2022 2:00:00 AM 11.62 52.916 0.109 6.73 5.5 10.43
5/7/2022 2:15:00 AM 11.64 52.952 0.109 6.73 5.53 10.42
5/7/2022 2:30:00 AM 11.65 52.97 0.109 6.73 5.59 10.43
5/7/2022 2:45:00 AM 11.66 52.988 0.109 6.73 5.52 10.43
5/7/2022 3:00:00 AM 11.64 52.952 0.109 6.73 5.75 10.43
5/7/2022 3:15:00 AM 11.61 52.898 0.11 6.74 5.58 10.45
5/7/2022 3:30:00 AM 11.57 52.826 0.111 6.74 5.4 10.47
5/7/2022 3:45:00 AM 11.52 52.736 0.111 6.72 5.57 10.49
5/7/2022 4:00:00 AM 11.48 52.664 0.112 6.72 5.33 10.5
5/7/2022 4:15:00 AM 11.46 52.628 0.112 6.72 5.57 10.51
5/7/2022 4:30:00 AM 11.44 52.592 0.111 6.73 6.23 10.53
5/7/2022 4:45:00 AM 11.42 52.556 0.111 6.71 6.1 10.54
5/7/2022 5:00:00 AM 11.4 52.52 0.111 6.72 5.72 10.56
5/7/2022 5:15:00 AM 11.37 52.466 0.11 6.72 5.44 10.57
5/7/2022 5:30:00 AM 11.34 52.412 0.11 6.72 5.62 10.59
5/7/2022 5:45:00 AM 11.3 52.34 0.109 6.72 5.53 10.6
5/7/2022 6:00:00 AM 11.26 52.268 0.108 6.71 5.56 10.62
5/7/2022 6:15:00 AM 11.23 52.214 0.107 6.71 5.59 10.63
5/7/2022 6:30:00 AM 11.22 52.196 0.107 6.71 5.44 10.63
5/7/2022 6:45:00 AM 11.24 52.232 0.107 6.72 5.12 10.64
5/7/2022 7:00:00 AM 11.25 52.25 0.106 6.73 5.3 10.65
5/7/2022 7:15:00 AM 11.24 52.232 0.106 6.72 5.18 10.65
5/7/2022 7:30:00 AM 11.22 52.196 0.106 6.72 5.11 10.66
5/7/2022 7:45:00 AM 11.18 52.124 0.105 6.73 5.21 10.69
5/7/2022 8:00:00 AM 11.14 52.052 0.105 6.74 5.09 10.72
5/7/2022 8:15:00 AM 11.1 51.98 0.104 6.74 5.1 10.74
5/7/2022 8:30:00 AM 11.08 51.944 0.104 6.74 5.1 10.78
5/7/2022 8:45:00 AM 11.07 51.926 0.105 6.74 5.07 10.81
5/7/2022 9:00:00 AM 11.06 51.908 0.104 6.75 5.15 10.85
5/7/2022 9:15:00 AM 11.03 51.854 0.104 6.76 5.13 10.88
5/7/2022 9:30:00 AM 10.99 51.782 0.104 6.76 5.13 10.92
5/7/2022 9:45:00 AM 10.95 51.71 0.104 6.78 5.12 10.95
5/7/2022 10:00:00 AM 10.91 51.638 0.103 6.78 5.21 10.97
5/7/2022 10:15:00 AM 10.88